PWSweather.com
Personal Weather Stations
Station Observations
HVALPSUND
Hvalpsund, FarsoeDK 9640

HvalpsundFarsoeDK 9640

Lat: 56.705311, Lon: 9.203638

Elevation: 5

Station Type: Vantage Pro2

http://hvalpsundvejr.dk

High Low Average
Temperature 60.7°F15.9°C 55.2°F12.9°C 57.6°F14.2°C
Dew Point 56.5°F13.6°C 52.5°F11.4°C 54.8°F12.7°C
Winds 21.4 mph 34.4 kmh 1.1 mph 1.8 kmh 9.0 mph SSW14.5 kmh SSW
Wind Gusts 26.0 mph41.8 kmh 2.0 mph3.2 kmh 12.0 mph19.3 kmh
Humidity 96% 81% 90%
Pressure 29.73 in1006.8 mb 29.63 in1003.4 mb -
Precipitation 0.43 in10.9 mm - -
Hour Temp Dew Point Humidity Winds Wind Gusts Pressure Precip Precip Rate Daily Precip Total
12:00 AM 58.6°F14.8°C 55.1°F12.8°C 88% 20.0 mph WNW32.2 kmh WNW 25.0 mph40.2 kmh 29.68 in1005.1 mb 0.00 in0.0 mm 0.00 in0.0 mm 0.00 in0.0 mm
12:01 AM 58.7°F14.8°C 55.2°F12.9°C 88% 19.8 mph WNW31.9 kmh WNW 25.0 mph40.2 kmh 29.68 in1005.1 mb 0.00 in0.0 mm 0.00 in0.0 mm 0.00 in0.0 mm
12:02 AM 58.7°F14.8°C 54.8°F12.7°C 87% 21.0 mph WNW33.8 kmh WNW 24.0 mph38.6 kmh 29.69 in1005.4 mb 0.00 in0.0 mm 0.00 in0.0 mm 0.00 in0.0 mm
12:03 AM 58.6°F14.8°C 54.7°F12.6°C 87% 20.9 mph WNW33.6 kmh WNW 25.0 mph40.2 kmh 29.69 in1005.4 mb 0.00 in0.0 mm 0.00 in0.0 mm 0.00 in0.0 mm
12:04 AM 58.6°F14.8°C 54.7°F12.6°C 87% 19.5 mph WNW31.4 kmh WNW 25.0 mph40.2 kmh 29.69 in1005.4 mb 0.00 in0.0 mm 0.00 in0.0 mm 0.00 in0.0 mm
12:05 AM 58.6°F14.8°C 54.4°F12.4°C 86% 20.1 mph NW32.3 kmh NW 24.0 mph38.6 kmh 29.68 in1005.1 mb 0.00 in0.0 mm 0.00 in0.0 mm 0.00 in0.0 mm
12:06 AM 58.7°F14.8°C 55.2°F12.9°C 88% 18.9 mph WNW30.4 kmh WNW 24.0 mph38.6 kmh 29.69 in1005.4 mb 0.00 in0.0 mm 0.00 in0.0 mm 0.00 in0.0 mm
12:07 AM 58.7°F14.8°C 54.8°F12.7°C 87% 21.0 mph WNW33.8 kmh WNW 23.0 mph37.0 kmh 29.68 in1005.1 mb 0.00 in0.0 mm 0.00 in0.0 mm 0.00 in0.0 mm
12:08 AM 58.6°F14.8°C 55.1°F12.8°C 88% 19.5 mph WNW31.4 kmh WNW 26.0 mph41.8 kmh 29.69 in1005.4 mb 0.00 in0.0 mm 0.00 in0.0 mm 0.00 in0.0 mm
12:09 AM 58.6°F14.8°C 54.4°F12.4°C 86% 20.3 mph WNW32.7 kmh WNW 26.0 mph41.8 kmh 29.69 in1005.4 mb 0.00 in0.0 mm 0.00 in0.0 mm 0.00 in0.0 mm
12:10 AM 58.6°F14.8°C 54.7°F12.6°C 87% 19.3 mph WNW31.1 kmh WNW 25.0 mph40.2 kmh 29.69 in1005.4 mb 0.00 in0.0 mm 0.00 in0.0 mm 0.00 in0.0 mm
12:11 AM 58.7°F14.8°C 54.8°F12.7°C 87% 19.4 mph NW31.2 kmh NW 24.0 mph38.6 kmh 29.69 in1005.4 mb 0.00 in0.0 mm 0.00 in0.0 mm 0.00 in0.0 mm
12:12 AM 58.7°F14.8°C 54.8°F12.7°C 87% 19.5 mph NW31.4 kmh NW 23.0 mph37.0 kmh 29.69 in1005.4 mb 0.00 in0.0 mm 0.00 in0.0 mm 0.00 in0.0 mm
12:13 AM 58.7°F14.8°C 54.8°F12.7°C 87% 17.6 mph WNW28.3 kmh WNW 22.0 mph35.4 kmh 29.69 in1005.4 mb 0.00 in0.0 mm 0.00 in0.0 mm 0.00 in0.0 mm
12:14 AM 58.6°F14.8°C 54.7°F12.6°C 87% 18.2 mph WNW29.3 kmh WNW 21.0 mph33.8 kmh 29.69 in1005.4 mb 0.00 in0.0 mm 0.00 in0.0 mm 0.00 in0.0 mm
12:15 AM 58.6°F14.8°C 54.4°F12.4°C 86% 21.4 mph WNW34.4 kmh WNW 26.0 mph41.8 kmh 29.69 in1005.4 mb 0.00 in0.0 mm 0.00 in0.0 mm 0.00 in0.0 mm
12:16 AM 58.6°F14.8°C 55.1°F12.8°C 88% 20.7 mph NW33.3 kmh NW 26.0 mph41.8 kmh 29.69 in1005.4 mb 0.00 in0.0 mm 0.00 in0.0 mm 0.00 in0.0 mm
12:17 AM 58.7°F14.8°C 54.5°F12.5°C 86% 16.9 mph WNW27.2 kmh WNW 25.0 mph40.2 kmh 29.69 in1005.4 mb 0.00 in0.0 mm 0.00 in0.0 mm 0.00 in0.0 mm
12:18 AM 58.7°F14.8°C 54.8°F12.7°C 87% 18.3 mph WNW29.5 kmh WNW 21.0 mph33.8 kmh 29.69 in1005.4 mb 0.00 in0.0 mm 0.00 in0.0 mm 0.00 in0.0 mm
12:19 AM 58.7°F14.8°C 54.5°F12.5°C 86% 18.4 mph NW29.6 kmh NW 21.0 mph33.8 kmh 29.69 in1005.4 mb 0.00 in0.0 mm 0.00 in0.0 mm 0.00 in0.0 mm
12:20 AM 58.8°F14.9°C 54.9°F12.7°C 87% 16.9 mph WNW27.2 kmh WNW 21.0 mph33.8 kmh 29.69 in1005.4 mb 0.00 in0.0 mm 0.00 in0.0 mm 0.00 in0.0 mm
12:21 AM 58.7°F14.8°C 54.8°F12.7°C 87% 18.6 mph WNW29.9 kmh WNW 23.0 mph37.0 kmh 29.69 in1005.4 mb 0.00 in0.0 mm 0.00 in0.0 mm 0.00 in0.0 mm
12:22 AM 58.7°F14.8°C 54.5°F12.5°C 86% 21.0 mph WNW33.8 kmh WNW 23.0 mph37.0 kmh 29.69 in1005.4 mb 0.00 in0.0 mm 0.00 in0.0 mm 0.00 in0.0 mm
12:23 AM 58.7°F14.8°C 55.2°F12.9°C 88% 18.7 mph WNW30.1 kmh WNW 23.0 mph37.0 kmh 29.69 in1005.4 mb 0.00 in0.0 mm 0.00 in0.0 mm 0.00 in0.0 mm
12:24 AM 58.7°F14.8°C 54.5°F12.5°C 86% 18.4 mph WNW29.6 kmh WNW 23.0 mph37.0 kmh 29.69 in1005.4 mb 0.00 in0.0 mm 0.00 in0.0 mm 0.00 in0.0 mm
12:25 AM 58.8°F14.9°C 55.3°F12.9°C 88% 18.6 mph WNW29.9 kmh WNW 22.0 mph35.4 kmh 29.69 in1005.4 mb 0.00 in0.0 mm 0.00 in0.0 mm 0.00 in0.0 mm
12:26 AM 58.8°F14.9°C 55.3°F12.9°C 88% 16.5 mph WNW26.6 kmh WNW 23.0 mph37.0 kmh 29.69 in1005.4 mb 0.00 in0.0 mm 0.00 in0.0 mm 0.00 in0.0 mm
12:27 AM 58.7°F14.8°C 54.5°F12.5°C 86% 20.2 mph WNW32.5 kmh WNW 23.0 mph37.0 kmh 29.69 in1005.4 mb 0.00 in0.0 mm 0.00 in0.0 mm 0.00 in0.0 mm
12:28 AM 58.7°F14.8°C 54.5°F12.5°C 86% 18.0 mph WNW29.0 kmh WNW 23.0 mph37.0 kmh 29.69 in1005.4 mb 0.00 in0.0 mm 0.00 in0.0 mm 0.00 in0.0 mm
12:29 AM 58.7°F14.8°C 54.5°F12.5°C 86% 19.7 mph WNW31.7 kmh WNW 22.0 mph35.4 kmh 29.69 in1005.4 mb 0.00 in0.0 mm 0.00 in0.0 mm 0.00 in0.0 mm
12:30 AM 58.7°F14.8°C 54.8°F12.7°C 87% 19.2 mph WNW30.9 kmh WNW 23.0 mph37.0 kmh 29.69 in1005.4 mb 0.00 in0.0 mm 0.00 in0.0 mm 0.00 in0.0 mm
12:31 AM 58.7°F14.8°C 54.5°F12.5°C 86% 17.7 mph NW28.5 kmh NW 23.0 mph37.0 kmh 29.69 in1005.4 mb 0.00 in0.0 mm 0.00 in0.0 mm 0.00 in0.0 mm
12:32 AM 58.7°F14.8°C 54.5°F12.5°C 86% 20.6 mph NW33.2 kmh NW 24.0 mph38.6 kmh 29.69 in1005.4 mb 0.00 in0.0 mm 0.00 in0.0 mm 0.00 in0.0 mm
12:33 AM 58.7°F14.8°C 54.5°F12.5°C 86% 17.7 mph WNW28.5 kmh WNW 24.0 mph38.6 kmh 29.69 in1005.4 mb 0.00 in0.0 mm 0.00 in0.0 mm 0.00 in0.0 mm
12:34 AM 58.7°F14.8°C 54.8°F12.7°C 87% 18.4 mph NW29.6 kmh NW 21.0 mph33.8 kmh 29.68 in1005.1 mb 0.00 in0.0 mm 0.00 in0.0 mm 0.00 in0.0 mm
12:35 AM 58.7°F14.8°C 54.5°F12.5°C 86% 20.7 mph NW33.3 kmh NW 23.0 mph37.0 kmh 29.69 in1005.4 mb 0.00 in0.0 mm 0.00 in0.0 mm 0.00 in0.0 mm
12:36 AM 58.7°F14.8°C 54.8°F12.7°C 87% 18.5 mph WNW29.8 kmh WNW 23.0 mph37.0 kmh 29.68 in1005.1 mb 0.00 in0.0 mm 0.00 in0.0 mm 0.00 in0.0 mm
12:37 AM 58.7°F14.8°C 54.8°F12.7°C 87% 19.0 mph NW30.6 kmh NW 23.0 mph37.0 kmh 29.69 in1005.4 mb 0.00 in0.0 mm 0.00 in0.0 mm 0.00 in0.0 mm
12:38 AM 58.7°F14.8°C 54.5°F12.5°C 86% 17.7 mph WNW28.5 kmh WNW 23.0 mph37.0 kmh 29.69 in1005.4 mb 0.00 in0.0 mm 0.00 in0.0 mm 0.00 in0.0 mm
12:39 AM 58.7°F14.8°C 54.8°F12.7°C 87% 18.2 mph NW29.3 kmh NW 20.0 mph32.2 kmh 29.69 in1005.4 mb 0.00 in0.0 mm 0.00 in0.0 mm 0.00 in0.0 mm
12:40 AM 58.7°F14.8°C 54.5°F12.5°C 86% 18.9 mph NW30.4 kmh NW 23.0 mph37.0 kmh 29.69 in1005.4 mb 0.00 in0.0 mm 0.00 in0.0 mm 0.00 in0.0 mm
12:41 AM 58.7°F14.8°C 54.5°F12.5°C 86% 20.5 mph WNW33.0 kmh WNW 23.0 mph37.0 kmh 29.69 in1005.4 mb 0.00 in0.0 mm 0.00 in0.0 mm 0.00 in0.0 mm
12:42 AM 58.7°F14.8°C 54.8°F12.7°C 87% 17.7 mph NW28.5 kmh NW 24.0 mph38.6 kmh 29.69 in1005.4 mb 0.00 in0.0 mm 0.00 in0.0 mm 0.00 in0.0 mm
12:43 AM 58.7°F14.8°C 54.5°F12.5°C 86% 20.0 mph NW32.2 kmh NW 24.0 mph38.6 kmh 29.69 in1005.4 mb 0.00 in0.0 mm 0.00 in0.0 mm 0.00 in0.0 mm
12:44 AM 58.7°F14.8°C 54.8°F12.7°C 87% 19.5 mph NW31.4 kmh NW 24.0 mph38.6 kmh 29.69 in1005.4 mb 0.00 in0.0 mm 0.00 in0.0 mm 0.00 in0.0 mm
12:45 AM 58.7°F14.8°C 54.5°F12.5°C 86% 19.3 mph NW31.1 kmh NW 21.0 mph33.8 kmh 29.69 in1005.4 mb 0.00 in0.0 mm 0.00 in0.0 mm 0.00 in0.0 mm
12:46 AM 58.7°F14.8°C 54.8°F12.7°C 87% 17.8 mph WNW28.6 kmh WNW 21.0 mph33.8 kmh 29.69 in1005.4 mb 0.00 in0.0 mm 0.00 in0.0 mm 0.00 in0.0 mm
12:47 AM 58.7°F14.8°C 54.8°F12.7°C 87% 18.2 mph NW29.3 kmh NW 20.0 mph32.2 kmh 29.69 in1005.4 mb 0.00 in0.0 mm 0.00 in0.0 mm 0.00 in0.0 mm
12:48 AM 58.7°F14.8°C 54.5°F12.5°C 86% 19.2 mph NW30.9 kmh NW 23.0 mph37.0 kmh 29.69 in1005.4 mb 0.00 in0.0 mm 0.00 in0.0 mm 0.00 in0.0 mm
12:49 AM 58.8°F14.9°C 54.9°F12.7°C 87% 18.6 mph NW29.9 kmh NW 23.0 mph37.0 kmh 29.69 in1005.4 mb 0.00 in0.0 mm 0.00 in0.0 mm 0.00 in0.0 mm
12:50 AM 58.8°F14.9°C 54.9°F12.7°C 87% 18.2 mph NW29.3 kmh NW 20.0 mph32.2 kmh 29.69 in1005.4 mb 0.00 in0.0 mm 0.00 in0.0 mm 0.00 in0.0 mm
12:51 AM 58.8°F14.9°C 54.6°F12.6°C 86% 17.5 mph NW28.2 kmh NW 20.0 mph32.2 kmh 29.69 in1005.4 mb 0.00 in0.0 mm 0.00 in0.0 mm 0.00 in0.0 mm
12:52 AM 58.8°F14.9°C 54.6°F12.6°C 86% 17.9 mph NW28.8 kmh NW 21.0 mph33.8 kmh 29.69 in1005.4 mb 0.00 in0.0 mm 0.00 in0.0 mm 0.00 in0.0 mm
12:53 AM 58.7°F14.8°C 54.5°F12.5°C 86% 20.3 mph NW32.7 kmh NW 23.0 mph37.0 kmh 29.69 in1005.4 mb 0.00 in0.0 mm 0.00 in0.0 mm 0.00 in0.0 mm
12:54 AM 58.7°F14.8°C 54.5°F12.5°C 86% 19.4 mph NW31.2 kmh NW 23.0 mph37.0 kmh 29.69 in1005.4 mb 0.00 in0.0 mm 0.00 in0.0 mm 0.00 in0.0 mm
12:55 AM 58.8°F14.9°C 54.6°F12.6°C 86% 17.9 mph NW28.8 kmh NW 22.0 mph35.4 kmh 29.69 in1005.4 mb 0.00 in0.0 mm 0.00 in0.0 mm 0.00 in0.0 mm
12:56 AM 58.8°F14.9°C 54.9°F12.7°C 87% 17.9 mph WNW28.8 kmh WNW 21.0 mph33.8 kmh 29.69 in1005.4 mb 0.00 in0.0 mm 0.00 in0.0 mm 0.00 in0.0 mm
12:57 AM 58.8°F14.9°C 54.9°F12.7°C 87% 17.6 mph NW28.3 kmh NW 21.0 mph33.8 kmh 29.69 in1005.4 mb 0.00 in0.0 mm 0.00 in0.0 mm 0.00 in0.0 mm
12:58 AM 58.8°F14.9°C 54.9°F12.7°C 87% 17.1 mph NW27.5 kmh NW 21.0 mph33.8 kmh 29.69 in1005.4 mb 0.00 in0.0 mm 0.00 in0.0 mm 0.00 in0.0 mm
12:59 AM 58.8°F14.9°C 54.6°F12.6°C 86% 18.0 mph NW29.0 kmh NW 23.0 mph37.0 kmh 29.69 in1005.4 mb 0.00 in0.0 mm 0.00 in0.0 mm 0.00 in0.0 mm
01:00 AM 58.8°F14.9°C 54.9°F12.7°C 87% 16.0 mph WNW25.7 kmh WNW 23.0 mph37.0 kmh 29.69 in1005.4 mb 0.00 in0.0 mm 0.00 in0.0 mm 0.00 in0.0 mm
01:01 AM 58.8°F14.9°C 54.6°F12.6°C 86% 20.3 mph NW32.7 kmh NW 22.0 mph35.4 kmh 29.69 in1005.4 mb 0.00 in0.0 mm 0.00 in0.0 mm 0.00 in0.0 mm
01:02 AM 58.7°F14.8°C 54.5°F12.5°C 86% 19.3 mph NW31.1 kmh NW 22.0 mph35.4 kmh 29.69 in1005.4 mb 0.00 in0.0 mm 0.00 in0.0 mm 0.00 in0.0 mm
01:03 AM 58.7°F14.8°C 54.8°F12.7°C 87% 16.4 mph NW26.4 kmh NW 21.0 mph33.8 kmh 29.69 in1005.4 mb 0.00 in0.0 mm 0.00 in0.0 mm 0.00 in0.0 mm
01:04 AM 58.7°F14.8°C 54.8°F12.7°C 87% 16.2 mph NW26.1 kmh NW 19.0 mph30.6 kmh 29.69 in1005.4 mb 0.00 in0.0 mm 0.00 in0.0 mm 0.00 in0.0 mm
01:05 AM 58.7°F14.8°C 54.5°F12.5°C 86% 16.4 mph NW26.4 kmh NW 19.0 mph30.6 kmh 29.69 in1005.4 mb 0.00 in0.0 mm 0.00 in0.0 mm 0.00 in0.0 mm
01:06 AM 58.6°F14.8°C 54.7°F12.6°C 87% 17.7 mph NW28.5 kmh NW 21.0 mph33.8 kmh 29.69 in1005.4 mb 0.00 in0.0 mm 0.00 in0.0 mm 0.00 in0.0 mm
01:07 AM 58.6°F14.8°C 54.4°F12.4°C 86% 17.8 mph WNW28.6 kmh WNW 21.0 mph33.8 kmh 29.69 in1005.4 mb 0.00 in0.0 mm 0.00 in0.0 mm 0.00 in0.0 mm
01:08 AM 58.6°F14.8°C 54.4°F12.4°C 86% 18.2 mph NW29.3 kmh NW 21.0 mph33.8 kmh 29.69 in1005.4 mb 0.00 in0.0 mm 0.00 in0.0 mm 0.00 in0.0 mm
01:09 AM 58.6°F14.8°C 54.7°F12.6°C 87% 17.6 mph NW28.3 kmh NW 21.0 mph33.8 kmh 29.69 in1005.4 mb 0.00 in0.0 mm 0.00 in0.0 mm 0.00 in0.0 mm
01:10 AM 58.7°F14.8°C 54.8°F12.7°C 87% 17.6 mph NW28.3 kmh NW 22.0 mph35.4 kmh 29.69 in1005.4 mb 0.00 in0.0 mm 0.00 in0.0 mm 0.00 in0.0 mm
01:11 AM 58.7°F14.8°C 54.5°F12.5°C 86% 18.5 mph WNW29.8 kmh WNW 23.0 mph37.0 kmh 29.69 in1005.4 mb 0.00 in0.0 mm 0.00 in0.0 mm 0.00 in0.0 mm
01:12 AM 58.6°F14.8°C 54.4°F12.4°C 86% 18.2 mph NW29.3 kmh NW 23.0 mph37.0 kmh 29.69 in1005.4 mb 0.00 in0.0 mm 0.00 in0.0 mm 0.00 in0.0 mm
01:13 AM 58.7°F14.8°C 54.8°F12.7°C 87% 15.8 mph NW25.4 kmh NW 20.0 mph32.2 kmh 29.69 in1005.4 mb 0.00 in0.0 mm 0.00 in0.0 mm 0.00 in0.0 mm
01:14 AM 58.8°F14.9°C 55.3°F12.9°C 88% 16.2 mph WNW26.1 kmh WNW 21.0 mph33.8 kmh 29.69 in1005.4 mb 0.00 in0.0 mm 0.00 in0.0 mm 0.00 in0.0 mm
01:15 AM 58.8°F14.9°C 54.6°F12.6°C 86% 17.7 mph NW28.5 kmh NW 21.0 mph33.8 kmh 29.69 in1005.4 mb 0.00 in0.0 mm 0.00 in0.0 mm 0.00 in0.0 mm
01:16 AM 58.8°F14.9°C 54.9°F12.7°C 87% 17.6 mph NW28.3 kmh NW 20.0 mph32.2 kmh 29.69 in1005.4 mb 0.00 in0.0 mm 0.00 in0.0 mm 0.00 in0.0 mm
01:17 AM 58.9°F14.9°C 55.4°F13.0°C 88% 15.5 mph NW24.9 kmh NW 20.0 mph32.2 kmh 29.68 in1005.1 mb 0.00 in0.0 mm 0.00 in0.0 mm 0.00 in0.0 mm
01:18 AM 58.8°F14.9°C 54.6°F12.6°C 86% 16.2 mph NW26.1 kmh NW 18.0 mph29.0 kmh 29.69 in1005.4 mb 0.00 in0.0 mm 0.00 in0.0 mm 0.00 in0.0 mm
01:19 AM 58.8°F14.9°C 55.3°F12.9°C 88% 16.1 mph WNW25.9 kmh WNW 19.0 mph30.6 kmh 29.68 in1005.1 mb 0.00 in0.0 mm 0.00 in0.0 mm 0.00 in0.0 mm
01:20 AM 58.8°F14.9°C 54.6°F12.6°C 86% 15.9 mph NW25.6 kmh NW 19.0 mph30.6 kmh 29.68 in1005.1 mb 0.00 in0.0 mm 0.00 in0.0 mm 0.00 in0.0 mm
01:21 AM 58.9°F14.9°C 55.0°F12.8°C 87% 16.3 mph WNW26.2 kmh WNW 18.0 mph29.0 kmh 29.68 in1005.1 mb 0.00 in0.0 mm 0.00 in0.0 mm 0.00 in0.0 mm
01:22 AM 58.7°F14.8°C 54.5°F12.5°C 86% 17.0 mph NW27.4 kmh NW 21.0 mph33.8 kmh 29.68 in1005.1 mb 0.00 in0.0 mm 0.00 in0.0 mm 0.00 in0.0 mm
01:23 AM 58.7°F14.8°C 55.2°F12.9°C 88% 16.2 mph NW26.1 kmh NW 21.0 mph33.8 kmh 29.69 in1005.4 mb 0.00 in0.0 mm 0.00 in0.0 mm 0.00 in0.0 mm
01:24 AM 58.7°F14.8°C 54.8°F12.7°C 87% 16.0 mph WNW25.7 kmh WNW 19.0 mph30.6 kmh 29.68 in1005.1 mb 0.00 in0.0 mm 0.00 in0.0 mm 0.00 in0.0 mm
01:25 AM 58.7°F14.8°C 54.8°F12.7°C 87% 17.1 mph WNW27.5 kmh WNW 20.0 mph32.2 kmh 29.68 in1005.1 mb 0.00 in0.0 mm 0.00 in0.0 mm 0.00 in0.0 mm
01:26 AM 58.7°F14.8°C 54.8°F12.7°C 87% 17.9 mph WNW28.8 kmh WNW 20.0 mph32.2 kmh 29.68 in1005.1 mb 0.00 in0.0 mm 0.00 in0.0 mm 0.00 in0.0 mm
01:27 AM 58.6°F14.8°C 54.7°F12.6°C 87% 15.9 mph NW25.6 kmh NW 20.0 mph32.2 kmh 29.68 in1005.1 mb 0.00 in0.0 mm 0.00 in0.0 mm 0.00 in0.0 mm
01:28 AM 58.7°F14.8°C 55.2°F12.9°C 88% 15.1 mph NW24.3 kmh NW 19.0 mph30.6 kmh 29.68 in1005.1 mb 0.00 in0.0 mm 0.00 in0.0 mm 0.00 in0.0 mm
01:29 AM 58.7°F14.8°C 54.8°F12.7°C 87% 16.3 mph WNW26.2 kmh WNW 19.0 mph30.6 kmh 29.68 in1005.1 mb 0.00 in0.0 mm 0.00 in0.0 mm 0.00 in0.0 mm
01:30 AM 58.7°F14.8°C 54.5°F12.5°C 86% 16.4 mph NW26.4 kmh NW 19.0 mph30.6 kmh 29.68 in1005.1 mb 0.00 in0.0 mm 0.00 in0.0 mm 0.00 in0.0 mm
01:31 AM 58.7°F14.8°C 54.8°F12.7°C 87% 18.0 mph WNW29.0 kmh WNW 20.0 mph32.2 kmh 29.68 in1005.1 mb 0.00 in0.0 mm 0.00 in0.0 mm 0.00 in0.0 mm
01:32 AM 58.8°F14.9°C 54.6°F12.6°C 86% 17.7 mph NW28.5 kmh NW 20.0 mph32.2 kmh 29.68 in1005.1 mb 0.00 in0.0 mm 0.00 in0.0 mm 0.00 in0.0 mm
01:33 AM 58.8°F14.9°C 54.9°F12.7°C 87% 17.5 mph WNW28.2 kmh WNW 21.0 mph33.8 kmh 29.68 in1005.1 mb 0.00 in0.0 mm 0.00 in0.0 mm 0.00 in0.0 mm
01:34 AM 58.7°F14.8°C 54.8°F12.7°C 87% 14.5 mph WNW23.3 kmh WNW 21.0 mph33.8 kmh 29.68 in1005.1 mb 0.00 in0.0 mm 0.00 in0.0 mm 0.00 in0.0 mm
01:35 AM 58.8°F14.9°C 54.9°F12.7°C 87% 16.7 mph WNW26.9 kmh WNW 19.0 mph30.6 kmh 29.68 in1005.1 mb 0.00 in0.0 mm 0.00 in0.0 mm 0.00 in0.0 mm
01:36 AM 58.7°F14.8°C 54.8°F12.7°C 87% 16.3 mph WNW26.2 kmh WNW 19.0 mph30.6 kmh 29.68 in1005.1 mb 0.00 in0.0 mm 0.00 in0.0 mm 0.00 in0.0 mm
01:37 AM 58.7°F14.8°C 54.5°F12.5°C 86% 16.0 mph WNW25.7 kmh WNW 20.0 mph32.2 kmh 29.68 in1005.1 mb 0.00 in0.0 mm 0.00 in0.0 mm 0.00 in0.0 mm
01:38 AM 58.7°F14.8°C 54.8°F12.7°C 87% 16.5 mph WNW26.6 kmh WNW 20.0 mph32.2 kmh 29.68 in1005.1 mb 0.00 in0.0 mm 0.00 in0.0 mm 0.00 in0.0 mm
01:39 AM 58.6°F14.8°C 54.7°F12.6°C 87% 17.2 mph WNW27.7 kmh WNW 19.0 mph30.6 kmh 29.68 in1005.1 mb 0.00 in0.0 mm 0.00 in0.0 mm 0.00 in0.0 mm
01:40 AM 58.6°F14.8°C 54.7°F12.6°C 87% 15.4 mph WNW24.8 kmh WNW 19.0 mph30.6 kmh 29.68 in1005.1 mb 0.00 in0.0 mm 0.00 in0.0 mm 0.00 in0.0 mm
01:41 AM 58.7°F14.8°C 54.8°F12.7°C 87% 16.0 mph WNW25.7 kmh WNW 18.0 mph29.0 kmh 29.68 in1005.1 mb 0.00 in0.0 mm 0.00 in0.0 mm 0.00 in0.0 mm
01:42 AM 58.6°F14.8°C 54.7°F12.6°C 87% 16.6 mph WNW26.7 kmh WNW 19.0 mph30.6 kmh 29.68 in1005.1 mb 0.00 in0.0 mm 0.00 in0.0 mm 0.00 in0.0 mm
01:43 AM 58.6°F14.8°C 54.7°F12.6°C 87% 15.9 mph WNW25.6 kmh WNW 19.0 mph30.6 kmh 29.68 in1005.1 mb 0.00 in0.0 mm 0.00 in0.0 mm 0.00 in0.0 mm
01:44 AM 58.7°F14.8°C 55.2°F12.9°C 88% 17.0 mph WNW27.4 kmh WNW 19.0 mph30.6 kmh 29.68 in1005.1 mb 0.00 in0.0 mm 0.00 in0.0 mm 0.00 in0.0 mm
01:45 AM 58.6°F14.8°C 54.7°F12.6°C 87% 16.7 mph WNW26.9 kmh WNW 21.0 mph33.8 kmh 29.68 in1005.1 mb 0.00 in0.0 mm 0.00 in0.0 mm 0.00 in0.0 mm
01:46 AM 58.7°F14.8°C 54.8°F12.7°C 87% 20.3 mph WNW32.7 kmh WNW 24.0 mph38.6 kmh 29.68 in1005.1 mb 0.00 in0.0 mm 0.00 in0.0 mm 0.00 in0.0 mm
01:47 AM 58.7°F14.8°C 54.5°F12.5°C 86% 19.0 mph WNW30.6 kmh WNW 24.0 mph38.6 kmh 29.68 in1005.1 mb 0.00 in0.0 mm 0.00 in0.0 mm 0.00 in0.0 mm
01:48 AM 58.7°F14.8°C 54.5°F12.5°C 86% 18.2 mph WNW29.3 kmh WNW 22.0 mph35.4 kmh 29.68 in1005.1 mb 0.00 in0.0 mm 0.00 in0.0 mm 0.00 in0.0 mm
01:49 AM 58.7°F14.8°C 54.5°F12.5°C 86% 15.1 mph NW24.3 kmh NW 20.0 mph32.2 kmh 29.68 in1005.1 mb 0.00 in0.0 mm 0.00 in0.0 mm 0.00 in0.0 mm
01:50 AM 58.7°F14.8°C 54.8°F12.7°C 87% 16.0 mph WNW25.7 kmh WNW 19.0 mph30.6 kmh 29.68 in1005.1 mb 0.00 in0.0 mm 0.00 in0.0 mm 0.00 in0.0 mm
01:51 AM 58.7°F14.8°C 55.2°F12.9°C 88% 15.8 mph NW25.4 kmh NW 19.0 mph30.6 kmh 29.68 in1005.1 mb 0.00 in0.0 mm 0.00 in0.0 mm 0.00 in0.0 mm
01:52 AM 58.7°F14.8°C 55.2°F12.9°C 88% 15.9 mph NW25.6 kmh NW 19.0 mph30.6 kmh 29.68 in1005.1 mb 0.00 in0.0 mm 0.00 in0.0 mm 0.00 in0.0 mm
01:53 AM 58.7°F14.8°C 54.5°F12.5°C 86% 17.2 mph WNW27.7 kmh WNW 20.0 mph32.2 kmh 29.68 in1005.1 mb 0.00 in0.0 mm 0.00 in0.0 mm 0.00 in0.0 mm
01:54 AM 58.7°F14.8°C 54.8°F12.7°C 87% 16.0 mph WNW25.7 kmh WNW 20.0 mph32.2 kmh 29.68 in1005.1 mb 0.00 in0.0 mm 0.00 in0.0 mm 0.00 in0.0 mm
01:55 AM 58.7°F14.8°C 54.8°F12.7°C 87% 15.1 mph WNW24.3 kmh WNW 17.0 mph27.4 kmh 29.68 in1005.1 mb 0.00 in0.0 mm 0.00 in0.0 mm 0.00 in0.0 mm
01:56 AM 58.6°F14.8°C 54.7°F12.6°C 87% 16.3 mph WNW26.2 kmh WNW 20.0 mph32.2 kmh 29.68 in1005.1 mb 0.00 in0.0 mm 0.00 in0.0 mm 0.00 in0.0 mm
01:57 AM 58.6°F14.8°C 54.4°F12.4°C 86% 16.7 mph WNW26.9 kmh WNW 22.0 mph35.4 kmh 29.68 in1005.1 mb 0.00 in0.0 mm 0.00 in0.0 mm 0.00 in0.0 mm
01:58 AM 58.6°F14.8°C 55.1°F12.8°C 88% 16.0 mph NW25.7 kmh NW 22.0 mph35.4 kmh 29.68 in1005.1 mb 0.00 in0.0 mm 0.00 in0.0 mm 0.00 in0.0 mm
01:59 AM 58.6°F14.8°C 54.7°F12.6°C 87% 17.6 mph WNW28.3 kmh WNW 20.0 mph32.2 kmh 29.68 in1005.1 mb 0.00 in0.0 mm 0.00 in0.0 mm 0.00 in0.0 mm
02:00 AM 58.6°F14.8°C 54.7°F12.6°C 87% 16.3 mph WNW26.2 kmh WNW 20.0 mph32.2 kmh 29.68 in1005.1 mb 0.00 in0.0 mm 0.00 in0.0 mm 0.00 in0.0 mm
02:01 AM 58.6°F14.8°C 54.7°F12.6°C 87% 16.4 mph WNW26.4 kmh WNW 19.0 mph30.6 kmh 29.68 in1005.1 mb 0.00 in0.0 mm 0.00 in0.0 mm 0.00 in0.0 mm
02:02 AM 58.6°F14.8°C 55.1°F12.8°C 88% 17.9 mph WNW28.8 kmh WNW 22.0 mph35.4 kmh 29.67 in1004.7 mb 0.00 in0.0 mm 0.00 in0.0 mm 0.00 in0.0 mm
02:03 AM 58.6°F14.8°C 54.7°F12.6°C 87% 17.3 mph WNW27.8 kmh WNW 22.0 mph35.4 kmh 29.68 in1005.1 mb 0.00 in0.0 mm 0.00 in0.0 mm 0.00 in0.0 mm
02:04 AM 58.5°F14.7°C 54.3°F12.4°C 86% 18.2 mph WNW29.3 kmh WNW 23.0 mph37.0 kmh 29.68 in1005.1 mb 0.00 in0.0 mm 0.00 in0.0 mm 0.00 in0.0 mm
02:05 AM 58.6°F14.8°C 54.4°F12.4°C 86% 18.0 mph WNW29.0 kmh WNW 23.0 mph37.0 kmh 29.68 in1005.1 mb 0.00 in0.0 mm 0.00 in0.0 mm 0.00 in0.0 mm
02:06 AM 58.5°F14.7°C 54.6°F12.6°C 87% 15.8 mph WNW25.4 kmh WNW 23.0 mph37.0 kmh 29.68 in1005.1 mb 0.00 in0.0 mm 0.00 in0.0 mm 0.00 in0.0 mm
02:07 AM 58.6°F14.8°C 55.1°F12.8°C 88% 17.6 mph WNW28.3 kmh WNW 20.0 mph32.2 kmh 29.68 in1005.1 mb 0.00 in0.0 mm 0.00 in0.0 mm 0.00 in0.0 mm
02:08 AM 58.6°F14.8°C 55.1°F12.8°C 88% 16.6 mph WNW26.7 kmh WNW 20.0 mph32.2 kmh 29.68 in1005.1 mb 0.00 in0.0 mm 0.00 in0.0 mm 0.00 in0.0 mm
02:09 AM 58.6°F14.8°C 55.1°F12.8°C 88% 17.6 mph WNW28.3 kmh WNW 21.0 mph33.8 kmh 29.68 in1005.1 mb 0.00 in0.0 mm 0.00 in0.0 mm 0.00 in0.0 mm
02:10 AM 58.6°F14.8°C 55.4°F13.0°C 89% 16.8 mph NW27.0 kmh NW 21.0 mph33.8 kmh 29.68 in1005.1 mb 0.00 in0.0 mm 0.00 in0.0 mm 0.00 in0.0 mm
02:11 AM 58.6°F14.8°C 55.1°F12.8°C 88% 18.4 mph WNW29.6 kmh WNW 20.0 mph32.2 kmh 29.68 in1005.1 mb 0.00 in0.0 mm 0.00 in0.0 mm 0.00 in0.0 mm
02:12 AM 58.6°F14.8°C 55.1°F12.8°C 88% 16.5 mph WNW26.6 kmh WNW 20.0 mph32.2 kmh 29.68 in1005.1 mb 0.00 in0.0 mm 0.00 in0.0 mm 0.00 in0.0 mm
02:13 AM 58.6°F14.8°C 54.7°F12.6°C 87% 16.1 mph WNW25.9 kmh WNW 19.0 mph30.6 kmh 29.68 in1005.1 mb 0.00 in0.0 mm 0.00 in0.0 mm 0.00 in0.0 mm
02:14 AM 58.6°F14.8°C 54.7°F12.6°C 87% 17.5 mph WNW28.2 kmh WNW 19.0 mph30.6 kmh 29.68 in1005.1 mb 0.00 in0.0 mm 0.00 in0.0 mm 0.00 in0.0 mm
02:15 AM 58.6°F14.8°C 55.1°F12.8°C 88% 16.1 mph WNW25.9 kmh WNW 19.0 mph30.6 kmh 29.68 in1005.1 mb 0.00 in0.0 mm 0.00 in0.0 mm 0.00 in0.0 mm
02:16 AM 58.6°F14.8°C 55.1°F12.8°C 88% 16.8 mph WNW27.0 kmh WNW 19.0 mph30.6 kmh 29.68 in1005.1 mb 0.00 in0.0 mm 0.00 in0.0 mm 0.00 in0.0 mm
02:17 AM 58.6°F14.8°C 55.1°F12.8°C 88% 16.8 mph WNW27.0 kmh WNW 19.0 mph30.6 kmh 29.68 in1005.1 mb 0.00 in0.0 mm 0.00 in0.0 mm 0.00 in0.0 mm
02:18 AM 58.7°F14.8°C 55.2°F12.9°C 88% 16.0 mph WNW25.7 kmh WNW 19.0 mph30.6 kmh 29.68 in1005.1 mb 0.00 in0.0 mm 0.00 in0.0 mm 0.00 in0.0 mm
02:19 AM 58.7°F14.8°C 55.2°F12.9°C 88% 15.6 mph WNW25.1 kmh WNW 19.0 mph30.6 kmh 29.68 in1005.1 mb 0.00 in0.0 mm 0.00 in0.0 mm 0.00 in0.0 mm
02:20 AM 58.7°F14.8°C 54.8°F12.7°C 87% 18.9 mph WNW30.4 kmh WNW 21.0 mph33.8 kmh 29.68 in1005.1 mb 0.00 in0.0 mm 0.00 in0.0 mm 0.00 in0.0 mm
02:21 AM 58.6°F14.8°C 54.4°F12.4°C 86% 16.5 mph WNW26.6 kmh WNW 21.0 mph33.8 kmh 29.68 in1005.1 mb 0.00 in0.0 mm 0.00 in0.0 mm 0.00 in0.0 mm
02:22 AM 58.6°F14.8°C 55.4°F13.0°C 89% 15.5 mph WNW24.9 kmh WNW 18.0 mph29.0 kmh 29.68 in1005.1 mb 0.00 in0.0 mm 0.00 in0.0 mm 0.00 in0.0 mm
02:23 AM 58.6°F14.8°C 55.1°F12.8°C 88% 16.8 mph WNW27.0 kmh WNW 18.0 mph29.0 kmh 29.68 in1005.1 mb 0.00 in0.0 mm 0.00 in0.0 mm 0.00 in0.0 mm
02:24 AM 58.6°F14.8°C 54.7°F12.6°C 87% 16.2 mph WNW26.1 kmh WNW 18.0 mph29.0 kmh 29.68 in1005.1 mb 0.00 in0.0 mm 0.00 in0.0 mm 0.00 in0.0 mm
02:25 AM 58.6°F14.8°C 54.7°F12.6°C 87% 16.5 mph WNW26.6 kmh WNW 19.0 mph30.6 kmh 29.68 in1005.1 mb 0.00 in0.0 mm 0.00 in0.0 mm 0.00 in0.0 mm
02:26 AM 58.6°F14.8°C 55.1°F12.8°C 88% 15.9 mph WNW25.6 kmh WNW 21.0 mph33.8 kmh 29.68 in1005.1 mb 0.00 in0.0 mm 0.00 in0.0 mm 0.00 in0.0 mm
02:27 AM 58.6°F14.8°C 54.4°F12.4°C 86% 17.1 mph WNW27.5 kmh WNW 21.0 mph33.8 kmh 29.68 in1005.1 mb 0.00 in0.0 mm 0.00 in0.0 mm 0.00 in0.0 mm
02:28 AM 58.6°F14.8°C 55.1°F12.8°C 88% 16.7 mph WNW26.9 kmh WNW 21.0 mph33.8 kmh 29.68 in1005.1 mb 0.00 in0.0 mm 0.00 in0.0 mm 0.00 in0.0 mm
02:29 AM 58.7°F14.8°C 54.8°F12.7°C 87% 18.1 mph WNW29.1 kmh WNW 21.0 mph33.8 kmh 29.68 in1005.1 mb 0.00 in0.0 mm 0.00 in0.0 mm 0.00 in0.0 mm
02:30 AM 58.6°F14.8°C 54.7°F12.6°C 87% 16.5 mph WNW26.6 kmh WNW 21.0 mph33.8 kmh 29.68 in1005.1 mb 0.00 in0.0 mm 0.00 in0.0 mm 0.00 in0.0 mm
02:31 AM 58.6°F14.8°C 54.7°F12.6°C 87% 16.7 mph WNW26.9 kmh WNW 20.0 mph32.2 kmh 29.68 in1005.1 mb 0.00 in0.0 mm 0.00 in0.0 mm 0.00 in0.0 mm
02:32 AM 58.6°F14.8°C 55.1°F12.8°C 88% 16.3 mph WNW26.2 kmh WNW 20.0 mph32.2 kmh 29.68 in1005.1 mb 0.00 in0.0 mm 0.00 in0.0 mm 0.00 in0.0 mm
02:33 AM 58.6°F14.8°C 54.7°F12.6°C 87% 17.2 mph WNW27.7 kmh WNW 21.0 mph33.8 kmh 29.68 in1005.1 mb 0.00 in0.0 mm 0.00 in0.0 mm 0.00 in0.0 mm
02:34 AM 58.6°F14.8°C 54.7°F12.6°C 87% 18.2 mph WNW29.3 kmh WNW 21.0 mph33.8 kmh 29.68 in1005.1 mb 0.00 in0.0 mm 0.00 in0.0 mm 0.00 in0.0 mm
02:35 AM 58.6°F14.8°C 54.7°F12.6°C 87% 17.8 mph NW28.6 kmh NW 20.0 mph32.2 kmh 29.68 in1005.1 mb 0.00 in0.0 mm 0.00 in0.0 mm 0.00 in0.0 mm
02:36 AM 58.6°F14.8°C 54.4°F12.4°C 86% 17.9 mph WNW28.8 kmh WNW 20.0 mph32.2 kmh 29.68 in1005.1 mb 0.00 in0.0 mm 0.00 in0.0 mm 0.00 in0.0 mm
02:37 AM 58.6°F14.8°C 55.1°F12.8°C 88% 15.9 mph WNW25.6 kmh WNW 20.0 mph32.2 kmh 29.68 in1005.1 mb 0.00 in0.0 mm 0.00 in0.0 mm 0.00 in0.0 mm
02:38 AM 58.6°F14.8°C 54.4°F12.4°C 86% 19.3 mph WNW31.1 kmh WNW 22.0 mph35.4 kmh 29.67 in1004.7 mb 0.00 in0.0 mm 0.00 in0.0 mm 0.00 in0.0 mm
02:39 AM 58.6°F14.8°C 54.7°F12.6°C 87% 18.8 mph NW30.3 kmh NW 22.0 mph35.4 kmh 29.67 in1004.7 mb 0.00 in0.0 mm 0.00 in0.0 mm 0.00 in0.0 mm
02:40 AM 58.6°F14.8°C 54.4°F12.4°C 86% 17.2 mph WNW27.7 kmh WNW 21.0 mph33.8 kmh 29.67 in1004.7 mb 0.00 in0.0 mm 0.00 in0.0 mm 0.00 in0.0 mm
02:41 AM 58.6°F14.8°C 55.1°F12.8°C 88% 16.6 mph WNW26.7 kmh WNW 19.0 mph30.6 kmh 29.67 in1004.7 mb 0.00 in0.0 mm 0.00 in0.0 mm 0.00 in0.0 mm
02:42 AM 58.6°F14.8°C 54.7°F12.6°C 87% 16.3 mph WNW26.2 kmh WNW 20.0 mph32.2 kmh 29.67 in1004.7 mb 0.00 in0.0 mm 0.00 in0.0 mm 0.00 in0.0 mm
02:43 AM 58.6°F14.8°C 54.7°F12.6°C 87% 16.4 mph WNW26.4 kmh WNW 20.0 mph32.2 kmh 29.67 in1004.7 mb 0.00 in0.0 mm 0.00 in0.0 mm 0.00 in0.0 mm
02:44 AM 58.6°F14.8°C 54.7°F12.6°C 87% 18.6 mph WNW29.9 kmh WNW 23.0 mph37.0 kmh 29.68 in1005.1 mb 0.00 in0.0 mm 0.00 in0.0 mm 0.00 in0.0 mm
02:45 AM 58.6°F14.8°C 54.7°F12.6°C 87% 18.1 mph WNW29.1 kmh WNW 23.0 mph37.0 kmh 29.67 in1004.7 mb 0.00 in0.0 mm 0.00 in0.0 mm 0.00 in0.0 mm
02:46 AM 58.6°F14.8°C 54.7°F12.6°C 87% 17.6 mph NW28.3 kmh NW 22.0 mph35.4 kmh 29.68 in1005.1 mb 0.00 in0.0 mm 0.00 in0.0 mm 0.00 in0.0 mm
02:47 AM 58.6°F14.8°C 55.1°F12.8°C 88% 16.8 mph WNW27.0 kmh WNW 20.0 mph32.2 kmh 29.67 in1004.7 mb 0.00 in0.0 mm 0.00 in0.0 mm 0.00 in0.0 mm
02:48 AM 58.6°F14.8°C 54.7°F12.6°C 87% 15.3 mph WNW24.6 kmh WNW 20.0 mph32.2 kmh 29.68 in1005.1 mb 0.00 in0.0 mm 0.00 in0.0 mm 0.00 in0.0 mm
02:49 AM 58.6°F14.8°C 54.4°F12.4°C 86% 16.2 mph WNW26.1 kmh WNW 21.0 mph33.8 kmh 29.68 in1005.1 mb 0.00 in0.0 mm 0.00 in0.0 mm 0.00 in0.0 mm
02:50 AM 58.6°F14.8°C 55.1°F12.8°C 88% 15.7 mph WNW25.3 kmh WNW 21.0 mph33.8 kmh 29.68 in1005.1 mb 0.00 in0.0 mm 0.00 in0.0 mm 0.00 in0.0 mm
02:51 AM 58.4°F14.7°C 54.2°F12.3°C 86% 18.0 mph NW29.0 kmh NW 20.0 mph32.2 kmh 29.68 in1005.1 mb 0.00 in0.0 mm 0.00 in0.0 mm 0.00 in0.0 mm
02:52 AM 58.5°F14.7°C 54.6°F12.6°C 87% 16.5 mph WNW26.6 kmh WNW 20.0 mph32.2 kmh 29.68 in1005.1 mb 0.00 in0.0 mm 0.00 in0.0 mm 0.00 in0.0 mm
02:53 AM 58.5°F14.7°C 55.0°F12.8°C 88% 16.7 mph WNW26.9 kmh WNW 19.0 mph30.6 kmh 29.68 in1005.1 mb 0.00 in0.0 mm 0.00 in0.0 mm 0.00 in0.0 mm
02:54 AM 58.5°F14.7°C 54.3°F12.4°C 86% 17.1 mph WNW27.5 kmh WNW 20.0 mph32.2 kmh 29.68 in1005.1 mb 0.00 in0.0 mm 0.00 in0.0 mm 0.00 in0.0 mm
02:55 AM 58.5°F14.7°C 54.3°F12.4°C 86% 18.4 mph WNW29.6 kmh WNW 21.0 mph33.8 kmh 29.68 in1005.1 mb 0.00 in0.0 mm 0.00 in0.0 mm 0.00 in0.0 mm
02:56 AM 58.4°F14.7°C 54.5°F12.5°C 87% 14.6 mph WNW23.5 kmh WNW 21.0 mph33.8 kmh 29.68 in1005.1 mb 0.00 in0.0 mm 0.00 in0.0 mm 0.00 in0.0 mm
02:57 AM 58.5°F14.7°C 55.0°F12.8°C 88% 16.0 mph NW25.7 kmh NW 19.0 mph30.6 kmh 29.68 in1005.1 mb 0.00 in0.0 mm 0.00 in0.0 mm 0.00 in0.0 mm
02:58 AM 58.4°F14.7°C 54.5°F12.5°C 87% 17.0 mph NW27.4 kmh NW 19.0 mph30.6 kmh 29.68 in1005.1 mb 0.00 in0.0 mm 0.00 in0.0 mm 0.00 in0.0 mm
02:59 AM 58.5°F14.7°C 55.0°F12.8°C 88% 18.2 mph WNW29.3 kmh WNW 20.0 mph32.2 kmh 29.68 in1005.1 mb 0.00 in0.0 mm 0.00 in0.0 mm 0.00 in0.0 mm
03:00 AM 58.4°F14.7°C 54.2°F12.3°C 86% 18.1 mph WNW29.1 kmh WNW 20.0 mph32.2 kmh 29.68 in1005.1 mb 0.00 in0.0 mm 0.00 in0.0 mm 0.00 in0.0 mm
03:01 AM 58.5°F14.7°C 54.6°F12.6°C 87% 17.6 mph WNW28.3 kmh WNW 21.0 mph33.8 kmh 29.68 in1005.1 mb 0.00 in0.0 mm 0.00 in0.0 mm 0.00 in0.0 mm
03:02 AM 58.5°F14.7°C 55.0°F12.8°C 88% 17.8 mph WNW28.6 kmh WNW 21.0 mph33.8 kmh 29.68 in1005.1 mb 0.00 in0.0 mm 0.00 in0.0 mm 0.00 in0.0 mm
03:03 AM 58.4°F14.7°C 54.2°F12.3°C 86% 17.2 mph WNW27.7 kmh WNW 21.0 mph33.8 kmh 29.68 in1005.1 mb 0.00 in0.0 mm 0.00 in0.0 mm 0.00 in0.0 mm
03:04 AM 58.4°F14.7°C 54.2°F12.3°C 86% 15.8 mph WNW25.4 kmh WNW 20.0 mph32.2 kmh 29.68 in1005.1 mb 0.00 in0.0 mm 0.00 in0.0 mm 0.00 in0.0 mm
03:05 AM 58.5°F14.7°C 54.6°F12.6°C 87% 15.4 mph WNW24.8 kmh WNW 19.0 mph30.6 kmh 29.68 in1005.1 mb 0.00 in0.0 mm 0.00 in0.0 mm 0.00 in0.0 mm
03:06 AM 58.5°F14.7°C 54.6°F12.6°C 87% 17.4 mph WNW28.0 kmh WNW 20.0 mph32.2 kmh 29.68 in1005.1 mb 0.00 in0.0 mm 0.00 in0.0 mm 0.00 in0.0 mm
03:07 AM 58.4°F14.7°C 54.5°F12.5°C 87% 14.7 mph WNW23.7 kmh WNW 20.0 mph32.2 kmh 29.68 in1005.1 mb 0.00 in0.0 mm 0.00 in0.0 mm 0.00 in0.0 mm
03:08 AM 58.4°F14.7°C 54.9°F12.7°C 88% 16.0 mph WNW25.7 kmh WNW 18.0 mph29.0 kmh 29.68 in1005.1 mb 0.00 in0.0 mm 0.00 in0.0 mm 0.00 in0.0 mm
03:09 AM 58.4°F14.7°C 54.2°F12.3°C 86% 15.8 mph WNW25.4 kmh WNW 18.0 mph29.0 kmh 29.68 in1005.1 mb 0.00 in0.0 mm 0.00 in0.0 mm 0.00 in0.0 mm
03:10 AM 58.5°F14.7°C 54.6°F12.6°C 87% 17.9 mph NW28.8 kmh NW 20.0 mph32.2 kmh 29.68 in1005.1 mb 0.00 in0.0 mm 0.00 in0.0 mm 0.00 in0.0 mm
03:11 AM 58.4°F14.7°C 54.2°F12.3°C 86% 17.1 mph WNW27.5 kmh WNW 20.0 mph32.2 kmh 29.68 in1005.1 mb 0.00 in0.0 mm 0.00 in0.0 mm 0.00 in0.0 mm
03:12 AM 58.3°F14.6°C 54.1°F12.3°C 86% 17.8 mph WNW28.6 kmh WNW 20.0 mph32.2 kmh 29.68 in1005.1 mb 0.00 in0.0 mm 0.00 in0.0 mm 0.00 in0.0 mm
03:13 AM 58.3°F14.6°C 54.4°F12.4°C 87% 15.4 mph WNW24.8 kmh WNW 20.0 mph32.2 kmh 29.68 in1005.1 mb 0.00 in0.0 mm 0.00 in0.0 mm 0.00 in0.0 mm
03:14 AM 58.3°F14.6°C 54.8°F12.7°C 88% 14.5 mph WNW23.3 kmh WNW 18.0 mph29.0 kmh 29.68 in1005.1 mb 0.00 in0.0 mm 0.00 in0.0 mm 0.00 in0.0 mm
03:15 AM 58.3°F14.6°C 54.1°F12.3°C 86% 18.2 mph NW29.3 kmh NW 20.0 mph32.2 kmh 29.68 in1005.1 mb 0.00 in0.0 mm 0.00 in0.0 mm 0.00 in0.0 mm
03:16 AM 58.3°F14.6°C 54.4°F12.4°C 87% 18.2 mph WNW29.3 kmh WNW 20.0 mph32.2 kmh 29.67 in1004.7 mb 0.00 in0.0 mm 0.00 in0.0 mm 0.00 in0.0 mm
03:17 AM 58.3°F14.6°C 54.4°F12.4°C 87% 15.7 mph WNW25.3 kmh WNW 20.0 mph32.2 kmh 29.68 in1005.1 mb 0.00 in0.0 mm 0.00 in0.0 mm 0.00 in0.0 mm
03:18 AM 58.3°F14.6°C 54.4°F12.4°C 87% 15.5 mph WNW24.9 kmh WNW 19.0 mph30.6 kmh 29.68 in1005.1 mb 0.00 in0.0 mm 0.00 in0.0 mm 0.00 in0.0 mm
03:19 AM 58.3°F14.6°C 54.8°F12.7°C 88% 18.1 mph WNW29.1 kmh WNW 21.0 mph33.8 kmh 29.68 in1005.1 mb 0.00 in0.0 mm 0.00 in0.0 mm 0.00 in0.0 mm
03:20 AM 58.4°F14.7°C 54.9°F12.7°C 88% 17.2 mph WNW27.7 kmh WNW 21.0 mph33.8 kmh 29.68 in1005.1 mb 0.00 in0.0 mm 0.00 in0.0 mm 0.00 in0.0 mm
03:21 AM 58.4°F14.7°C 54.9°F12.7°C 88% 15.6 mph WNW25.1 kmh WNW 19.0 mph30.6 kmh 29.67 in1004.7 mb 0.00 in0.0 mm 0.00 in0.0 mm 0.00 in0.0 mm
03:22 AM 58.3°F14.6°C 54.4°F12.4°C 87% 16.2 mph WNW26.1 kmh WNW 18.0 mph29.0 kmh 29.68 in1005.1 mb 0.00 in0.0 mm 0.00 in0.0 mm 0.00 in0.0 mm
03:23 AM 58.2°F14.6°C 54.3°F12.4°C 87% 17.3 mph WNW27.8 kmh WNW 19.0 mph30.6 kmh 29.68 in1005.1 mb 0.01 in0.3 mm 0.60 in15.2 mm 0.01 in0.3 mm
03:24 AM 58.2°F14.6°C 54.3°F12.4°C 87% 16.2 mph WNW26.1 kmh WNW 19.0 mph30.6 kmh 29.67 in1004.7 mb 0.01 in0.3 mm 0.00 in0.0 mm 0.01 in0.3 mm
03:25 AM 58.1°F14.5°C 54.2°F12.3°C 87% 16.5 mph WNW26.6 kmh WNW 19.0 mph30.6 kmh 29.68 in1005.1 mb 0.01 in0.3 mm 0.00 in0.0 mm 0.01 in0.3 mm
03:26 AM 58.1°F14.5°C 54.6°F12.6°C 88% 16.2 mph WNW26.1 kmh WNW 19.0 mph30.6 kmh 29.68 in1005.1 mb 0.01 in0.3 mm 0.00 in0.0 mm 0.01 in0.3 mm
03:27 AM 58.2°F14.6°C 54.7°F12.6°C 88% 14.5 mph WNW23.3 kmh WNW 18.0 mph29.0 kmh 29.67 in1004.7 mb 0.01 in0.3 mm 0.00 in0.0 mm 0.01 in0.3 mm
03:28 AM 58.2°F14.6°C 54.7°F12.6°C 88% 16.2 mph WNW26.1 kmh WNW 18.0 mph29.0 kmh 29.68 in1005.1 mb 0.01 in0.3 mm 0.00 in0.0 mm 0.01 in0.3 mm
03:29 AM 58.2°F14.6°C 55.0°F12.8°C 89% 16.7 mph WNW26.9 kmh WNW 20.0 mph32.2 kmh 29.68 in1005.1 mb 0.01 in0.3 mm 0.00 in0.0 mm 0.01 in0.3 mm
03:30 AM 58.2°F14.6°C 54.7°F12.6°C 88% 15.9 mph WNW25.6 kmh WNW 20.0 mph32.2 kmh 29.68 in1005.1 mb 0.01 in0.3 mm 0.00 in0.0 mm 0.01 in0.3 mm
03:31 AM 58.2°F14.6°C 55.0°F12.8°C 89% 16.4 mph WNW26.4 kmh WNW 18.0 mph29.0 kmh 29.68 in1005.1 mb 0.01 in0.3 mm 0.00 in0.0 mm 0.01 in0.3 mm
03:32 AM 58.2°F14.6°C 54.7°F12.6°C 88% 16.4 mph WNW26.4 kmh WNW 19.0 mph30.6 kmh 29.67 in1004.7 mb 0.01 in0.3 mm 0.00 in0.0 mm 0.01 in0.3 mm
03:33 AM 58.2°F14.6°C 54.7°F12.6°C 88% 15.1 mph WNW24.3 kmh WNW 19.0 mph30.6 kmh 29.67 in1004.7 mb 0.01 in0.3 mm 0.00 in0.0 mm 0.01 in0.3 mm
03:34 AM 58.2°F14.6°C 55.0°F12.8°C 89% 15.8 mph WNW25.4 kmh WNW 18.0 mph29.0 kmh 29.67 in1004.7 mb 0.01 in0.3 mm 0.00 in0.0 mm 0.01 in0.3 mm
03:35 AM 58.2°F14.6°C 55.0°F12.8°C 89% 16.4 mph WNW26.4 kmh WNW 18.0 mph29.0 kmh 29.67 in1004.7 mb 0.01 in0.3 mm 0.00 in0.0 mm 0.01 in0.3 mm
03:36 AM 58.1°F14.5°C 54.6°F12.6°C 88% 15.7 mph WNW25.3 kmh WNW 18.0 mph29.0 kmh 29.67 in1004.7 mb 0.01 in0.3 mm 0.00 in0.0 mm 0.01 in0.3 mm
03:37 AM 58.2°F14.6°C 55.0°F12.8°C 89% 16.5 mph WNW26.6 kmh WNW 18.0 mph29.0 kmh 29.67 in1004.7 mb 0.01 in0.3 mm 0.00 in0.0 mm 0.01 in0.3 mm
03:38 AM 58.2°F14.6°C 54.7°F12.6°C 88% 15.4 mph WNW24.8 kmh WNW 18.0 mph29.0 kmh 29.67 in1004.7 mb 0.01 in0.3 mm 0.00 in0.0 mm 0.01 in0.3 mm
03:39 AM 58.2°F14.6°C 55.0°F12.8°C 89% 16.1 mph WNW25.9 kmh WNW 18.0 mph29.0 kmh 29.67 in1004.7 mb 0.01 in0.3 mm 0.00 in0.0 mm 0.01 in0.3 mm
03:40 AM 58.2°F14.6°C 54.7°F12.6°C 88% 15.2 mph WNW24.5 kmh WNW 18.0 mph29.0 kmh 29.67 in1004.7 mb 0.01 in0.3 mm 0.00 in0.0 mm 0.01 in0.3 mm
03:41 AM 58.2°F14.6°C 54.7°F12.6°C 88% 15.7 mph WNW25.3 kmh WNW 19.0 mph30.6 kmh 29.67 in1004.7 mb 0.01 in0.3 mm 0.00 in0.0 mm 0.01 in0.3 mm
03:42 AM 58.2°F14.6°C 54.7°F12.6°C 88% 16.4 mph WNW26.4 kmh WNW 19.0 mph30.6 kmh 29.67 in1004.7 mb 0.01 in0.3 mm 0.00 in0.0 mm 0.01 in0.3 mm
03:43 AM 58.2°F14.6°C 55.0°F12.8°C 89% 16.2 mph WNW26.1 kmh WNW 20.0 mph32.2 kmh 29.67 in1004.7 mb 0.01 in0.3 mm 0.00 in0.0 mm 0.01 in0.3 mm
03:44 AM 58.2°F14.6°C 54.7°F12.6°C 88% 16.4 mph WNW26.4 kmh WNW 20.0 mph32.2 kmh 29.67 in1004.7 mb 0.01 in0.3 mm 0.00 in0.0 mm 0.01 in0.3 mm
03:45 AM 58.1°F14.5°C 54.6°F12.6°C 88% 16.4 mph WNW26.4 kmh WNW 19.0 mph30.6 kmh 29.67 in1004.7 mb 0.01 in0.3 mm 0.00 in0.0 mm 0.01 in0.3 mm
03:46 AM 58.2°F14.6°C 55.0°F12.8°C 89% 17.0 mph WNW27.4 kmh WNW 20.0 mph32.2 kmh 29.67 in1004.7 mb 0.01 in0.3 mm 0.00 in0.0 mm 0.01 in0.3 mm
03:47 AM 58.2°F14.6°C 54.7°F12.6°C 88% 17.4 mph WNW28.0 kmh WNW 20.0 mph32.2 kmh 29.67 in1004.7 mb 0.01 in0.3 mm 0.00 in0.0 mm 0.01 in0.3 mm
03:48 AM 58.1°F14.5°C 54.6°F12.6°C 88% 17.7 mph WNW28.5 kmh WNW 20.0 mph32.2 kmh 29.67 in1004.7 mb 0.01 in0.3 mm 0.00 in0.0 mm 0.01 in0.3 mm
03:49 AM 58.1°F14.5°C 54.6°F12.6°C 88% 18.4 mph WNW29.6 kmh WNW 21.0 mph33.8 kmh 29.67 in1004.7 mb 0.01 in0.3 mm 0.00 in0.0 mm 0.01 in0.3 mm
03:50 AM 58.1°F14.5°C 54.6°F12.6°C 88% 17.7 mph WNW28.5 kmh WNW 21.0 mph33.8 kmh 29.67 in1004.7 mb 0.01 in0.3 mm 0.00 in0.0 mm 0.01 in0.3 mm
03:51 AM 58.1°F14.5°C 54.6°F12.6°C 88% 16.1 mph WNW25.9 kmh WNW 20.0 mph32.2 kmh 29.67 in1004.7 mb 0.01 in0.3 mm 0.00 in0.0 mm 0.01 in0.3 mm
03:52 AM 58.1°F14.5°C 54.9°F12.7°C 89% 15.9 mph WNW25.6 kmh WNW 20.0 mph32.2 kmh 29.67 in1004.7 mb 0.01 in0.3 mm 0.00 in0.0 mm 0.01 in0.3 mm
03:53 AM 58.1°F14.5°C 54.6°F12.6°C 88% 17.6 mph WNW28.3 kmh WNW 20.0 mph32.2 kmh 29.67 in1004.7 mb 0.01 in0.3 mm 0.00 in0.0 mm 0.01 in0.3 mm
03:54 AM 58.1°F14.5°C 54.9°F12.7°C 89% 16.6 mph WNW26.7 kmh WNW 20.0 mph32.2 kmh 29.67 in1004.7 mb 0.01 in0.3 mm 0.00 in0.0 mm 0.01 in0.3 mm
03:55 AM 58.2°F14.6°C 55.3°F12.9°C 90% 16.5 mph WNW26.6 kmh WNW 20.0 mph32.2 kmh 29.67 in1004.7 mb 0.01 in0.3 mm 0.00 in0.0 mm 0.01 in0.3 mm
03:56 AM 58.2°F14.6°C 54.7°F12.6°C 88% 18.2 mph WNW29.3 kmh WNW 21.0 mph33.8 kmh 29.67 in1004.7 mb 0.01 in0.3 mm 0.00 in0.0 mm 0.01 in0.3 mm
03:57 AM 58.1°F14.5°C 54.6°F12.6°C 88% 16.9 mph WNW27.2 kmh WNW 21.0 mph33.8 kmh 29.67 in1004.7 mb 0.01 in0.3 mm 0.00 in0.0 mm 0.01 in0.3 mm
03:58 AM 58.1°F14.5°C 54.9°F12.7°C 89% 16.0 mph WNW25.7 kmh WNW 20.0 mph32.2 kmh 29.67 in1004.7 mb 0.01 in0.3 mm 0.00 in0.0 mm 0.01 in0.3 mm
03:59 AM 58.2°F14.6°C 55.0°F12.8°C 89% 15.4 mph WNW24.8 kmh WNW 19.0 mph30.6 kmh 29.67 in1004.7 mb 0.01 in0.3 mm 0.00 in0.0 mm 0.01 in0.3 mm
04:00 AM 58.1°F14.5°C 54.9°F12.7°C 89% 16.7 mph WNW26.9 kmh WNW 19.0 mph30.6 kmh 29.67 in1004.7 mb 0.01 in0.3 mm 0.00 in0.0 mm 0.01 in0.3 mm
04:01 AM 58.1°F14.5°C 54.6°F12.6°C 88% 17.8 mph WNW28.6 kmh WNW 21.0 mph33.8 kmh 29.67 in1004.7 mb 0.01 in0.3 mm 0.00 in0.0 mm 0.01 in0.3 mm
04:02 AM 58.1°F14.5°C 54.9°F12.7°C 89% 17.0 mph WNW27.4 kmh WNW 21.0 mph33.8 kmh 29.67 in1004.7 mb 0.01 in0.3 mm 0.00 in0.0 mm 0.01 in0.3 mm
04:03 AM 58.1°F14.5°C 54.6°F12.6°C 88% 16.9 mph WNW27.2 kmh WNW 20.0 mph32.2 kmh 29.67 in1004.7 mb 0.01 in0.3 mm 0.00 in0.0 mm 0.01 in0.3 mm
04:04 AM 58.0°F14.4°C 54.5°F12.5°C 88% 17.1 mph WNW27.5 kmh WNW 20.0 mph32.2 kmh 29.67 in1004.7 mb 0.01 in0.3 mm 0.00 in0.0 mm 0.01 in0.3 mm
04:05 AM 58.0°F14.4°C 54.8°F12.7°C 89% 17.3 mph WNW27.8 kmh WNW 21.0 mph33.8 kmh 29.67 in1004.7 mb 0.01 in0.3 mm 0.00 in0.0 mm 0.01 in0.3 mm
04:06 AM 58.0°F14.4°C 54.8°F12.7°C 89% 17.2 mph WNW27.7 kmh WNW 21.0 mph33.8 kmh 29.67 in1004.7 mb 0.01 in0.3 mm 0.00 in0.0 mm 0.01 in0.3 mm
04:07 AM 58.0°F14.4°C 54.8°F12.7°C 89% 16.5 mph WNW26.6 kmh WNW 20.0 mph32.2 kmh 29.67 in1004.7 mb 0.01 in0.3 mm 0.00 in0.0 mm 0.01 in0.3 mm
04:08 AM 57.9°F14.4°C 54.7°F12.6°C 89% 15.8 mph WNW25.4 kmh WNW 20.0 mph32.2 kmh 29.67 in1004.7 mb 0.01 in0.3 mm 0.00 in0.0 mm 0.01 in0.3 mm
04:09 AM 57.9°F14.4°C 55.0°F12.8°C 90% 14.7 mph WNW23.7 kmh WNW 18.0 mph29.0 kmh 29.67 in1004.7 mb 0.01 in0.3 mm 0.00 in0.0 mm 0.01 in0.3 mm
04:10 AM 58.0°F14.4°C 55.1°F12.8°C 90% 14.6 mph WNW23.5 kmh WNW 18.0 mph29.0 kmh 29.67 in1004.7 mb 0.01 in0.3 mm 0.00 in0.0 mm 0.01 in0.3 mm
04:11 AM 57.9°F14.4°C 55.0°F12.8°C 90% 16.1 mph WNW25.9 kmh WNW 19.0 mph30.6 kmh 29.67 in1004.7 mb 0.01 in0.3 mm 0.00 in0.0 mm 0.01 in0.3 mm
04:12 AM 57.8°F14.3°C 54.9°F12.7°C 90% 15.8 mph WNW25.4 kmh WNW 19.0 mph30.6 kmh 29.67 in1004.7 mb 0.01 in0.3 mm 0.00 in0.0 mm 0.01 in0.3 mm
04:13 AM 57.7°F14.3°C 54.5°F12.5°C 89% 16.9 mph WNW27.2 kmh WNW 19.0 mph30.6 kmh 29.67 in1004.7 mb 0.01 in0.3 mm 0.00 in0.0 mm 0.01 in0.3 mm
04:14 AM 57.8°F14.3°C 54.9°F12.7°C 90% 15.1 mph WNW24.3 kmh WNW 19.0 mph30.6 kmh 29.67 in1004.7 mb 0.01 in0.3 mm 0.00 in0.0 mm 0.01 in0.3 mm
04:15 AM 57.7°F14.3°C 54.8°F12.7°C 90% 16.5 mph WNW26.6 kmh WNW 19.0 mph30.6 kmh 29.67 in1004.7 mb 0.01 in0.3 mm 0.00 in0.0 mm 0.01 in0.3 mm
04:16 AM 57.8°F14.3°C 54.9°F12.7°C 90% 14.3 mph WNW23.0 kmh WNW 19.0 mph30.6 kmh 29.67 in1004.7 mb 0.01 in0.3 mm 0.00 in0.0 mm 0.01 in0.3 mm
04:17 AM 57.8°F14.3°C 54.9°F12.7°C 90% 15.4 mph WNW24.8 kmh WNW 18.0 mph29.0 kmh 29.67 in1004.7 mb 0.01 in0.3 mm 0.00 in0.0 mm 0.01 in0.3 mm
04:18 AM 57.8°F14.3°C 54.9°F12.7°C 90% 14.3 mph WNW23.0 kmh WNW 18.0 mph29.0 kmh 29.67 in1004.7 mb 0.01 in0.3 mm 0.00 in0.0 mm 0.01 in0.3 mm
04:19 AM 57.8°F14.3°C 54.9°F12.7°C 90% 17.6 mph WNW28.3 kmh WNW 22.0 mph35.4 kmh 29.68 in1005.1 mb 0.01 in0.3 mm 0.00 in0.0 mm 0.01 in0.3 mm
04:20 AM 57.8°F14.3°C 54.6°F12.6°C 89% 16.4 mph WNW26.4 kmh WNW 22.0 mph35.4 kmh 29.67 in1004.7 mb 0.01 in0.3 mm 0.00 in0.0 mm 0.01 in0.3 mm
04:21 AM 57.9°F14.4°C 55.0°F12.8°C 90% 14.7 mph WNW23.7 kmh WNW 18.0 mph29.0 kmh 29.67 in1004.7 mb 0.01 in0.3 mm 0.00 in0.0 mm 0.01 in0.3 mm
04:22 AM 57.9°F14.4°C 55.0°F12.8°C 90% 14.9 mph WNW24.0 kmh WNW 18.0 mph29.0 kmh 29.68 in1005.1 mb 0.01 in0.3 mm 0.00 in0.0 mm 0.01 in0.3 mm
04:23 AM 57.8°F14.3°C 54.6°F12.6°C 89% 16.0 mph WNW25.7 kmh WNW 18.0 mph29.0 kmh 29.68 in1005.1 mb 0.00 in0.0 mm 0.00 in0.0 mm 0.01 in0.3 mm
04:24 AM 57.8°F14.3°C 55.2°F12.9°C 91% 12.9 mph WNW20.8 kmh WNW 18.0 mph29.0 kmh 29.68 in1005.1 mb 0.00 in0.0 mm 0.00 in0.0 mm 0.01 in0.3 mm
04:25 AM 57.9°F14.4°C 55.3°F12.9°C 91% 15.2 mph WNW24.5 kmh WNW 17.0 mph27.4 kmh 29.68 in1005.1 mb 0.00 in0.0 mm 0.00 in0.0 mm 0.01 in0.3 mm
04:26 AM 57.8°F14.3°C 54.6°F12.6°C 89% 15.7 mph WNW25.3 kmh WNW 17.0 mph27.4 kmh 29.68 in1005.1 mb 0.00 in0.0 mm 0.00 in0.0 mm 0.01 in0.3 mm
04:27 AM 57.8°F14.3°C 54.9°F12.7°C 90% 14.7 mph WNW23.7 kmh WNW 17.0 mph27.4 kmh 29.68 in1005.1 mb 0.00 in0.0 mm 0.00 in0.0 mm 0.01 in0.3 mm
04:28 AM 57.8°F14.3°C 54.6°F12.6°C 89% 16.2 mph WNW26.1 kmh WNW 18.0 mph29.0 kmh 29.67 in1004.7 mb 0.00 in0.0 mm 0.00 in0.0 mm 0.01 in0.3 mm
04:29 AM 57.7°F14.3°C 54.8°F12.7°C 90% 15.9 mph WNW25.6 kmh WNW 18.0 mph29.0 kmh 29.68 in1005.1 mb 0.00 in0.0 mm 0.00 in0.0 mm 0.01 in0.3 mm
04:30 AM 57.7°F14.3°C 54.8°F12.7°C 90% 15.3 mph WNW24.6 kmh WNW 18.0 mph29.0 kmh 29.68 in1005.1 mb 0.00 in0.0 mm 0.00 in0.0 mm 0.01 in0.3 mm
04:31 AM 57.7°F14.3°C 54.8°F12.7°C 90% 13.5 mph WNW21.7 kmh WNW 17.0 mph27.4 kmh 29.68 in1005.1 mb 0.00 in0.0 mm 0.00 in0.0 mm 0.01 in0.3 mm
04:32 AM 57.7°F14.3°C 54.8°F12.7°C 90% 15.0 mph WNW24.1 kmh WNW 18.0 mph29.0 kmh 29.68 in1005.1 mb 0.00 in0.0 mm 0.00 in0.0 mm 0.01 in0.3 mm
04:33 AM 57.6°F14.2°C 54.7°F12.6°C 90% 15.1 mph WNW24.3 kmh WNW 18.0 mph29.0 kmh 29.68 in1005.1 mb 0.00 in0.0 mm 0.00 in0.0 mm 0.01 in0.3 mm
04:34 AM 57.6°F14.2°C 54.7°F12.6°C 90% 15.3 mph WNW24.6 kmh WNW 17.0 mph27.4 kmh 29.68 in1005.1 mb 0.00 in0.0 mm 0.00 in0.0 mm 0.01 in0.3 mm
04:35 AM 57.6°F14.2°C 54.7°F12.6°C 90% 14.4 mph NW23.2 kmh NW 17.0 mph27.4 kmh 29.68 in1005.1 mb 0.01 in0.3 mm 0.60 in15.2 mm 0.02 in0.5 mm
04:36 AM 57.7°F14.3°C 54.8°F12.7°C 90% 14.6 mph NW23.5 kmh NW 17.0 mph27.4 kmh 29.68 in1005.1 mb 0.01 in0.3 mm 0.00 in0.0 mm 0.02 in0.5 mm
04:37 AM 57.6°F14.2°C 54.7°F12.6°C 90% 14.3 mph WNW23.0 kmh WNW 17.0 mph27.4 kmh 29.68 in1005.1 mb 0.01 in0.3 mm 0.00 in0.0 mm 0.02 in0.5 mm
04:38 AM 57.6°F14.2°C 54.7°F12.6°C 90% 15.7 mph WNW25.3 kmh WNW 17.0 mph27.4 kmh 29.68 in1005.1 mb 0.01 in0.3 mm 0.00 in0.0 mm 0.02 in0.5 mm
04:39 AM 57.6°F14.2°C 54.7°F12.6°C 90% 13.7 mph WNW22.0 kmh WNW 17.0 mph27.4 kmh 29.68 in1005.1 mb 0.01 in0.3 mm 0.00 in0.0 mm 0.02 in0.5 mm
04:40 AM 57.7°F14.3°C 55.1°F12.8°C 91% 14.1 mph NW22.7 kmh NW 16.0 mph25.7 kmh 29.68 in1005.1 mb 0.01 in0.3 mm 0.00 in0.0 mm 0.02 in0.5 mm
04:41 AM 57.6°F14.2°C 54.7°F12.6°C 90% 16.1 mph NW25.9 kmh NW 18.0 mph29.0 kmh 29.68 in1005.1 mb 0.01 in0.3 mm 0.00 in0.0 mm 0.02 in0.5 mm
04:42 AM 57.6°F14.2°C 54.7°F12.6°C 90% 14.6 mph NW23.5 kmh NW 18.0 mph29.0 kmh 29.68 in1005.1 mb 0.01 in0.3 mm 0.00 in0.0 mm 0.02 in0.5 mm
04:43 AM 57.7°F14.3°C 55.1°F12.8°C 91% 13.3 mph NW21.4 kmh NW 16.0 mph25.7 kmh 29.68 in1005.1 mb 0.01 in0.3 mm 0.00 in0.0 mm 0.02 in0.5 mm
04:44 AM 57.7°F14.3°C 55.1°F12.8°C 91% 14.2 mph NW22.9 kmh NW 16.0 mph25.7 kmh 29.68 in1005.1 mb 0.01 in0.3 mm 0.00 in0.0 mm 0.02 in0.5 mm
04:45 AM 57.6°F14.2°C 54.7°F12.6°C 90% 15.4 mph NW24.8 kmh NW 17.0 mph27.4 kmh 29.68 in1005.1 mb 0.01 in0.3 mm 0.00 in0.0 mm 0.02 in0.5 mm
04:46 AM 57.7°F14.3°C 54.8°F12.7°C 90% 14.4 mph NW23.2 kmh NW 17.0 mph27.4 kmh 29.68 in1005.1 mb 0.01 in0.3 mm 0.00 in0.0 mm 0.02 in0.5 mm
04:47 AM 57.7°F14.3°C 55.1°F12.8°C 91% 13.8 mph NW22.2 kmh NW 17.0 mph27.4 kmh 29.68 in1005.1 mb 0.01 in0.3 mm 0.00 in0.0 mm 0.02 in0.5 mm
04:48 AM 57.7°F14.3°C 55.1°F12.8°C 91% 14.5 mph NW23.3 kmh NW 17.0 mph27.4 kmh 29.68 in1005.1 mb 0.01 in0.3 mm 0.00 in0.0 mm 0.02 in0.5 mm
04:49 AM 57.7°F14.3°C 54.8°F12.7°C 90% 13.8 mph NW22.2 kmh NW 17.0 mph27.4 kmh 29.68 in1005.1 mb 0.01 in0.3 mm 0.00 in0.0 mm 0.02 in0.5 mm
04:50 AM 57.7°F14.3°C 55.1°F12.8°C 91% 13.6 mph NW21.9 kmh NW 15.0 mph24.1 kmh 29.68 in1005.1 mb 0.01 in0.3 mm 0.00 in0.0 mm 0.02 in0.5 mm
04:51 AM 57.7°F14.3°C 55.1°F12.8°C 91% 15.0 mph NW24.1 kmh NW 17.0 mph27.4 kmh 29.68 in1005.1 mb 0.01 in0.3 mm 0.00 in0.0 mm 0.02 in0.5 mm
04:52 AM 57.7°F14.3°C 55.1°F12.8°C 91% 13.5 mph NW21.7 kmh NW 17.0 mph27.4 kmh 29.68 in1005.1 mb 0.01 in0.3 mm 0.00 in0.0 mm 0.02 in0.5 mm
04:53 AM 57.7°F14.3°C 55.1°F12.8°C 91% 13.5 mph NW21.7 kmh NW 15.0 mph24.1 kmh 29.68 in1005.1 mb 0.01 in0.3 mm 0.00 in0.0 mm 0.02 in0.5 mm
04:54 AM 57.7°F14.3°C 55.1°F12.8°C 91% 12.5 mph NW20.1 kmh NW 15.0 mph24.1 kmh 29.68 in1005.1 mb 0.01 in0.3 mm 0.00 in0.0 mm 0.02 in0.5 mm
04:55 AM 57.6°F14.2°C 55.0°F12.8°C 91% 12.8 mph NW20.6 kmh NW 15.0 mph24.1 kmh 29.68 in1005.1 mb 0.01 in0.3 mm 0.00 in0.0 mm 0.02 in0.5 mm
04:56 AM 57.6°F14.2°C 55.0°F12.8°C 91% 13.7 mph NW22.0 kmh NW 15.0 mph24.1 kmh 29.68 in1005.1 mb 0.01 in0.3 mm 0.00 in0.0 mm 0.02 in0.5 mm
04:57 AM 57.7°F14.3°C 55.1°F12.8°C 91% 12.6 mph NW20.3 kmh NW 15.0 mph24.1 kmh 29.68 in1005.1 mb 0.01 in0.3 mm 0.00 in0.0 mm 0.02 in0.5 mm
04:58 AM 57.8°F14.3°C 55.2°F12.9°C 91% 11.3 mph NW18.2 kmh NW 14.0 mph22.5 kmh 29.68 in1005.1 mb 0.01 in0.3 mm 0.00 in0.0 mm 0.02 in0.5 mm
04:59 AM 57.7°F14.3°C 55.1°F12.8°C 91% 13.2 mph NW21.2 kmh NW 15.0 mph24.1 kmh 29.68 in1005.1 mb 0.01 in0.3 mm 0.00 in0.0 mm 0.02 in0.5 mm
05:00 AM 57.7°F14.3°C 55.1°F12.8°C 91% 12.7 mph NW20.4 kmh NW 15.0 mph24.1 kmh 29.68 in1005.1 mb 0.01 in0.3 mm 0.00 in0.0 mm 0.02 in0.5 mm
05:01 AM 57.7°F14.3°C 55.1°F12.8°C 91% 12.5 mph NW20.1 kmh NW 14.0 mph22.5 kmh 29.68 in1005.1 mb 0.01 in0.3 mm 0.00 in0.0 mm 0.02 in0.5 mm
05:02 AM 57.8°F14.3°C 55.5°F13.1°C 92% 11.2 mph NW18.0 kmh NW 14.0 mph22.5 kmh 29.68 in1005.1 mb 0.01 in0.3 mm 0.00 in0.0 mm 0.02 in0.5 mm
05:03 AM 57.7°F14.3°C 55.4°F13.0°C 92% 12.6 mph NW20.3 kmh NW 14.0 mph22.5 kmh 29.68 in1005.1 mb 0.01 in0.3 mm 0.00 in0.0 mm 0.02 in0.5 mm
05:04 AM 57.7°F14.3°C 55.1°F12.8°C 91% 13.3 mph NW21.4 kmh NW 15.0 mph24.1 kmh 29.68 in1005.1 mb 0.01 in0.3 mm 0.00 in0.0 mm 0.02 in0.5 mm
05:05 AM 57.6°F14.2°C 55.3°F12.9°C 92% 13.2 mph NW21.2 kmh NW 15.0 mph24.1 kmh 29.68 in1005.1 mb 0.01 in0.3 mm 0.00 in0.0 mm 0.02 in0.5 mm
05:06 AM 57.6°F14.2°C 55.3°F12.9°C 92% 12.1 mph NW19.5 kmh NW 14.0 mph22.5 kmh 29.68 in1005.1 mb 0.01 in0.3 mm 0.00 in0.0 mm 0.02 in0.5 mm
05:07 AM 57.6°F14.2°C 55.6°F13.1°C 93% 13.1 mph NW21.1 kmh NW 14.0 mph22.5 kmh 29.68 in1005.1 mb 0.01 in0.3 mm 0.00 in0.0 mm 0.02 in0.5 mm
05:08 AM 57.6°F14.2°C 55.3°F12.9°C 92% 12.8 mph NW20.6 kmh NW 14.0 mph22.5 kmh 29.68 in1005.1 mb 0.01 in0.3 mm 0.00 in0.0 mm 0.02 in0.5 mm
05:09 AM 57.7°F14.3°C 55.4°F13.0°C 92% 12.6 mph NW20.3 kmh NW 14.0 mph22.5 kmh 29.68 in1005.1 mb 0.01 in0.3 mm 0.00 in0.0 mm 0.02 in0.5 mm
05:10 AM 57.6°F14.2°C 55.3°F12.9°C 92% 12.6 mph NW20.3 kmh NW 14.0 mph22.5 kmh 29.68 in1005.1 mb 0.01 in0.3 mm 0.00 in0.0 mm 0.02 in0.5 mm
05:11 AM 57.7°F14.3°C 55.4°F13.0°C 92% 12.0 mph NW19.3 kmh NW 13.0 mph20.9 kmh 29.68 in1005.1 mb 0.01 in0.3 mm 0.00 in0.0 mm 0.02 in0.5 mm
05:12 AM 57.7°F14.3°C 55.7°F13.2°C 93% 11.2 mph NW18.0 kmh NW 13.0 mph20.9 kmh 29.68 in1005.1 mb 0.01 in0.3 mm 0.00 in0.0 mm 0.02 in0.5 mm
05:13 AM 57.7°F14.3°C 55.4°F13.0°C 92% 11.5 mph NW18.5 kmh NW 13.0 mph20.9 kmh 29.68 in1005.1 mb 0.01 in0.3 mm 0.00 in0.0 mm 0.02 in0.5 mm
05:14 AM 57.7°F14.3°C 55.7°F13.2°C 93% 11.7 mph NW18.8 kmh NW 13.0 mph20.9 kmh 29.68 in1005.1 mb 0.01 in0.3 mm 0.00 in0.0 mm 0.02 in0.5 mm
05:15 AM 57.7°F14.3°C 55.7°F13.2°C 93% 11.7 mph NW18.8 kmh NW 13.0 mph20.9 kmh 29.68 in1005.1 mb 0.01 in0.3 mm 0.00 in0.0 mm 0.02 in0.5 mm
05:16 AM 57.6°F14.2°C 55.6°F13.1°C 93% 12.2 mph NW19.6 kmh NW 14.0 mph22.5 kmh 29.68 in1005.1 mb 0.01 in0.3 mm 0.00 in0.0 mm 0.02 in0.5 mm
05:17 AM 57.7°F14.3°C 55.7°F13.2°C 93% 10.6 mph NW17.1 kmh NW 14.0 mph22.5 kmh 29.68 in1005.1 mb 0.01 in0.3 mm 0.00 in0.0 mm 0.02 in0.5 mm
05:18 AM 57.7°F14.3°C 55.7°F13.2°C 93% 10.6 mph NW17.1 kmh NW 13.0 mph20.9 kmh 29.68 in1005.1 mb 0.01 in0.3 mm 0.00 in0.0 mm 0.02 in0.5 mm
05:19 AM 57.7°F14.3°C 55.7°F13.2°C 93% 12.1 mph NW19.5 kmh NW 14.0 mph22.5 kmh 29.68 in1005.1 mb 0.02 in0.5 mm 0.60 in15.2 mm 0.02 in0.5 mm
05:20 AM 57.7°F14.3°C 55.7°F13.2°C 93% 14.1 mph NW22.7 kmh NW 16.0 mph25.7 kmh 29.68 in1005.1 mb 0.02 in0.5 mm 0.00 in0.0 mm 0.02 in0.5 mm
05:21 AM 57.8°F14.3°C 55.8°F13.2°C 93% 12.2 mph NW19.6 kmh NW 16.0 mph25.7 kmh 29.68 in1005.1 mb 0.02 in0.5 mm 0.00 in0.0 mm 0.02 in0.5 mm
05:22 AM 57.8°F14.3°C 55.8°F13.2°C 93% 11.5 mph NW18.5 kmh NW 14.0 mph22.5 kmh 29.68 in1005.1 mb 0.02 in0.5 mm 0.00 in0.0 mm 0.02 in0.5 mm
05:23 AM 57.7°F14.3°C 55.7°F13.2°C 93% 12.5 mph NW20.1 kmh NW 14.0 mph22.5 kmh 29.68 in1005.1 mb 0.02 in0.5 mm 0.00 in0.0 mm 0.02 in0.5 mm
05:24 AM 57.7°F14.3°C 55.7°F13.2°C 93% 12.1 mph NW19.5 kmh NW 15.0 mph24.1 kmh 29.68 in1005.1 mb 0.02 in0.5 mm 0.00 in0.0 mm 0.02 in0.5 mm
05:25 AM 57.7°F14.3°C 55.7°F13.2°C 93% 14.0 mph NW22.5 kmh NW 16.0 mph25.7 kmh 29.68 in1005.1 mb 0.02 in0.5 mm 0.00 in0.0 mm 0.02 in0.5 mm
05:26 AM 57.7°F14.3°C 55.7°F13.2°C 93% 13.5 mph NW21.7 kmh NW 16.0 mph25.7 kmh 29.68 in1005.1 mb 0.02 in0.5 mm 0.00 in0.0 mm 0.02 in0.5 mm
05:27 AM 57.7°F14.3°C 55.7°F13.2°C 93% 13.1 mph NW21.1 kmh NW 15.0 mph24.1 kmh 29.68 in1005.1 mb 0.02 in0.5 mm 0.00 in0.0 mm 0.02 in0.5 mm
05:28 AM 57.8°F14.3°C 55.8°F13.2°C 93% 14.0 mph NW22.5 kmh NW 16.0 mph25.7 kmh 29.68 in1005.1 mb 0.02 in0.5 mm 0.00 in0.0 mm 0.02 in0.5 mm
05:29 AM 57.8°F14.3°C 55.8°F13.2°C 93% 13.0 mph NW20.9 kmh NW 16.0 mph25.7 kmh 29.68 in1005.1 mb 0.02 in0.5 mm 0.00 in0.0 mm 0.02 in0.5 mm
05:30 AM 57.8°F14.3°C 55.8°F13.2°C 93% 14.5 mph NW23.3 kmh NW 17.0 mph27.4 kmh 29.68 in1005.1 mb 0.02 in0.5 mm 0.00 in0.0 mm 0.02 in0.5 mm
05:31 AM 57.7°F14.3°C 55.7°F13.2°C 93% 12.5 mph NW20.1 kmh NW 17.0 mph27.4 kmh 29.68 in1005.1 mb 0.02 in0.5 mm 0.00 in0.0 mm 0.02 in0.5 mm
05:32 AM 57.7°F14.3°C 55.7°F13.2°C 93% 13.8 mph NW22.2 kmh NW 16.0 mph25.7 kmh 29.68 in1005.1 mb 0.02 in0.5 mm 0.00 in0.0 mm 0.02 in0.5 mm
05:33 AM 57.7°F14.3°C 55.7°F13.2°C 93% 12.5 mph NW20.1 kmh NW 16.0 mph25.7 kmh 29.68 in1005.1 mb 0.02 in0.5 mm 0.00 in0.0 mm 0.02 in0.5 mm
05:34 AM 57.7°F14.3°C 55.7°F13.2°C 93% 13.1 mph NW21.1 kmh NW 14.0 mph22.5 kmh 29.68 in1005.1 mb 0.02 in0.5 mm 0.00 in0.0 mm 0.02 in0.5 mm
05:35 AM 57.7°F14.3°C 55.7°F13.2°C 93% 11.8 mph NW19.0 kmh NW 14.0 mph22.5 kmh 29.68 in1005.1 mb 0.01 in0.3 mm 0.00 in0.0 mm 0.02 in0.5 mm
05:36 AM 57.6°F14.2°C 55.9°F13.3°C 94% 12.9 mph NW20.8 kmh NW 15.0 mph24.1 kmh 29.68 in1005.1 mb 0.01 in0.3 mm 0.00 in0.0 mm 0.02 in0.5 mm
05:37 AM 57.6°F14.2°C 55.6°F13.1°C 93% 14.4 mph NW23.2 kmh NW 16.0 mph25.7 kmh 29.68 in1005.1 mb 0.01 in0.3 mm 0.00 in0.0 mm 0.02 in0.5 mm
05:38 AM 57.7°F14.3°C 55.7°F13.2°C 93% 12.7 mph NW20.4 kmh NW 16.0 mph25.7 kmh 29.68 in1005.1 mb 0.01 in0.3 mm 0.00 in0.0 mm 0.02 in0.5 mm
05:39 AM 57.7°F14.3°C 56.0°F13.3°C 94% 12.3 mph NW19.8 kmh NW 14.0 mph22.5 kmh 29.68 in1005.1 mb 0.01 in0.3 mm 0.00 in0.0 mm 0.02 in0.5 mm
05:40 AM 57.7°F14.3°C 55.7°F13.2°C 93% 13.5 mph NW21.7 kmh NW 15.0 mph24.1 kmh 29.68 in1005.1 mb 0.01 in0.3 mm 0.00 in0.0 mm 0.02 in0.5 mm
05:41 AM 57.8°F14.3°C 56.1°F13.4°C 94% 13.3 mph NW21.4 kmh NW 15.0 mph24.1 kmh 29.68 in1005.1 mb 0.01 in0.3 mm 0.00 in0.0 mm 0.02 in0.5 mm
05:42 AM 57.7°F14.3°C 55.7°F13.2°C 93% 12.5 mph NW20.1 kmh NW 15.0 mph24.1 kmh 29.68 in1005.1 mb 0.01 in0.3 mm 0.00 in0.0 mm 0.02 in0.5 mm
05:43 AM 57.7°F14.3°C 56.0°F13.3°C 94% 12.7 mph NW20.4 kmh NW 14.0 mph22.5 kmh 29.68 in1005.1 mb 0.02 in0.5 mm 0.60 in15.2 mm 0.03 in0.8 mm
05:44 AM 57.8°F14.3°C 56.4°F13.6°C 95% 12.6 mph NW20.3 kmh NW 16.0 mph25.7 kmh 29.68 in1005.1 mb 0.02 in0.5 mm 0.00 in0.0 mm 0.03 in0.8 mm
05:45 AM 57.8°F14.3°C 56.1°F13.4°C 94% 13.6 mph NW21.9 kmh NW 16.0 mph25.7 kmh 29.68 in1005.1 mb 0.02 in0.5 mm 0.00 in0.0 mm 0.03 in0.8 mm
05:46 AM 57.7°F14.3°C 56.0°F13.3°C 94% 11.4 mph NW18.3 kmh NW 15.0 mph24.1 kmh 29.68 in1005.1 mb 0.02 in0.5 mm 0.00 in0.0 mm 0.03 in0.8 mm
05:47 AM 57.7°F14.3°C 56.0°F13.3°C 94% 14.3 mph NW23.0 kmh NW 18.0 mph29.0 kmh 29.68 in1005.1 mb 0.02 in0.5 mm 0.00 in0.0 mm 0.03 in0.8 mm
05:48 AM 57.8°F14.3°C 56.1°F13.4°C 94% 11.9 mph WNW19.2 kmh WNW 18.0 mph29.0 kmh 29.68 in1005.1 mb 0.02 in0.5 mm 0.00 in0.0 mm 0.03 in0.8 mm
05:49 AM 57.7°F14.3°C 56.0°F13.3°C 94% 11.6 mph WNW18.7 kmh WNW 15.0 mph24.1 kmh 29.68 in1005.1 mb 0.02 in0.5 mm 0.00 in0.0 mm 0.03 in0.8 mm
05:50 AM 57.7°F14.3°C 56.0°F13.3°C 94% 9.5 mph WNW15.3 kmh WNW 14.0 mph22.5 kmh 29.68 in1005.1 mb 0.02 in0.5 mm 0.00 in0.0 mm 0.03 in0.8 mm
05:51 AM 57.6°F14.2°C 55.9°F13.3°C 94% 9.4 mph WNW15.1 kmh WNW 11.0 mph17.7 kmh 29.68 in1005.1 mb 0.02 in0.5 mm 0.00 in0.0 mm 0.03 in0.8 mm
05:52 AM 57.5°F14.2°C 55.8°F13.2°C 94% 9.4 mph WNW15.1 kmh WNW 11.0 mph17.7 kmh 29.68 in1005.1 mb 0.02 in0.5 mm 0.00 in0.0 mm 0.03 in0.8 mm
05:53 AM 57.5°F14.2°C 55.8°F13.2°C 94% 9.2 mph WNW14.8 kmh WNW 11.0 mph17.7 kmh 29.68 in1005.1 mb 0.02 in0.5 mm 0.00 in0.0 mm 0.03 in0.8 mm
05:54 AM 57.4°F14.1°C 55.7°F13.2°C 94% 8.4 mph WNW13.5 kmh WNW 11.0 mph17.7 kmh 29.68 in1005.1 mb 0.02 in0.5 mm 0.00 in0.0 mm 0.03 in0.8 mm
05:55 AM 57.4°F14.1°C 55.7°F13.2°C 94% 8.9 mph WNW14.3 kmh WNW 11.0 mph17.7 kmh 29.68 in1005.1 mb 0.02 in0.5 mm 0.00 in0.0 mm 0.03 in0.8 mm
05:56 AM 57.3°F14.1°C 55.6°F13.1°C 94% 9.5 mph WNW15.3 kmh WNW 11.0 mph17.7 kmh 29.68 in1005.1 mb 0.02 in0.5 mm 0.00 in0.0 mm 0.03 in0.8 mm
05:57 AM 57.3°F14.1°C 55.6°F13.1°C 94% 8.8 mph WNW14.2 kmh WNW 11.0 mph17.7 kmh 29.68 in1005.1 mb 0.02 in0.5 mm 0.00 in0.0 mm 0.03 in0.8 mm
05:58 AM 57.3°F14.1°C 55.6°F13.1°C 94% 8.9 mph WNW14.3 kmh WNW 11.0 mph17.7 kmh 29.68 in1005.1 mb 0.02 in0.5 mm 0.00 in0.0 mm 0.03 in0.8 mm
05:59 AM 57.3°F14.1°C 55.6°F13.1°C 94% 8.9 mph WNW14.3 kmh WNW 11.0 mph17.7 kmh 29.68 in1005.1 mb 0.02 in0.5 mm 0.00 in0.0 mm 0.03 in0.8 mm
06:00 AM 57.3°F14.1°C 55.9°F13.3°C 95% 9.3 mph WNW15.0 kmh WNW 10.0 mph16.1 kmh 29.68 in1005.1 mb 0.02 in0.5 mm 0.00 in0.0 mm 0.03 in0.8 mm
06:01 AM 57.2°F14.0°C 55.5°F13.1°C 94% 10.7 mph WNW17.2 kmh WNW 12.0 mph19.3 kmh 29.68 in1005.1 mb 0.02 in0.5 mm 0.00 in0.0 mm 0.03 in0.8 mm
06:02 AM 57.2°F14.0°C 55.8°F13.2°C 95% 10.0 mph WNW16.1 kmh WNW 12.0 mph19.3 kmh 29.68 in1005.1 mb 0.02 in0.5 mm 0.00 in0.0 mm 0.03 in0.8 mm
06:03 AM 57.2°F14.0°C 55.8°F13.2°C 95% 9.2 mph WNW14.8 kmh WNW 12.0 mph19.3 kmh 29.68 in1005.1 mb 0.02 in0.5 mm 0.00 in0.0 mm 0.03 in0.8 mm
06:04 AM 57.2°F14.0°C 55.8°F13.2°C 95% 8.5 mph WNW13.7 kmh WNW 10.0 mph16.1 kmh 29.68 in1005.1 mb 0.02 in0.5 mm 0.00 in0.0 mm 0.03 in0.8 mm
06:05 AM 57.3°F14.1°C 55.9°F13.3°C 95% 8.7 mph WNW14.0 kmh WNW 11.0 mph17.7 kmh 29.68 in1005.1 mb 0.02 in0.5 mm 0.00 in0.0 mm 0.03 in0.8 mm
06:06 AM 57.2°F14.0°C 55.5°F13.1°C 94% 9.7 mph WNW15.6 kmh WNW 11.0 mph17.7 kmh 29.68 in1005.1 mb 0.02 in0.5 mm 0.00 in0.0 mm 0.04 in1.0 mm
06:07 AM 57.2°F14.0°C 55.5°F13.1°C 94% 8.6 mph WNW13.8 kmh WNW 11.0 mph17.7 kmh 29.68 in1005.1 mb 0.02 in0.5 mm 0.00 in0.0 mm 0.04 in1.0 mm
06:08 AM 57.1°F13.9°C 55.4°F13.0°C 94% 10.6 mph WNW17.1 kmh WNW 12.0 mph19.3 kmh 29.68 in1005.1 mb 0.02 in0.5 mm 0.00 in0.0 mm 0.04 in1.0 mm
06:09 AM 57.1°F13.9°C 55.4°F13.0°C 94% 7.6 mph NW12.2 kmh NW 12.0 mph19.3 kmh 29.69 in1005.4 mb 0.02 in0.5 mm 0.00 in0.0 mm 0.04 in1.0 mm
06:10 AM 57.1°F13.9°C 55.4°F13.0°C 94% 8.9 mph WNW14.3 kmh WNW 10.0 mph16.1 kmh 29.68 in1005.1 mb 0.02 in0.5 mm 0.00 in0.0 mm 0.04 in1.0 mm
06:11 AM 57.0°F13.9°C 55.3°F12.9°C 94% 9.2 mph WNW14.8 kmh WNW 11.0 mph17.7 kmh 29.68 in1005.1 mb 0.02 in0.5 mm 0.00 in0.0 mm 0.04 in1.0 mm
06:12 AM 57.0°F13.9°C 55.3°F12.9°C 94% 9.8 mph WNW15.8 kmh WNW 11.0 mph17.7 kmh 29.68 in1005.1 mb 0.02 in0.5 mm 0.00 in0.0 mm 0.04 in1.0 mm
06:13 AM 56.9°F13.8°C 55.2°F12.9°C 94% 9.1 mph WNW14.6 kmh WNW 11.0 mph17.7 kmh 29.69 in1005.4 mb 0.02 in0.5 mm 0.00 in0.0 mm 0.04 in1.0 mm
06:14 AM 56.9°F13.8°C 55.2°F12.9°C 94% 8.9 mph WNW14.3 kmh WNW 11.0 mph17.7 kmh 29.69 in1005.4 mb 0.02 in0.5 mm 0.00 in0.0 mm 0.04 in1.0 mm
06:15 AM 57.0°F13.9°C 55.6°F13.1°C 95% 8.7 mph WNW14.0 kmh WNW 11.0 mph17.7 kmh 29.69 in1005.4 mb 0.02 in0.5 mm 0.00 in0.0 mm 0.04 in1.0 mm
06:16 AM 56.9°F13.8°C 55.5°F13.1°C 95% 10.7 mph WNW17.2 kmh WNW 12.0 mph19.3 kmh 29.69 in1005.4 mb 0.02 in0.5 mm 0.00 in0.0 mm 0.04 in1.0 mm
06:17 AM 56.9°F13.8°C 55.2°F12.9°C 94% 9.4 mph WNW15.1 kmh WNW 12.0 mph19.3 kmh 29.69 in1005.4 mb 0.02 in0.5 mm 0.00 in0.0 mm 0.04 in1.0 mm
06:18 AM 56.9°F13.8°C 55.5°F13.1°C 95% 10.4 mph NW16.7 kmh NW 12.0 mph19.3 kmh 29.69 in1005.4 mb 0.02 in0.5 mm 0.00 in0.0 mm 0.04 in1.0 mm
06:19 AM 56.9°F13.8°C 55.5°F13.1°C 95% 9.3 mph WNW15.0 kmh WNW 12.0 mph19.3 kmh 29.69 in1005.4 mb 0.02 in0.5 mm 0.00 in0.0 mm 0.05 in1.3 mm
06:20 AM 56.9°F13.8°C 55.5°F13.1°C 95% 10.1 mph WNW16.3 kmh WNW 11.0 mph17.7 kmh 29.69 in1005.4 mb 0.02 in0.5 mm 0.00 in0.0 mm 0.05 in1.3 mm
06:21 AM 56.9°F13.8°C 55.5°F13.1°C 95% 9.8 mph WNW15.8 kmh WNW 11.0 mph17.7 kmh 29.69 in1005.4 mb 0.02 in0.5 mm 0.00 in0.0 mm 0.05 in1.3 mm
06:22 AM 57.0°F13.9°C 55.6°F13.1°C 95% 8.8 mph WNW14.2 kmh WNW 11.0 mph17.7 kmh 29.69 in1005.4 mb 0.02 in0.5 mm 0.00 in0.0 mm 0.05 in1.3 mm
06:23 AM 57.0°F13.9°C 55.6°F13.1°C 95% 8.5 mph WNW13.7 kmh WNW 10.0 mph16.1 kmh 29.69 in1005.4 mb 0.02 in0.5 mm 0.00 in0.0 mm 0.05 in1.3 mm
06:24 AM 57.0°F13.9°C 55.6°F13.1°C 95% 8.1 mph WNW13.0 kmh WNW 10.0 mph16.1 kmh 29.69 in1005.4 mb 0.02 in0.5 mm 0.00 in0.0 mm 0.05 in1.3 mm
06:25 AM 57.0°F13.9°C 55.6°F13.1°C 95% 9.2 mph WNW14.8 kmh WNW 10.0 mph16.1 kmh 29.69 in1005.4 mb 0.02 in0.5 mm 0.00 in0.0 mm 0.05 in1.3 mm
06:26 AM 57.0°F13.9°C 55.6°F13.1°C 95% 9.9 mph WNW15.9 kmh WNW 11.0 mph17.7 kmh 29.69 in1005.4 mb 0.02 in0.5 mm 0.00 in0.0 mm 0.05 in1.3 mm
06:27 AM 57.0°F13.9°C 55.6°F13.1°C 95% 8.7 mph WNW14.0 kmh WNW 11.0 mph17.7 kmh 29.69 in1005.4 mb 0.02 in0.5 mm 0.00 in0.0 mm 0.05 in1.3 mm
06:28 AM 57.0°F13.9°C 55.6°F13.1°C 95% 9.9 mph WNW15.9 kmh WNW 12.0 mph19.3 kmh 29.69 in1005.4 mb 0.02 in0.5 mm 0.00 in0.0 mm 0.05 in1.3 mm
06:29 AM 57.0°F13.9°C 55.6°F13.1°C 95% 9.7 mph WNW15.6 kmh WNW 12.0 mph19.3 kmh 29.69 in1005.4 mb 0.02 in0.5 mm 0.00 in0.0 mm 0.05 in1.3 mm
06:30 AM 57.0°F13.9°C 55.6°F13.1°C 95% 10.1 mph WNW16.3 kmh WNW 12.0 mph19.3 kmh 29.69 in1005.4 mb 0.02 in0.5 mm 0.00 in0.0 mm 0.05 in1.3 mm
06:31 AM 57.0°F13.9°C 55.6°F13.1°C 95% 9.5 mph WNW15.3 kmh WNW 12.0 mph19.3 kmh 29.69 in1005.4 mb 0.02 in0.5 mm 0.00 in0.0 mm 0.05 in1.3 mm
06:32 AM 57.0°F13.9°C 55.6°F13.1°C 95% 10.1 mph WNW16.3 kmh WNW 12.0 mph19.3 kmh 29.69 in1005.4 mb 0.02 in0.5 mm 0.00 in0.0 mm 0.05 in1.3 mm
06:33 AM 57.0°F13.9°C 55.6°F13.1°C 95% 8.6 mph WNW13.8 kmh WNW 12.0 mph19.3 kmh 29.69 in1005.4 mb 0.02 in0.5 mm 0.00 in0.0 mm 0.05 in1.3 mm
06:34 AM 57.0°F13.9°C 55.6°F13.1°C 95% 10.1 mph WNW16.3 kmh WNW 12.0 mph19.3 kmh 29.69 in1005.4 mb 0.02 in0.5 mm 0.00 in0.0 mm 0.05 in1.3 mm
06:35 AM 57.0°F13.9°C 55.6°F13.1°C 95% 7.3 mph WNW11.7 kmh WNW 12.0 mph19.3 kmh 29.69 in1005.4 mb 0.02 in0.5 mm 0.00 in0.0 mm 0.05 in1.3 mm
06:36 AM 57.0°F13.9°C 55.6°F13.1°C 95% 9.3 mph WNW15.0 kmh WNW 11.0 mph17.7 kmh 29.69 in1005.4 mb 0.02 in0.5 mm 0.00 in0.0 mm 0.05 in1.3 mm
06:37 AM 56.9°F13.8°C 55.5°F13.1°C 95% 9.6 mph WNW15.4 kmh WNW 11.0 mph17.7 kmh 29.69 in1005.4 mb 0.02 in0.5 mm 0.00 in0.0 mm 0.05 in1.3 mm
06:38 AM 57.0°F13.9°C 55.6°F13.1°C 95% 8.9 mph WNW14.3 kmh WNW 11.0 mph17.7 kmh 29.69 in1005.4 mb 0.03 in0.8 mm 0.60 in15.2 mm 0.06 in1.5 mm
06:39 AM 57.0°F13.9°C 55.6°F13.1°C 95% 8.9 mph WNW14.3 kmh WNW 11.0 mph17.7 kmh 29.69 in1005.4 mb 0.03 in0.8 mm 0.00 in0.0 mm 0.06 in1.5 mm
06:40 AM 57.0°F13.9°C 55.6°F13.1°C 95% 9.0 mph WNW14.5 kmh WNW 10.0 mph16.1 kmh 29.69 in1005.4 mb 0.03 in0.8 mm 0.00 in0.0 mm 0.06 in1.5 mm
06:41 AM 56.9°F13.8°C 55.5°F13.1°C 95% 9.3 mph WNW15.0 kmh WNW 10.0 mph16.1 kmh 29.69 in1005.4 mb 0.03 in0.8 mm 0.00 in0.0 mm 0.06 in1.5 mm
06:42 AM 56.9°F13.8°C 55.5°F13.1°C 95% 9.1 mph WNW14.6 kmh WNW 11.0 mph17.7 kmh 29.69 in1005.4 mb 0.03 in0.8 mm 0.00 in0.0 mm 0.06 in1.5 mm
06:43 AM 56.9°F13.8°C 55.5°F13.1°C 95% 10.0 mph WNW16.1 kmh WNW 11.0 mph17.7 kmh 29.69 in1005.4 mb 0.02 in0.5 mm 0.00 in0.0 mm 0.06 in1.5 mm
06:44 AM 57.0°F13.9°C 55.6°F13.1°C 95% 7.9 mph WNW12.7 kmh WNW 11.0 mph17.7 kmh 29.69 in1005.4 mb 0.02 in0.5 mm 0.00 in0.0 mm 0.06 in1.5 mm
06:45 AM 56.9°F13.8°C 55.5°F13.1°C 95% 10.0 mph WNW16.1 kmh WNW 12.0 mph19.3 kmh 29.69 in1005.4 mb 0.02 in0.5 mm 0.00 in0.0 mm 0.06 in1.5 mm
06:46 AM 56.9°F13.8°C 55.5°F13.1°C 95% 10.5 mph WNW16.9 kmh WNW 12.0 mph19.3 kmh 29.69 in1005.4 mb 0.02 in0.5 mm 0.00 in0.0 mm 0.06 in1.5 mm
06:47 AM 57.0°F13.9°C 55.6°F13.1°C 95% 10.4 mph WNW16.7 kmh WNW 13.0 mph20.9 kmh 29.69 in1005.4 mb 0.02 in0.5 mm 0.00 in0.0 mm 0.06 in1.5 mm
06:48 AM 57.0°F13.9°C 55.6°F13.1°C 95% 10.6 mph WNW17.1 kmh WNW 14.0 mph22.5 kmh 29.69 in1005.4 mb 0.02 in0.5 mm 0.00 in0.0 mm 0.06 in1.5 mm
06:49 AM 57.0°F13.9°C 55.6°F13.1°C 95% 11.6 mph WNW18.7 kmh WNW 14.0 mph22.5 kmh 29.69 in1005.4 mb 0.02 in0.5 mm 0.00 in0.0 mm 0.06 in1.5 mm
06:50 AM 57.0°F13.9°C 55.6°F13.1°C 95% 11.0 mph WNW17.7 kmh WNW 13.0 mph20.9 kmh 29.69 in1005.4 mb 0.02 in0.5 mm 0.00 in0.0 mm 0.06 in1.5 mm
06:51 AM 57.0°F13.9°C 55.6°F13.1°C 95% 10.4 mph WNW16.7 kmh WNW 12.0 mph19.3 kmh 29.69 in1005.4 mb 0.02 in0.5 mm 0.00 in0.0 mm 0.06 in1.5 mm
06:52 AM 57.1°F13.9°C 55.7°F13.2°C 95% 9.8 mph WNW15.8 kmh WNW 12.0 mph19.3 kmh 29.69 in1005.4 mb 0.03 in0.8 mm 0.60 in15.2 mm 0.06 in1.5 mm
06:53 AM 57.0°F13.9°C 55.6°F13.1°C 95% 9.2 mph WNW14.8 kmh WNW 12.0 mph19.3 kmh 29.69 in1005.4 mb 0.03 in0.8 mm 0.00 in0.0 mm 0.06 in1.5 mm
06:54 AM 57.0°F13.9°C 55.6°F13.1°C 95% 9.4 mph NW15.1 kmh NW 10.0 mph16.1 kmh 29.69 in1005.4 mb 0.03 in0.8 mm 0.00 in0.0 mm 0.06 in1.5 mm
06:55 AM 57.0°F13.9°C 55.6°F13.1°C 95% 9.5 mph WNW15.3 kmh WNW 11.0 mph17.7 kmh 29.69 in1005.4 mb 0.03 in0.8 mm 0.00 in0.0 mm 0.06 in1.5 mm
06:56 AM 57.0°F13.9°C 55.6°F13.1°C 95% 10.1 mph WNW16.3 kmh WNW 13.0 mph20.9 kmh 29.69 in1005.4 mb 0.03 in0.8 mm 0.00 in0.0 mm 0.06 in1.5 mm
06:57 AM 57.0°F13.9°C 55.6°F13.1°C 95% 8.5 mph W13.7 kmh W 13.0 mph20.9 kmh 29.69 in1005.4 mb 0.03 in0.8 mm 0.00 in0.0 mm 0.06 in1.5 mm
06:58 AM 57.0°F13.9°C 55.6°F13.1°C 95% 9.1 mph W14.6 kmh W 12.0 mph19.3 kmh 29.69 in1005.4 mb 0.03 in0.8 mm 0.00 in0.0 mm 0.06 in1.5 mm
06:59 AM 57.0°F13.9°C 55.6°F13.1°C 95% 7.9 mph W12.7 kmh W 12.0 mph19.3 kmh 29.69 in1005.4 mb 0.03 in0.8 mm 0.00 in0.0 mm 0.06 in1.5 mm
07:00 AM 57.0°F13.9°C 55.6°F13.1°C 95% 8.5 mph W13.7 kmh W 15.0 mph24.1 kmh 29.69 in1005.4 mb 0.03 in0.8 mm 0.00 in0.0 mm 0.06 in1.5 mm
07:01 AM 57.0°F13.9°C 55.6°F13.1°C 95% 11.6 mph W18.7 kmh W 15.0 mph24.1 kmh 29.69 in1005.4 mb 0.03 in0.8 mm 0.00 in0.0 mm 0.06 in1.5 mm
07:02 AM 57.3°F14.1°C 56.2°F13.4°C 96% 10.4 mph NW16.7 kmh NW 15.0 mph24.1 kmh 29.69 in1005.4 mb 0.03 in0.8 mm 0.00 in0.0 mm 0.06 in1.5 mm
07:03 AM 57.5°F14.2°C 56.4°F13.6°C 96% 7.9 mph NW12.7 kmh NW 11.0 mph17.7 kmh 29.69 in1005.4 mb 0.03 in0.8 mm 0.00 in0.0 mm 0.06 in1.5 mm
07:04 AM 57.5°F14.2°C 56.4°F13.6°C 96% 5.0 mph N8.0 kmh N 9.0 mph14.5 kmh 29.69 in1005.4 mb 0.03 in0.8 mm 0.00 in0.0 mm 0.06 in1.5 mm
07:05 AM 57.5°F14.2°C 56.1°F13.4°C 95% 4.6 mph NNE7.4 kmh NNE 7.0 mph11.3 kmh 29.69 in1005.4 mb 0.03 in0.8 mm 0.00 in0.0 mm 0.06 in1.5 mm
07:06 AM 57.5°F14.2°C 56.1°F13.4°C 95% 4.4 mph NNE7.1 kmh NNE 7.0 mph11.3 kmh 29.69 in1005.4 mb 0.03 in0.8 mm 0.00 in0.0 mm 0.07 in1.8 mm
07:07 AM 57.3°F14.1°C 55.9°F13.3°C 95% 5.7 mph N9.2 kmh N 8.0 mph12.9 kmh 29.69 in1005.4 mb 0.03 in0.8 mm 0.00 in0.0 mm 0.07 in1.8 mm
07:08 AM 57.3°F14.1°C 55.9°F13.3°C 95% 7.7 mph N12.4 kmh N 9.0 mph14.5 kmh 29.70 in1005.8 mb 0.03 in0.8 mm 0.00 in0.0 mm 0.07 in1.8 mm
07:09 AM 57.3°F14.1°C 55.9°F13.3°C 95% 8.8 mph NNW14.2 kmh NNW 10.0 mph16.1 kmh 29.70 in1005.8 mb 0.03 in0.8 mm 0.00 in0.0 mm 0.07 in1.8 mm
07:10 AM 57.4°F14.1°C 56.0°F13.3°C 95% 9.0 mph NW14.5 kmh NW 12.0 mph19.3 kmh 29.70 in1005.8 mb 0.03 in0.8 mm 0.00 in0.0 mm 0.07 in1.8 mm
07:11 AM 57.3°F14.1°C 55.9°F13.3°C 95% 10.8 mph NNW17.4 kmh NNW 12.0 mph19.3 kmh 29.70 in1005.8 mb 0.04 in1.0 mm 0.60 in15.2 mm 0.08 in2.0 mm
07:12 AM 57.3°F14.1°C 55.9°F13.3°C 95% 9.6 mph N15.4 kmh N 12.0 mph19.3 kmh 29.70 in1005.8 mb 0.05 in1.3 mm 0.60 in15.2 mm 0.09 in2.3 mm
07:13 AM 57.3°F14.1°C 55.9°F13.3°C 95% 8.2 mph NNW13.2 kmh NNW 11.0 mph17.7 kmh 29.70 in1005.8 mb 0.05 in1.3 mm 0.00 in0.0 mm 0.09 in2.3 mm
07:14 AM 57.3°F14.1°C 55.9°F13.3°C 95% 5.0 mph N8.0 kmh N 10.0 mph16.1 kmh 29.70 in1005.8 mb 0.05 in1.3 mm 0.00 in0.0 mm 0.09 in2.3 mm
07:15 AM 57.3°F14.1°C 55.9°F13.3°C 95% 5.3 mph N8.5 kmh N 7.0 mph11.3 kmh 29.70 in1005.8 mb 0.06 in1.5 mm 0.60 in15.2 mm 0.09 in2.3 mm
07:16 AM 57.2°F14.0°C 55.8°F13.2°C 95% 5.8 mph N9.3 kmh N 8.0 mph12.9 kmh 29.70 in1005.8 mb 0.06 in1.5 mm 0.00 in0.0 mm 0.09 in2.3 mm
07:17 AM 57.2°F14.0°C 55.8°F13.2°C 95% 5.4 mph N8.7 kmh N 8.0 mph12.9 kmh 29.70 in1005.8 mb 0.06 in1.5 mm 0.00 in0.0 mm 0.09 in2.3 mm
07:18 AM 57.2°F14.0°C 55.8°F13.2°C 95% 5.6 mph NNE9.0 kmh NNE 7.0 mph11.3 kmh 29.70 in1005.8 mb 0.06 in1.5 mm 0.00 in0.0 mm 0.09 in2.3 mm
07:19 AM 57.1°F13.9°C 55.7°F13.2°C 95% 4.1 mph NNE6.6 kmh NNE 7.0 mph11.3 kmh 29.70 in1005.8 mb 0.06 in1.5 mm 0.00 in0.0 mm 0.10 in2.5 mm
07:20 AM 57.1°F13.9°C 55.7°F13.2°C 95% 4.0 mph NNE6.4 kmh NNE 5.0 mph8.0 kmh 29.70 in1005.8 mb 0.06 in1.5 mm 0.00 in0.0 mm 0.10 in2.5 mm
07:21 AM 57.1°F13.9°C 55.7°F13.2°C 95% 3.3 mph NE5.3 kmh NE 5.0 mph8.0 kmh 29.70 in1005.8 mb 0.06 in1.5 mm 0.00 in0.0 mm 0.10 in2.5 mm
07:22 AM 57.0°F13.9°C 55.6°F13.1°C 95% 2.2 mph NE3.5 kmh NE 4.0 mph6.4 kmh 29.70 in1005.8 mb 0.06 in1.5 mm 0.00 in0.0 mm 0.10 in2.5 mm
07:23 AM 57.1°F13.9°C 55.7°F13.2°C 95% 3.4 mph NE5.5 kmh NE 4.0 mph6.4 kmh 29.70 in1005.8 mb 0.06 in1.5 mm 0.00 in0.0 mm 0.10 in2.5 mm
07:24 AM 57.0°F13.9°C 55.6°F13.1°C 95% 3.5 mph E5.6 kmh E 5.0 mph8.0 kmh 29.70 in1005.8 mb 0.06 in1.5 mm 0.00 in0.0 mm 0.10 in2.5 mm
07:25 AM 57.0°F13.9°C 55.6°F13.1°C 95% 2.7 mph E4.3 kmh E 5.0 mph8.0 kmh 29.70 in1005.8 mb 0.06 in1.5 mm 0.00 in0.0 mm 0.10 in2.5 mm
07:26 AM 57.0°F13.9°C 55.6°F13.1°C 95% 2.4 mph E3.9 kmh E 4.0 mph6.4 kmh 29.70 in1005.8 mb 0.06 in1.5 mm 0.00 in0.0 mm 0.10 in2.5 mm
07:27 AM 57.0°F13.9°C 55.6°F13.1°C 95% 4.7 mph E7.6 kmh E 7.0 mph11.3 kmh 29.70 in1005.8 mb 0.06 in1.5 mm 0.00 in0.0 mm 0.10 in2.5 mm
07:28 AM 57.0°F13.9°C 55.6°F13.1°C 95% 3.8 mph E6.1 kmh E 7.0 mph11.3 kmh 29.70 in1005.8 mb 0.06 in1.5 mm 0.00 in0.0 mm 0.10 in2.5 mm
07:29 AM 57.0°F13.9°C 55.6°F13.1°C 95% 4.5 mph E7.2 kmh E 7.0 mph11.3 kmh 29.70 in1005.8 mb 0.06 in1.5 mm 0.00 in0.0 mm 0.10 in2.5 mm
07:30 AM 57.0°F13.9°C 55.6°F13.1°C 95% 3.7 mph E6.0 kmh E 6.0 mph9.7 kmh 29.70 in1005.8 mb 0.06 in1.5 mm 0.00 in0.0 mm 0.10 in2.5 mm
07:31 AM 57.0°F13.9°C 55.6°F13.1°C 95% 5.9 mph E9.5 kmh E 7.0 mph11.3 kmh 29.70 in1005.8 mb 0.06 in1.5 mm 0.00 in0.0 mm 0.10 in2.5 mm
07:32 AM 56.9°F13.8°C 55.5°F13.1°C 95% 6.0 mph E9.7 kmh E 8.0 mph12.9 kmh 29.70 in1005.8 mb 0.06 in1.5 mm 0.00 in0.0 mm 0.10 in2.5 mm
07:33 AM 56.9°F13.8°C 55.5°F13.1°C 95% 8.3 mph E13.4 kmh E 10.0 mph16.1 kmh 29.70 in1005.8 mb 0.06 in1.5 mm 0.00 in0.0 mm 0.10 in2.5 mm
07:34 AM 56.8°F13.8°C 55.4°F13.0°C 95% 6.8 mph E10.9 kmh E 10.0 mph16.1 kmh 29.70 in1005.8 mb 0.06 in1.5 mm 0.00 in0.0 mm 0.11 in2.8 mm
07:35 AM 56.8°F13.8°C 55.4°F13.0°C 95% 7.3 mph E11.7 kmh E 9.0 mph14.5 kmh 29.70 in1005.8 mb 0.06 in1.5 mm 0.00 in0.0 mm 0.11 in2.8 mm
07:36 AM 56.8°F13.8°C 55.4°F13.0°C 95% 6.5 mph E10.5 kmh E 9.0 mph14.5 kmh 29.70 in1005.8 mb 0.06 in1.5 mm 0.00 in0.0 mm 0.11 in2.8 mm
07:37 AM 56.8°F13.8°C 55.4°F13.0°C 95% 6.0 mph ESE9.7 kmh ESE 9.0 mph14.5 kmh 29.69 in1005.4 mb 0.06 in1.5 mm 0.00 in0.0 mm 0.11 in2.8 mm
07:38 AM 56.7°F13.7°C 55.3°F12.9°C 95% 4.2 mph E6.8 kmh E 7.0 mph11.3 kmh 29.70 in1005.8 mb 0.06 in1.5 mm 0.00 in0.0 mm 0.11 in2.8 mm
07:39 AM 56.8°F13.8°C 55.4°F13.0°C 95% 6.0 mph E9.7 kmh E 8.0 mph12.9 kmh 29.70 in1005.8 mb 0.06 in1.5 mm 0.00 in0.0 mm 0.11 in2.8 mm
07:40 AM 56.7°F13.7°C 55.3°F12.9°C 95% 5.8 mph E9.3 kmh E 8.0 mph12.9 kmh 29.70 in1005.8 mb 0.06 in1.5 mm 0.00 in0.0 mm 0.11 in2.8 mm
07:41 AM 56.7°F13.7°C 55.3°F12.9°C 95% 5.0 mph E8.0 kmh E 8.0 mph12.9 kmh 29.70 in1005.8 mb 0.06 in1.5 mm 0.00 in0.0 mm 0.11 in2.8 mm
07:42 AM 56.7°F13.7°C 55.3°F12.9°C 95% 6.0 mph E9.7 kmh E 8.0 mph12.9 kmh 29.70 in1005.8 mb 0.06 in1.5 mm 0.00 in0.0 mm 0.11 in2.8 mm
07:43 AM 56.7°F13.7°C 55.3°F12.9°C 95% 6.5 mph E10.5 kmh E 8.0 mph12.9 kmh 29.70 in1005.8 mb 0.06 in1.5 mm 0.00 in0.0 mm 0.11 in2.8 mm
07:44 AM 56.7°F13.7°C 55.3°F12.9°C 95% 7.5 mph E12.1 kmh E 9.0 mph14.5 kmh 29.70 in1005.8 mb 0.06 in1.5 mm 0.00 in0.0 mm 0.11 in2.8 mm
07:45 AM 56.7°F13.7°C 55.3°F12.9°C 95% 5.3 mph E8.5 kmh E 9.0 mph14.5 kmh 29.70 in1005.8 mb 0.06 in1.5 mm 0.00 in0.0 mm 0.11 in2.8 mm
07:46 AM 56.7°F13.7°C 55.3°F12.9°C 95% 4.3 mph ESE6.9 kmh ESE 8.0 mph12.9 kmh 29.70 in1005.8 mb 0.06 in1.5 mm 0.00 in0.0 mm 0.11 in2.8 mm
07:47 AM 56.7°F13.7°C 55.3°F12.9°C 95% 4.2 mph E6.8 kmh E 7.0 mph11.3 kmh 29.70 in1005.8 mb 0.06 in1.5 mm 0.00 in0.0 mm 0.11 in2.8 mm
07:48 AM 56.7°F13.7°C 55.3°F12.9°C 95% 4.6 mph E7.4 kmh E 7.0 mph11.3 kmh 29.70 in1005.8 mb 0.06 in1.5 mm 0.00 in0.0 mm 0.11 in2.8 mm
07:49 AM 56.7°F13.7°C 55.3°F12.9°C 95% 3.5 mph ESE5.6 kmh ESE 7.0 mph11.3 kmh 29.70 in1005.8 mb 0.06 in1.5 mm 0.00 in0.0 mm 0.11 in2.8 mm
07:50 AM 56.7°F13.7°C 55.3°F12.9°C 95% 3.9 mph E6.3 kmh E 7.0 mph11.3 kmh 29.70 in1005.8 mb 0.06 in1.5 mm 0.00 in0.0 mm 0.11 in2.8 mm
07:51 AM 56.7°F13.7°C 55.3°F12.9°C 95% 3.4 mph E5.5 kmh E 6.0 mph9.7 kmh 29.70 in1005.8 mb 0.06 in1.5 mm 0.00 in0.0 mm 0.11 in2.8 mm
07:52 AM 56.7°F13.7°C 55.3°F12.9°C 95% 3.9 mph E6.3 kmh E 7.0 mph11.3 kmh 29.70 in1005.8 mb 0.05 in1.3 mm 0.00 in0.0 mm 0.11 in2.8 mm
07:53 AM 56.7°F13.7°C 55.3°F12.9°C 95% 3.6 mph E5.8 kmh E 7.0 mph11.3 kmh 29.70 in1005.8 mb 0.05 in1.3 mm 0.00 in0.0 mm 0.11 in2.8 mm
07:54 AM 56.7°F13.7°C 55.3°F12.9°C 95% 3.9 mph E6.3 kmh E 6.0 mph9.7 kmh 29.70 in1005.8 mb 0.05 in1.3 mm 0.00 in0.0 mm 0.11 in2.8 mm
07:55 AM 56.7°F13.7°C 55.3°F12.9°C 95% 4.8 mph E7.7 kmh E 8.0 mph12.9 kmh 29.70 in1005.8 mb 0.05 in1.3 mm 0.00 in0.0 mm 0.11 in2.8 mm
07:56 AM 56.7°F13.7°C 55.3°F12.9°C 95% 6.5 mph E10.5 kmh E 8.0 mph12.9 kmh 29.70 in1005.8 mb 0.05 in1.3 mm 0.00 in0.0 mm 0.11 in2.8 mm
07:57 AM 56.7°F13.7°C 55.3°F12.9°C 95% 6.4 mph E10.3 kmh E 9.0 mph14.5 kmh 29.70 in1005.8 mb 0.06 in1.5 mm 0.60 in15.2 mm 0.12 in3.0 mm
07:58 AM 56.7°F13.7°C 55.3°F12.9°C 95% 4.8 mph E7.7 kmh E 9.0 mph14.5 kmh 29.70 in1005.8 mb 0.06 in1.5 mm 0.00 in0.0 mm 0.12 in3.0 mm
07:59 AM 56.7°F13.7°C 55.3°F12.9°C 95% 4.6 mph E7.4 kmh E 7.0 mph11.3 kmh 29.70 in1005.8 mb 0.06 in1.5 mm 0.00 in0.0 mm 0.12 in3.0 mm
08:00 AM 56.7°F13.7°C 55.3°F12.9°C 95% 4.7 mph E7.6 kmh E 7.0 mph11.3 kmh 29.70 in1005.8 mb 0.06 in1.5 mm 0.00 in0.0 mm 0.12 in3.0 mm
08:01 AM 56.7°F13.7°C 55.3°F12.9°C 95% 3.9 mph ENE6.3 kmh ENE 9.0 mph14.5 kmh 29.70 in1005.8 mb 0.06 in1.5 mm 0.00 in0.0 mm 0.12 in3.0 mm
08:02 AM 56.7°F13.7°C 55.3°F12.9°C 95% 7.0 mph E11.3 kmh E 9.0 mph14.5 kmh 29.70 in1005.8 mb 0.06 in1.5 mm 0.00 in0.0 mm 0.12 in3.0 mm
08:03 AM 56.7°F13.7°C 55.3°F12.9°C 95% 7.1 mph E11.4 kmh E 9.0 mph14.5 kmh 29.70 in1005.8 mb 0.06 in1.5 mm 0.00 in0.0 mm 0.12 in3.0 mm
08:04 AM 56.7°F13.7°C 55.3°F12.9°C 95% 6.1 mph E9.8 kmh E 8.0 mph12.9 kmh 29.70 in1005.8 mb 0.06 in1.5 mm 0.00 in0.0 mm 0.12 in3.0 mm
08:05 AM 56.7°F13.7°C 55.3°F12.9°C 95% 5.5 mph E8.9 kmh E 10.0 mph16.1 kmh 29.70 in1005.8 mb 0.06 in1.5 mm 0.00 in0.0 mm 0.12 in3.0 mm
08:06 AM 56.7°F13.7°C 55.3°F12.9°C 95% 6.3 mph E10.1 kmh E 10.0 mph16.1 kmh 29.70 in1005.8 mb 0.06 in1.5 mm 0.00 in0.0 mm 0.13 in3.3 mm
08:07 AM 56.7°F13.7°C 55.3°F12.9°C 95% 6.2 mph E10.0 kmh E 9.0 mph14.5 kmh 29.70 in1005.8 mb 0.06 in1.5 mm 0.00 in0.0 mm 0.13 in3.3 mm
08:08 AM 56.7°F13.7°C 55.3°F12.9°C 95% 6.4 mph E10.3 kmh E 9.0 mph14.5 kmh 29.70 in1005.8 mb 0.06 in1.5 mm 0.00 in0.0 mm 0.13 in3.3 mm
08:09 AM 56.7°F13.7°C 55.3°F12.9°C 95% 4.5 mph E7.2 kmh E 9.0 mph14.5 kmh 29.70 in1005.8 mb 0.06 in1.5 mm 0.00 in0.0 mm 0.13 in3.3 mm
08:10 AM 56.7°F13.7°C 55.3°F12.9°C 95% 5.3 mph E8.5 kmh E 9.0 mph14.5 kmh 29.70 in1005.8 mb 0.06 in1.5 mm 0.00 in0.0 mm 0.13 in3.3 mm
08:11 AM 56.7°F13.7°C 55.3°F12.9°C 95% 6.3 mph E10.1 kmh E 9.0 mph14.5 kmh 29.70 in1005.8 mb 0.05 in1.3 mm 0.00 in0.0 mm 0.13 in3.3 mm
08:12 AM 56.7°F13.7°C 55.3°F12.9°C 95% 4.1 mph ENE6.6 kmh ENE 8.0 mph12.9 kmh 29.70 in1005.8 mb 0.04 in1.0 mm 0.00 in0.0 mm 0.13 in3.3 mm
08:13 AM 56.7°F13.7°C 55.3°F12.9°C 95% 4.5 mph E7.2 kmh E 8.0 mph12.9 kmh 29.70 in1005.8 mb 0.04 in1.0 mm 0.00 in0.0 mm 0.13 in3.3 mm
08:14 AM 56.7°F13.7°C 55.3°F12.9°C 95% 6.0 mph E9.7 kmh E 8.0 mph12.9 kmh 29.70 in1005.8 mb 0.04 in1.0 mm 0.00 in0.0 mm 0.13 in3.3 mm
08:15 AM 56.7°F13.7°C 55.3°F12.9°C 95% 4.9 mph E7.9 kmh E 8.0 mph12.9 kmh 29.70 in1005.8 mb 0.03 in0.8 mm 0.00 in0.0 mm 0.13 in3.3 mm
08:16 AM 56.8°F13.8°C 55.4°F13.0°C 95% 7.0 mph E11.3 kmh E 9.0 mph14.5 kmh 29.70 in1005.8 mb 0.03 in0.8 mm 0.00 in0.0 mm 0.13 in3.3 mm
08:17 AM 56.7°F13.7°C 55.3°F12.9°C 95% 5.1 mph E8.2 kmh E 9.0 mph14.5 kmh 29.70 in1005.8 mb 0.03 in0.8 mm 0.00 in0.0 mm 0.13 in3.3 mm
08:18 AM 56.8°F13.8°C 55.4°F13.0°C 95% 5.4 mph E8.7 kmh E 8.0 mph12.9 kmh 29.70 in1005.8 mb 0.03 in0.8 mm 0.00 in0.0 mm 0.13 in3.3 mm
08:19 AM 56.7°F13.7°C 55.3°F12.9°C 95% 7.5 mph E12.1 kmh E 9.0 mph14.5 kmh 29.70 in1005.8 mb 0.02 in0.5 mm 0.00 in0.0 mm 0.13 in3.3 mm
08:20 AM 56.8°F13.8°C 55.4°F13.0°C 95% 5.7 mph E9.2 kmh E 9.0 mph14.5 kmh 29.70 in1005.8 mb 0.02 in0.5 mm 0.00 in0.0 mm 0.13 in3.3 mm
08:21 AM 56.8°F13.8°C 55.4°F13.0°C 95% 4.2 mph E6.8 kmh E 7.0 mph11.3 kmh 29.70 in1005.8 mb 0.02 in0.5 mm 0.00 in0.0 mm 0.13 in3.3 mm
08:22 AM 56.8°F13.8°C 55.4°F13.0°C 95% 7.2 mph E11.6 kmh E 10.0 mph16.1 kmh 29.70 in1005.8 mb 0.02 in0.5 mm 0.00 in0.0 mm 0.13 in3.3 mm
08:23 AM 56.8°F13.8°C 55.4°F13.0°C 95% 7.4 mph E11.9 kmh E 10.0 mph16.1 kmh 29.70 in1005.8 mb 0.02 in0.5 mm 0.00 in0.0 mm 0.13 in3.3 mm
08:24 AM 56.8°F13.8°C 55.4°F13.0°C 95% 5.6 mph E9.0 kmh E 10.0 mph16.1 kmh 29.70 in1005.8 mb 0.02 in0.5 mm 0.00 in0.0 mm 0.13 in3.3 mm
08:25 AM 56.8°F13.8°C 55.4°F13.0°C 95% 4.9 mph E7.9 kmh E 9.0 mph14.5 kmh 29.70 in1005.8 mb 0.02 in0.5 mm 0.00 in0.0 mm 0.13 in3.3 mm
08:26 AM 56.9°F13.8°C 55.5°F13.1°C 95% 7.4 mph E11.9 kmh E 9.0 mph14.5 kmh 29.70 in1005.8 mb 0.02 in0.5 mm 0.00 in0.0 mm 0.13 in3.3 mm
08:27 AM 56.9°F13.8°C 55.5°F13.1°C 95% 5.3 mph E8.5 kmh E 9.0 mph14.5 kmh 29.70 in1005.8 mb 0.02 in0.5 mm 0.00 in0.0 mm 0.13 in3.3 mm
08:28 AM 56.9°F13.8°C 55.5°F13.1°C 95% 5.4 mph E8.7 kmh E 8.0 mph12.9 kmh 29.70 in1005.8 mb 0.02 in0.5 mm 0.00 in0.0 mm 0.13 in3.3 mm
08:29 AM 56.9°F13.8°C 55.5°F13.1°C 95% 6.3 mph E10.1 kmh E 9.0 mph14.5 kmh 29.70 in1005.8 mb 0.02 in0.5 mm 0.00 in0.0 mm 0.13 in3.3 mm
08:30 AM 56.9°F13.8°C 55.5°F13.1°C 95% 6.6 mph E10.6 kmh E 9.0 mph14.5 kmh 29.70 in1005.8 mb 0.02 in0.5 mm 0.00 in0.0 mm 0.13 in3.3 mm
08:31 AM 56.9°F13.8°C 55.5°F13.1°C 95% 5.9 mph ENE9.5 kmh ENE 9.0 mph14.5 kmh 29.70 in1005.8 mb 0.02 in0.5 mm 0.00 in0.0 mm 0.13 in3.3 mm
08:32 AM 57.0°F13.9°C 55.6°F13.1°C 95% 7.1 mph E11.4 kmh E 9.0 mph14.5 kmh 29.70 in1005.8 mb 0.02 in0.5 mm 0.00 in0.0 mm 0.13 in3.3 mm
08:33 AM 56.9°F13.8°C 55.5°F13.1°C 95% 6.2 mph ENE10.0 kmh ENE 9.0 mph14.5 kmh 29.70 in1005.8 mb 0.02 in0.5 mm 0.00 in0.0 mm 0.13 in3.3 mm
08:34 AM 57.0°F13.9°C 55.6°F13.1°C 95% 6.9 mph E11.1 kmh E 10.0 mph16.1 kmh 29.70 in1005.8 mb 0.02 in0.5 mm 0.00 in0.0 mm 0.13 in3.3 mm
08:35 AM 57.0°F13.9°C 55.6°F13.1°C 95% 5.5 mph E8.9 kmh E 10.0 mph16.1 kmh 29.70 in1005.8 mb 0.02 in0.5 mm 0.00 in0.0 mm 0.13 in3.3 mm
08:36 AM 57.0°F13.9°C 55.6°F13.1°C 95% 5.1 mph E8.2 kmh E 8.0 mph12.9 kmh 29.70 in1005.8 mb 0.02 in0.5 mm 0.00 in0.0 mm 0.13 in3.3 mm
08:37 AM 57.0°F13.9°C 55.6°F13.1°C 95% 6.0 mph E9.7 kmh E 9.0 mph14.5 kmh 29.70 in1005.8 mb 0.02 in0.5 mm 0.00 in0.0 mm 0.13 in3.3 mm
08:38 AM 57.0°F13.9°C 55.6°F13.1°C 95% 4.5 mph E7.2 kmh E 9.0 mph14.5 kmh 29.70 in1005.8 mb 0.02 in0.5 mm 0.00 in0.0 mm 0.13 in3.3 mm
08:39 AM 57.1°F13.9°C 55.7°F13.2°C 95% 3.4 mph E5.5 kmh E 7.0 mph11.3 kmh 29.71 in1006.1 mb 0.02 in0.5 mm 0.00 in0.0 mm 0.13 in3.3 mm
08:40 AM 57.1°F13.9°C 55.7°F13.2°C 95% 4.0 mph E6.4 kmh E 6.0 mph9.7 kmh 29.71 in1006.1 mb 0.02 in0.5 mm 0.00 in0.0 mm 0.13 in3.3 mm
08:41 AM 57.1°F13.9°C 55.7°F13.2°C 95% 4.7 mph E7.6 kmh E 7.0 mph11.3 kmh 29.70 in1005.8 mb 0.02 in0.5 mm 0.00 in0.0 mm 0.13 in3.3 mm
08:42 AM 57.1°F13.9°C 55.7°F13.2°C 95% 5.1 mph E8.2 kmh E 7.0 mph11.3 kmh 29.71 in1006.1 mb 0.02 in0.5 mm 0.00 in0.0 mm 0.13 in3.3 mm
08:43 AM 57.1°F13.9°C 55.7°F13.2°C 95% 5.0 mph E8.0 kmh E 9.0 mph14.5 kmh 29.71 in1006.1 mb 0.02 in0.5 mm 0.00 in0.0 mm 0.13 in3.3 mm
08:44 AM 57.1°F13.9°C 55.7°F13.2°C 95% 7.7 mph E12.4 kmh E 10.0 mph16.1 kmh 29.71 in1006.1 mb 0.02 in0.5 mm 0.00 in0.0 mm 0.13 in3.3 mm
08:45 AM 57.0°F13.9°C 55.6°F13.1°C 95% 4.6 mph E7.4 kmh E 10.0 mph16.1 kmh 29.71 in1006.1 mb 0.02 in0.5 mm 0.00 in0.0 mm 0.13 in3.3 mm
08:46 AM 57.1°F13.9°C 55.7°F13.2°C 95% 5.5 mph E8.9 kmh E 8.0 mph12.9 kmh 29.71 in1006.1 mb 0.02 in0.5 mm 0.00 in0.0 mm 0.13 in3.3 mm
08:47 AM 57.1°F13.9°C 55.7°F13.2°C 95% 7.4 mph E11.9 kmh E 9.0 mph14.5 kmh 29.71 in1006.1 mb 0.02 in0.5 mm 0.00 in0.0 mm 0.13 in3.3 mm
08:48 AM 57.0°F13.9°C 55.6°F13.1°C 95% 7.8 mph E12.6 kmh E 9.0 mph14.5 kmh 29.71 in1006.1 mb 0.02 in0.5 mm 0.00 in0.0 mm 0.13 in3.3 mm
08:49 AM 57.1°F13.9°C 55.7°F13.2°C 95% 6.5 mph E10.5 kmh E 9.0 mph14.5 kmh 29.71 in1006.1 mb 0.02 in0.5 mm 0.00 in0.0 mm 0.13 in3.3 mm
08:50 AM 57.0°F13.9°C 55.6°F13.1°C 95% 5.4 mph E8.7 kmh E 8.0 mph12.9 kmh 29.71 in1006.1 mb 0.02 in0.5 mm 0.00 in0.0 mm 0.13 in3.3 mm
08:51 AM 57.0°F13.9°C 55.6°F13.1°C 95% 5.7 mph E9.2 kmh E 9.0 mph14.5 kmh 29.71 in1006.1 mb 0.02 in0.5 mm 0.00 in0.0 mm 0.13 in3.3 mm
08:52 AM 56.9°F13.8°C 55.2°F12.9°C 94% 9.4 mph E15.1 kmh E 12.0 mph19.3 kmh 29.71 in1006.1 mb 0.02 in0.5 mm 0.00 in0.0 mm 0.13 in3.3 mm
08:53 AM 56.9°F13.8°C 55.2°F12.9°C 94% 8.9 mph E14.3 kmh E 12.0 mph19.3 kmh 29.71 in1006.1 mb 0.02 in0.5 mm 0.00 in0.0 mm 0.13 in3.3 mm
08:54 AM 56.9°F13.8°C 55.2°F12.9°C 94% 6.4 mph E10.3 kmh E 11.0 mph17.7 kmh 29.71 in1006.1 mb 0.02 in0.5 mm 0.00 in0.0 mm 0.13 in3.3 mm
08:55 AM 56.9°F13.8°C 55.5°F13.1°C 95% 9.9 mph E15.9 kmh E 11.0 mph17.7 kmh 29.71 in1006.1 mb 0.02 in0.5 mm 0.00 in0.0 mm 0.13 in3.3 mm
08:56 AM 57.0°F13.9°C 55.6°F13.1°C 95% 8.3 mph E13.4 kmh E 12.0 mph19.3 kmh 29.71 in1006.1 mb 0.02 in0.5 mm 0.00 in0.0 mm 0.13 in3.3 mm
08:57 AM 56.9°F13.8°C 55.5°F13.1°C 95% 9.7 mph E15.6 kmh E 12.0 mph19.3 kmh 29.71 in1006.1 mb 0.01 in0.3 mm 0.00 in0.0 mm 0.13 in3.3 mm
08:58 AM 56.9°F13.8°C 55.2°F12.9°C 94% 8.5 mph E13.7 kmh E 11.0 mph17.7 kmh 29.71 in1006.1 mb 0.01 in0.3 mm 0.00 in0.0 mm 0.13 in3.3 mm
08:59 AM 56.9°F13.8°C 55.5°F13.1°C 95% 5.7 mph E9.2 kmh E 10.0 mph16.1 kmh 29.71 in1006.1 mb 0.01 in0.3 mm 0.00 in0.0 mm 0.13 in3.3 mm
09:00 AM 56.9°F13.8°C 55.5°F13.1°C 95% 5.8 mph E9.3 kmh E 9.0 mph14.5 kmh 29.71 in1006.1 mb 0.01 in0.3 mm 0.00 in0.0 mm 0.13 in3.3 mm
09:01 AM 57.0°F13.9°C 55.6°F13.1°C 95% 8.0 mph E12.9 kmh E 10.0 mph16.1 kmh 29.71 in1006.1 mb 0.01 in0.3 mm 0.00 in0.0 mm 0.13 in3.3 mm
09:02 AM 56.9°F13.8°C 55.5°F13.1°C 95% 6.3 mph E10.1 kmh E 10.0 mph16.1 kmh 29.71 in1006.1 mb 0.02 in0.5 mm 0.60 in15.2 mm 0.13 in3.3 mm
09:03 AM 56.9°F13.8°C 55.5°F13.1°C 95% 5.9 mph E9.5 kmh E 10.0 mph16.1 kmh 29.71 in1006.1 mb 0.02 in0.5 mm 0.00 in0.0 mm 0.13 in3.3 mm
09:04 AM 56.9°F13.8°C 55.5°F13.1°C 95% 9.0 mph E14.5 kmh E 12.0 mph19.3 kmh 29.71 in1006.1 mb 0.02 in0.5 mm 0.00 in0.0 mm 0.13 in3.3 mm
09:05 AM 56.9°F13.8°C 55.5°F13.1°C 95% 10.7 mph E17.2 kmh E 13.0 mph20.9 kmh 29.71 in1006.1 mb 0.02 in0.5 mm 0.00 in0.0 mm 0.13 in3.3 mm
09:06 AM 56.8°F13.8°C 55.1°F12.8°C 94% 8.7 mph E14.0 kmh E 13.0 mph20.9 kmh 29.71 in1006.1 mb 0.01 in0.3 mm 0.00 in0.0 mm 0.13 in3.3 mm
09:07 AM 56.8°F13.8°C 55.4°F13.0°C 95% 7.3 mph E11.7 kmh E 10.0 mph16.1 kmh 29.71 in1006.1 mb 0.01 in0.3 mm 0.00 in0.0 mm 0.13 in3.3 mm
09:08 AM 56.9°F13.8°C 55.2°F12.9°C 94% 6.8 mph E10.9 kmh E 9.0 mph14.5 kmh 29.71 in1006.1 mb 0.01 in0.3 mm 0.00 in0.0 mm 0.13 in3.3 mm
09:09 AM 56.9°F13.8°C 55.2°F12.9°C 94% 8.5 mph E13.7 kmh E 10.0 mph16.1 kmh 29.71 in1006.1 mb 0.01 in0.3 mm 0.00 in0.0 mm 0.13 in3.3 mm
09:10 AM 56.8°F13.8°C 55.4°F13.0°C 95% 8.7 mph E14.0 kmh E 11.0 mph17.7 kmh 29.71 in1006.1 mb 0.01 in0.3 mm 0.00 in0.0 mm 0.13 in3.3 mm
09:11 AM 56.8°F13.8°C 55.1°F12.8°C 94% 9.5 mph E15.3 kmh E 11.0 mph17.7 kmh 29.71 in1006.1 mb 0.01 in0.3 mm 0.00 in0.0 mm 0.13 in3.3 mm
09:12 AM 56.8°F13.8°C 55.1°F12.8°C 94% 8.7 mph E14.0 kmh E 11.0 mph17.7 kmh 29.71 in1006.1 mb 0.01 in0.3 mm 0.00 in0.0 mm 0.13 in3.3 mm
09:13 AM 56.8°F13.8°C 55.1°F12.8°C 94% 7.4 mph E11.9 kmh E 10.0 mph16.1 kmh 29.71 in1006.1 mb 0.01 in0.3 mm 0.00 in0.0 mm 0.13 in3.3 mm
09:14 AM 56.8°F13.8°C 55.4°F13.0°C 95% 7.3 mph E11.7 kmh E 10.0 mph16.1 kmh 29.71 in1006.1 mb 0.01 in0.3 mm 0.00 in0.0 mm 0.13 in3.3 mm
09:15 AM 56.8°F13.8°C 55.4°F13.0°C 95% 5.8 mph E9.3 kmh E 9.0 mph14.5 kmh 29.71 in1006.1 mb 0.01 in0.3 mm 0.00 in0.0 mm 0.13 in3.3 mm
09:16 AM 56.8°F13.8°C 55.4°F13.0°C 95% 6.9 mph E11.1 kmh E 11.0 mph17.7 kmh 29.71 in1006.1 mb 0.01 in0.3 mm 0.00 in0.0 mm 0.13 in3.3 mm
09:17 AM 56.8°F13.8°C 55.4°F13.0°C 95% 5.8 mph E9.3 kmh E 11.0 mph17.7 kmh 29.72 in1006.4 mb 0.01 in0.3 mm 0.00 in0.0 mm 0.13 in3.3 mm
09:18 AM 56.8°F13.8°C 55.4°F13.0°C 95% 7.4 mph E11.9 kmh E 11.0 mph17.7 kmh 29.72 in1006.4 mb 0.01 in0.3 mm 0.00 in0.0 mm 0.13 in3.3 mm
09:19 AM 56.9°F13.8°C 55.5°F13.1°C 95% 7.0 mph E11.3 kmh E 13.0 mph20.9 kmh 29.72 in1006.4 mb 0.01 in0.3 mm 0.00 in0.0 mm 0.13 in3.3 mm
09:20 AM 56.8°F13.8°C 55.4°F13.0°C 95% 9.9 mph E15.9 kmh E 13.0 mph20.9 kmh 29.71 in1006.1 mb 0.01 in0.3 mm 0.00 in0.0 mm 0.13 in3.3 mm
09:21 AM 56.8°F13.8°C 55.1°F12.8°C 94% 8.3 mph E13.4 kmh E 12.0 mph19.3 kmh 29.72 in1006.4 mb 0.01 in0.3 mm 0.00 in0.0 mm 0.13 in3.3 mm
09:22 AM 56.8°F13.8°C 55.1°F12.8°C 94% 7.1 mph E11.4 kmh E 12.0 mph19.3 kmh 29.71 in1006.1 mb 0.01 in0.3 mm 0.00 in0.0 mm 0.13 in3.3 mm
09:23 AM 56.7°F13.7°C 55.0°F12.8°C 94% 9.3 mph E15.0 kmh E 12.0 mph19.3 kmh 29.72 in1006.4 mb 0.01 in0.3 mm 0.00 in0.0 mm 0.13 in3.3 mm
09:24 AM 56.7°F13.7°C 55.0°F12.8°C 94% 9.9 mph E15.9 kmh E 12.0 mph19.3 kmh 29.72 in1006.4 mb 0.01 in0.3 mm 0.00 in0.0 mm 0.13 in3.3 mm
09:25 AM 56.8°F13.8°C 55.1°F12.8°C 94% 9.5 mph E15.3 kmh E 13.0 mph20.9 kmh 29.72 in1006.4 mb 0.01 in0.3 mm 0.00 in0.0 mm 0.13 in3.3 mm
09:26 AM 56.7°F13.7°C 55.0°F12.8°C 94% 8.5 mph E13.7 kmh E 13.0 mph20.9 kmh 29.72 in1006.4 mb 0.02 in0.5 mm 0.60 in15.2 mm 0.14 in3.6 mm
09:27 AM 56.7°F13.7°C 55.0°F12.8°C 94% 10.3 mph E16.6 kmh E 13.0 mph20.9 kmh 29.72 in1006.4 mb 0.02 in0.5 mm 0.00 in0.0 mm 0.14 in3.6 mm
09:28 AM 56.7°F13.7°C 55.0°F12.8°C 94% 9.9 mph E15.9 kmh E 13.0 mph20.9 kmh 29.72 in1006.4 mb 0.02 in0.5 mm 0.00 in0.0 mm 0.14 in3.6 mm
09:29 AM 56.7°F13.7°C 55.0°F12.8°C 94% 9.5 mph E15.3 kmh E 12.0 mph19.3 kmh 29.72 in1006.4 mb 0.02 in0.5 mm 0.00 in0.0 mm 0.14 in3.6 mm
09:30 AM 56.7°F13.7°C 55.0°F12.8°C 94% 8.7 mph E14.0 kmh E 12.0 mph19.3 kmh 29.72 in1006.4 mb 0.02 in0.5 mm 0.00 in0.0 mm 0.14 in3.6 mm
09:31 AM 56.7°F13.7°C 55.0°F12.8°C 94% 11.6 mph E18.7 kmh E 15.0 mph24.1 kmh 29.72 in1006.4 mb 0.02 in0.5 mm 0.00 in0.0 mm 0.14 in3.6 mm
09:32 AM 56.7°F13.7°C 55.0°F12.8°C 94% 9.8 mph E15.8 kmh E 15.0 mph24.1 kmh 29.72 in1006.4 mb 0.02 in0.5 mm 0.00 in0.0 mm 0.14 in3.6 mm
09:33 AM 56.7°F13.7°C 55.0°F12.8°C 94% 7.4 mph E11.9 kmh E 12.0 mph19.3 kmh 29.72 in1006.4 mb 0.02 in0.5 mm 0.00 in0.0 mm 0.14 in3.6 mm
09:34 AM 56.7°F13.7°C 55.0°F12.8°C 94% 6.2 mph E10.0 kmh E 11.0 mph17.7 kmh 29.72 in1006.4 mb 0.02 in0.5 mm 0.00 in0.0 mm 0.14 in3.6 mm
09:35 AM 56.8°F13.8°C 55.1°F12.8°C 94% 8.5 mph E13.7 kmh E 11.0 mph17.7 kmh 29.72 in1006.4 mb 0.02 in0.5 mm 0.00 in0.0 mm 0.14 in3.6 mm
09:36 AM 56.8°F13.8°C 55.1°F12.8°C 94% 7.4 mph E11.9 kmh E 11.0 mph17.7 kmh 29.72 in1006.4 mb 0.02 in0.5 mm 0.00 in0.0 mm 0.14 in3.6 mm
09:37 AM 56.8°F13.8°C 55.1°F12.8°C 94% 9.2 mph E14.8 kmh E 12.0 mph19.3 kmh 29.72 in1006.4 mb 0.02 in0.5 mm 0.00 in0.0 mm 0.14 in3.6 mm
09:38 AM 56.8°F13.8°C 55.1°F12.8°C 94% 8.5 mph E13.7 kmh E 12.0 mph19.3 kmh 29.72 in1006.4 mb 0.02 in0.5 mm 0.00 in0.0 mm 0.14 in3.6 mm
09:39 AM 56.8°F13.8°C 55.1°F12.8°C 94% 9.1 mph E14.6 kmh E 12.0 mph19.3 kmh 29.72 in1006.4 mb 0.02 in0.5 mm 0.00 in0.0 mm 0.14 in3.6 mm
09:40 AM 56.8°F13.8°C 55.1°F12.8°C 94% 6.2 mph E10.0 kmh E 11.0 mph17.7 kmh 29.72 in1006.4 mb 0.02 in0.5 mm 0.00 in0.0 mm 0.14 in3.6 mm
09:41 AM 56.9°F13.8°C 55.2°F12.9°C 94% 6.7 mph E10.8 kmh E 9.0 mph14.5 kmh 29.72 in1006.4 mb 0.02 in0.5 mm 0.00 in0.0 mm 0.14 in3.6 mm
09:42 AM 56.9°F13.8°C 55.2°F12.9°C 94% 9.4 mph E15.1 kmh E 11.0 mph17.7 kmh 29.72 in1006.4 mb 0.02 in0.5 mm 0.00 in0.0 mm 0.14 in3.6 mm
09:43 AM 56.9°F13.8°C 55.2°F12.9°C 94% 8.1 mph E13.0 kmh E 11.0 mph17.7 kmh 29.72 in1006.4 mb 0.02 in0.5 mm 0.00 in0.0 mm 0.14 in3.6 mm
09:44 AM 56.9°F13.8°C 55.5°F13.1°C 95% 6.4 mph E10.3 kmh E 11.0 mph17.7 kmh 29.72 in1006.4 mb 0.02 in0.5 mm 0.00 in0.0 mm 0.14 in3.6 mm
09:45 AM 56.9°F13.8°C 55.5°F13.1°C 95% 8.1 mph E13.0 kmh E 11.0 mph17.7 kmh 29.72 in1006.4 mb 0.02 in0.5 mm 0.00 in0.0 mm 0.14 in3.6 mm
09:46 AM 56.9°F13.8°C 55.5°F13.1°C 95% 8.5 mph E13.7 kmh E 11.0 mph17.7 kmh 29.72 in1006.4 mb 0.02 in0.5 mm 0.00 in0.0 mm 0.14 in3.6 mm
09:47 AM 56.9°F13.8°C 55.5°F13.1°C 95% 9.5 mph E15.3 kmh E 11.0 mph17.7 kmh 29.72 in1006.4 mb 0.02 in0.5 mm 0.00 in0.0 mm 0.14 in3.6 mm
09:48 AM 56.9°F13.8°C 55.2°F12.9°C 94% 10.9 mph E17.5 kmh E 13.0 mph20.9 kmh 29.72 in1006.4 mb 0.02 in0.5 mm 0.00 in0.0 mm 0.14 in3.6 mm
09:49 AM 56.8°F13.8°C 55.1°F12.8°C 94% 11.3 mph E18.2 kmh E 14.0 mph22.5 kmh 29.72 in1006.4 mb 0.02 in0.5 mm 0.00 in0.0 mm 0.14 in3.6 mm
09:50 AM 56.9°F13.8°C 55.2°F12.9°C 94% 8.6 mph E13.8 kmh E 14.0 mph22.5 kmh 29.72 in1006.4 mb 0.02 in0.5 mm 0.00 in0.0 mm 0.14 in3.6 mm
09:51 AM 56.8°F13.8°C 55.1°F12.8°C 94% 10.8 mph E17.4 kmh E 13.0 mph20.9 kmh 29.72 in1006.4 mb 0.02 in0.5 mm 0.00 in0.0 mm 0.14 in3.6 mm
09:52 AM 56.8°F13.8°C 55.1°F12.8°C 94% 9.2 mph E14.8 kmh E 13.0 mph20.9 kmh 29.72 in1006.4 mb 0.02 in0.5 mm 0.00 in0.0 mm 0.14 in3.6 mm
09:53 AM 56.8°F13.8°C 55.1°F12.8°C 94% 7.5 mph E12.1 kmh E 11.0 mph17.7 kmh 29.72 in1006.4 mb 0.02 in0.5 mm 0.00 in0.0 mm 0.14 in3.6 mm
09:54 AM 56.8°F13.8°C 55.1°F12.8°C 94% 10.6 mph E17.1 kmh E 16.0 mph25.7 kmh 29.72 in1006.4 mb 0.02 in0.5 mm 0.00 in0.0 mm 0.14 in3.6 mm
09:55 AM 56.8°F13.8°C 55.1°F12.8°C 94% 11.0 mph E17.7 kmh E 16.0 mph25.7 kmh 29.72 in1006.4 mb 0.02 in0.5 mm 0.00 in0.0 mm 0.14 in3.6 mm
09:56 AM 56.8°F13.8°C 55.1°F12.8°C 94% 9.9 mph E15.9 kmh E 14.0 mph22.5 kmh 29.72 in1006.4 mb 0.02 in0.5 mm 0.00 in0.0 mm 0.14 in3.6 mm
09:57 AM 56.8°F13.8°C 55.1°F12.8°C 94% 11.2 mph E18.0 kmh E 15.0 mph24.1 kmh 29.72 in1006.4 mb 0.02 in0.5 mm 0.00 in0.0 mm 0.14 in3.6 mm
09:58 AM 56.8°F13.8°C 55.1°F12.8°C 94% 8.2 mph ESE13.2 kmh ESE 15.0 mph24.1 kmh 29.72 in1006.4 mb 0.02 in0.5 mm 0.00 in0.0 mm 0.14 in3.6 mm
09:59 AM 56.8°F13.8°C 55.1°F12.8°C 94% 9.4 mph E15.1 kmh E 12.0 mph19.3 kmh 29.72 in1006.4 mb 0.02 in0.5 mm 0.00 in0.0 mm 0.14 in3.6 mm
10:00 AM 56.8°F13.8°C 55.1°F12.8°C 94% 8.7 mph E14.0 kmh E 12.0 mph19.3 kmh 29.72 in1006.4 mb 0.02 in0.5 mm 0.00 in0.0 mm 0.14 in3.6 mm
10:01 AM 56.8°F13.8°C 55.1°F12.8°C 94% 9.8 mph E15.8 kmh E 12.0 mph19.3 kmh 29.72 in1006.4 mb 0.02 in0.5 mm 0.00 in0.0 mm 0.14 in3.6 mm
10:02 AM 56.8°F13.8°C 55.1°F12.8°C 94% 9.5 mph E15.3 kmh E 12.0 mph19.3 kmh 29.72 in1006.4 mb 0.01 in0.3 mm 0.00 in0.0 mm 0.14 in3.6 mm
10:03 AM 56.8°F13.8°C 55.1°F12.8°C 94% 9.9 mph E15.9 kmh E 12.0 mph19.3 kmh 29.72 in1006.4 mb 0.02 in0.5 mm 0.60 in15.2 mm 0.15 in3.8 mm
10:04 AM 56.8°F13.8°C 55.1°F12.8°C 94% 10.7 mph E17.2 kmh E 13.0 mph20.9 kmh 29.72 in1006.4 mb 0.02 in0.5 mm 0.00 in0.0 mm 0.15 in3.8 mm
10:05 AM 56.8°F13.8°C 55.1°F12.8°C 94% 9.8 mph E15.8 kmh E 13.0 mph20.9 kmh 29.72 in1006.4 mb 0.02 in0.5 mm 0.00 in0.0 mm 0.15 in3.8 mm
10:06 AM 56.8°F13.8°C 55.1°F12.8°C 94% 9.6 mph E15.4 kmh E 13.0 mph20.9 kmh 29.72 in1006.4 mb 0.02 in0.5 mm 0.00 in0.0 mm 0.15 in3.8 mm
10:07 AM 56.8°F13.8°C 55.1°F12.8°C 94% 7.3 mph E11.7 kmh E 13.0 mph20.9 kmh 29.72 in1006.4 mb 0.02 in0.5 mm 0.00 in0.0 mm 0.15 in3.8 mm
10:08 AM 56.8°F13.8°C 55.1°F12.8°C 94% 8.3 mph E13.4 kmh E 11.0 mph17.7 kmh 29.72 in1006.4 mb 0.02 in0.5 mm 0.00 in0.0 mm 0.15 in3.8 mm
10:09 AM 56.9°F13.8°C 55.5°F13.1°C 95% 8.1 mph E13.0 kmh E 11.0 mph17.7 kmh 29.72 in1006.4 mb 0.02 in0.5 mm 0.00 in0.0 mm 0.15 in3.8 mm
10:10 AM 56.9°F13.8°C 55.2°F12.9°C 94% 5.7 mph E9.2 kmh E 10.0 mph16.1 kmh 29.72 in1006.4 mb 0.02 in0.5 mm 0.00 in0.0 mm 0.15 in3.8 mm
10:11 AM 56.9°F13.8°C 55.5°F13.1°C 95% 8.4 mph E13.5 kmh E 12.0 mph19.3 kmh 29.72 in1006.4 mb 0.02 in0.5 mm 0.00 in0.0 mm 0.15 in3.8 mm
10:12 AM 56.9°F13.8°C 55.5°F13.1°C 95% 9.0 mph E14.5 kmh E 12.0 mph19.3 kmh 29.72 in1006.4 mb 0.02 in0.5 mm 0.00 in0.0 mm 0.15 in3.8 mm
10:13 AM 56.9°F13.8°C 55.2°F12.9°C 94% 7.4 mph E11.9 kmh E 10.0 mph16.1 kmh 29.72 in1006.4 mb 0.02 in0.5 mm 0.00 in0.0 mm 0.15 in3.8 mm
10:14 AM 57.0°F13.9°C 55.6°F13.1°C 95% 8.5 mph E13.7 kmh E 12.0 mph19.3 kmh 29.72 in1006.4 mb 0.02 in0.5 mm 0.00 in0.0 mm 0.15 in3.8 mm
10:15 AM 56.9°F13.8°C 55.5°F13.1°C 95% 9.0 mph E14.5 kmh E 14.0 mph22.5 kmh 29.72 in1006.4 mb 0.02 in0.5 mm 0.00 in0.0 mm 0.15 in3.8 mm
10:16 AM 56.9°F13.8°C 55.2°F12.9°C 94% 8.6 mph E13.8 kmh E 14.0 mph22.5 kmh 29.72 in1006.4 mb 0.02 in0.5 mm 0.00 in0.0 mm 0.15 in3.8 mm
10:17 AM 56.9°F13.8°C 55.2°F12.9°C 94% 7.6 mph E12.2 kmh E 11.0 mph17.7 kmh 29.72 in1006.4 mb 0.02 in0.5 mm 0.00 in0.0 mm 0.15 in3.8 mm
10:18 AM 57.0°F13.9°C 55.6°F13.1°C 95% 9.3 mph E15.0 kmh E 12.0 mph19.3 kmh 29.72 in1006.4 mb 0.02 in0.5 mm 0.00 in0.0 mm 0.15 in3.8 mm
10:19 AM 56.9°F13.8°C 55.2°F12.9°C 94% 10.0 mph E16.1 kmh E 13.0 mph20.9 kmh 29.72 in1006.4 mb 0.02 in0.5 mm 0.00 in0.0 mm 0.15 in3.8 mm
10:20 AM 57.0°F13.9°C 55.3°F12.9°C 94% 9.1 mph E14.6 kmh E 13.0 mph20.9 kmh 29.72 in1006.4 mb 0.02 in0.5 mm 0.00 in0.0 mm 0.15 in3.8 mm
10:21 AM 57.0°F13.9°C 55.6°F13.1°C 95% 7.7 mph ESE12.4 kmh ESE 11.0 mph17.7 kmh 29.72 in1006.4 mb 0.02 in0.5 mm 0.00 in0.0 mm 0.15 in3.8 mm
10:22 AM 57.0°F13.9°C 55.6°F13.1°C 95% 9.4 mph E15.1 kmh E 11.0 mph17.7 kmh 29.72 in1006.4 mb 0.02 in0.5 mm 0.00 in0.0 mm 0.15 in3.8 mm
10:23 AM 57.0°F13.9°C 55.3°F12.9°C 94% 9.1 mph E14.6 kmh E 11.0 mph17.7 kmh 29.72 in1006.4 mb 0.02 in0.5 mm 0.00 in0.0 mm 0.15 in3.8 mm
10:24 AM 57.0°F13.9°C 55.3°F12.9°C 94% 6.9 mph ESE11.1 kmh ESE 11.0 mph17.7 kmh 29.72 in1006.4 mb 0.02 in0.5 mm 0.00 in0.0 mm 0.15 in3.8 mm
10:25 AM 57.1°F13.9°C 55.7°F13.2°C 95% 6.9 mph E11.1 kmh E 9.0 mph14.5 kmh 29.72 in1006.4 mb 0.02 in0.5 mm 0.00 in0.0 mm 0.15 in3.8 mm
10:26 AM 57.1°F13.9°C 55.7°F13.2°C 95% 8.1 mph ESE13.0 kmh ESE 12.0 mph19.3 kmh 29.72 in1006.4 mb 0.01 in0.3 mm 0.00 in0.0 mm 0.15 in3.8 mm
10:27 AM 57.2°F14.0°C 55.5°F13.1°C 94% 8.4 mph E13.5 kmh E 12.0 mph19.3 kmh 29.72 in1006.4 mb 0.01 in0.3 mm 0.00 in0.0 mm 0.15 in3.8 mm
10:28 AM 57.1°F13.9°C 55.4°F13.0°C 94% 6.5 mph E10.5 kmh E 10.0 mph16.1 kmh 29.72 in1006.4 mb 0.01 in0.3 mm 0.00 in0.0 mm 0.15 in3.8 mm
10:29 AM 57.2°F14.0°C 55.5°F13.1°C 94% 7.3 mph E11.7 kmh E 11.0 mph17.7 kmh 29.72 in1006.4 mb 0.01 in0.3 mm 0.00 in0.0 mm 0.15 in3.8 mm
10:30 AM 57.2°F14.0°C 55.5°F13.1°C 94% 7.6 mph E12.2 kmh E 11.0 mph17.7 kmh 29.72 in1006.4 mb 0.01 in0.3 mm 0.00 in0.0 mm 0.15 in3.8 mm
10:31 AM 57.2°F14.0°C 55.5°F13.1°C 94% 5.8 mph ESE9.3 kmh ESE 10.0 mph16.1 kmh 29.72 in1006.4 mb 0.01 in0.3 mm 0.00 in0.0 mm 0.15 in3.8 mm
10:32 AM 57.3°F14.1°C 55.6°F13.1°C 94% 6.2 mph E10.0 kmh E 8.0 mph12.9 kmh 29.72 in1006.4 mb 0.01 in0.3 mm 0.00 in0.0 mm 0.15 in3.8 mm
10:33 AM 57.3°F14.1°C 55.9°F13.3°C 95% 6.5 mph E10.5 kmh E 8.0 mph12.9 kmh 29.72 in1006.4 mb 0.01 in0.3 mm 0.00 in0.0 mm 0.15 in3.8 mm
10:34 AM 57.4°F14.1°C 56.0°F13.3°C 95% 4.3 mph E6.9 kmh E 8.0 mph12.9 kmh 29.72 in1006.4 mb 0.01 in0.3 mm 0.00 in0.0 mm 0.15 in3.8 mm
10:35 AM 57.5°F14.2°C 56.1°F13.4°C 95% 6.9 mph E11.1 kmh E 10.0 mph16.1 kmh 29.72 in1006.4 mb 0.01 in0.3 mm 0.00 in0.0 mm 0.15 in3.8 mm
10:36 AM 57.5°F14.2°C 56.1°F13.4°C 95% 5.8 mph ESE9.3 kmh ESE 10.0 mph16.1 kmh 29.72 in1006.4 mb 0.01 in0.3 mm 0.00 in0.0 mm 0.15 in3.8 mm
10:37 AM 57.5°F14.2°C 56.1°F13.4°C 95% 3.7 mph E6.0 kmh E 8.0 mph12.9 kmh 29.72 in1006.4 mb 0.01 in0.3 mm 0.00 in0.0 mm 0.15 in3.8 mm
10:38 AM 57.6°F14.2°C 56.2°F13.4°C 95% 7.1 mph ESE11.4 kmh ESE 10.0 mph16.1 kmh 29.72 in1006.4 mb 0.01 in0.3 mm 0.00 in0.0 mm 0.15 in3.8 mm
10:39 AM 57.5°F14.2°C 55.8°F13.2°C 94% 9.2 mph E14.8 kmh E 11.0 mph17.7 kmh 29.72 in1006.4 mb 0.01 in0.3 mm 0.00 in0.0 mm 0.15 in3.8 mm
10:40 AM 57.4°F14.1°C 55.7°F13.2°C 94% 8.5 mph ESE13.7 kmh ESE 11.0 mph17.7 kmh 29.72 in1006.4 mb 0.01 in0.3 mm 0.00 in0.0 mm 0.15 in3.8 mm
10:41 AM 57.4°F14.1°C 55.7°F13.2°C 94% 6.8 mph ESE10.9 kmh ESE 11.0 mph17.7 kmh 29.72 in1006.4 mb 0.01 in0.3 mm 0.00 in0.0 mm 0.15 in3.8 mm
10:42 AM 57.4°F14.1°C 55.7°F13.2°C 94% 8.2 mph E13.2 kmh E 12.0 mph19.3 kmh 29.72 in1006.4 mb 0.01 in0.3 mm 0.00 in0.0 mm 0.15 in3.8 mm
10:43 AM 57.3°F14.1°C 55.6°F13.1°C 94% 11.7 mph E18.8 kmh E 14.0 mph22.5 kmh 29.72 in1006.4 mb 0.01 in0.3 mm 0.00 in0.0 mm 0.15 in3.8 mm
10:44 AM 57.3°F14.1°C 55.6°F13.1°C 94% 8.8 mph E14.2 kmh E 14.0 mph22.5 kmh 29.72 in1006.4 mb 0.01 in0.3 mm 0.00 in0.0 mm 0.15 in3.8 mm
10:45 AM 57.3°F14.1°C 55.6°F13.1°C 94% 7.9 mph E12.7 kmh E 12.0 mph19.3 kmh 29.72 in1006.4 mb 0.01 in0.3 mm 0.00 in0.0 mm 0.15 in3.8 mm
10:46 AM 57.3°F14.1°C 55.6°F13.1°C 94% 10.6 mph ESE17.1 kmh ESE 15.0 mph24.1 kmh 29.72 in1006.4 mb 0.01 in0.3 mm 0.00 in0.0 mm 0.15 in3.8 mm
10:47 AM 57.3°F14.1°C 55.6°F13.1°C 94% 8.4 mph E13.5 kmh E 15.0 mph24.1 kmh 29.72 in1006.4 mb 0.01 in0.3 mm 0.00 in0.0 mm 0.15 in3.8 mm
10:48 AM 57.3°F14.1°C 55.6°F13.1°C 94% 7.2 mph E11.6 kmh E 11.0 mph17.7 kmh 29.72 in1006.4 mb 0.01 in0.3 mm 0.00 in0.0 mm 0.15 in3.8 mm
10:49 AM 57.3°F14.1°C 55.6°F13.1°C 94% 8.5 mph E13.7 kmh E 11.0 mph17.7 kmh 29.72 in1006.4 mb 0.01 in0.3 mm 0.00 in0.0 mm 0.15 in3.8 mm
10:50 AM 57.5°F14.2°C 55.8°F13.2°C 94% 7.0 mph E11.3 kmh E 11.0 mph17.7 kmh 29.72 in1006.4 mb 0.01 in0.3 mm 0.00 in0.0 mm 0.15 in3.8 mm
10:51 AM 57.4°F14.1°C 55.7°F13.2°C 94% 8.5 mph E13.7 kmh E 13.0 mph20.9 kmh 29.72 in1006.4 mb 0.01 in0.3 mm 0.00 in0.0 mm 0.15 in3.8 mm
10:52 AM 57.4°F14.1°C 55.7°F13.2°C 94% 9.3 mph ESE15.0 kmh ESE 13.0 mph20.9 kmh 29.72 in1006.4 mb 0.01 in0.3 mm 0.00 in0.0 mm 0.15 in3.8 mm
10:53 AM 57.4°F14.1°C 55.7°F13.2°C 94% 8.7 mph E14.0 kmh E 12.0 mph19.3 kmh 29.72 in1006.4 mb 0.01 in0.3 mm 0.00 in0.0 mm 0.15 in3.8 mm
10:54 AM 57.4°F14.1°C 55.7°F13.2°C 94% 7.7 mph E12.4 kmh E 11.0 mph17.7 kmh 29.72 in1006.4 mb 0.01 in0.3 mm 0.00 in0.0 mm 0.15 in3.8 mm
10:55 AM 57.4°F14.1°C 55.7°F13.2°C 94% 7.2 mph ESE11.6 kmh ESE 9.0 mph14.5 kmh 29.72 in1006.4 mb 0.01 in0.3 mm 0.00 in0.0 mm 0.15 in3.8 mm
10:56 AM 57.4°F14.1°C 55.7°F13.2°C 94% 7.3 mph ESE11.7 kmh ESE 10.0 mph16.1 kmh 29.72 in1006.4 mb 0.01 in0.3 mm 0.00 in0.0 mm 0.15 in3.8 mm
10:57 AM 57.5°F14.2°C 55.8°F13.2°C 94% 5.9 mph ESE9.5 kmh ESE 10.0 mph16.1 kmh 29.72 in1006.4 mb 0.01 in0.3 mm 0.00 in0.0 mm 0.15 in3.8 mm
10:58 AM 57.5°F14.2°C 56.1°F13.4°C 95% 5.9 mph E9.5 kmh E 9.0 mph14.5 kmh 29.72 in1006.4 mb 0.01 in0.3 mm 0.00 in0.0 mm 0.15 in3.8 mm
10:59 AM 57.6°F14.2°C 56.2°F13.4°C 95% 7.3 mph E11.7 kmh E 10.0 mph16.1 kmh 29.72 in1006.4 mb 0.01 in0.3 mm 0.00 in0.0 mm 0.15 in3.8 mm
11:00 AM 57.5°F14.2°C 55.8°F13.2°C 94% 9.1 mph E14.6 kmh E 10.0 mph16.1 kmh 29.72 in1006.4 mb 0.01 in0.3 mm 0.00 in0.0 mm 0.15 in3.8 mm
11:01 AM 57.5°F14.2°C 55.8°F13.2°C 94% 5.8 mph ESE9.3 kmh ESE 10.0 mph16.1 kmh 29.72 in1006.4 mb 0.01 in0.3 mm 0.00 in0.0 mm 0.15 in3.8 mm
11:02 AM 57.6°F14.2°C 56.2°F13.4°C 95% 3.8 mph E6.1 kmh E 8.0 mph12.9 kmh 29.72 in1006.4 mb 0.01 in0.3 mm 0.00 in0.0 mm 0.15 in3.8 mm
11:03 AM 57.7°F14.3°C 56.3°F13.5°C 95% 5.0 mph ESE8.0 kmh ESE 7.0 mph11.3 kmh 29.72 in1006.4 mb 0.00 in0.0 mm 0.00 in0.0 mm 0.15 in3.8 mm
11:04 AM 57.6°F14.2°C 56.2°F13.4°C 95% 7.5 mph E12.1 kmh E 10.0 mph16.1 kmh 29.72 in1006.4 mb 0.00 in0.0 mm 0.00 in0.0 mm 0.15 in3.8 mm
11:05 AM 57.6°F14.2°C 55.9°F13.3°C 94% 6.0 mph E9.7 kmh E 10.0 mph16.1 kmh 29.72 in1006.4 mb 0.00 in0.0 mm 0.00 in0.0 mm 0.15 in3.8 mm
11:06 AM 57.6°F14.2°C 55.9°F13.3°C 94% 5.9 mph E9.5 kmh E 11.0 mph17.7 kmh 29.72 in1006.4 mb 0.00 in0.0 mm 0.00 in0.0 mm 0.15 in3.8 mm
11:07 AM 57.5°F14.2°C 55.8°F13.2°C 94% 9.6 mph E15.4 kmh E 11.0 mph17.7 kmh 29.72 in1006.4 mb 0.00 in0.0 mm 0.00 in0.0 mm 0.15 in3.8 mm
11:08 AM 57.5°F14.2°C 55.8°F13.2°C 94% 9.9 mph E15.9 kmh E 13.0 mph20.9 kmh 29.72 in1006.4 mb 0.01 in0.3 mm 0.60 in15.2 mm 0.16 in4.1 mm
11:09 AM 57.5°F14.2°C 55.8°F13.2°C 94% 7.2 mph E11.6 kmh E 13.0 mph20.9 kmh 29.72 in1006.4 mb 0.01 in0.3 mm 0.00 in0.0 mm 0.16 in4.1 mm
11:10 AM 57.6°F14.2°C 55.9°F13.3°C 94% 5.6 mph E9.0 kmh E 9.0 mph14.5 kmh 29.72 in1006.4 mb 0.01 in0.3 mm 0.00 in0.0 mm 0.16 in4.1 mm
11:11 AM 57.6°F14.2°C 56.2°F13.4°C 95% 5.1 mph ESE8.2 kmh ESE 8.0 mph12.9 kmh 29.72 in1006.4 mb 0.01 in0.3 mm 0.00 in0.0 mm 0.16 in4.1 mm
11:12 AM 57.6°F14.2°C 56.2°F13.4°C 95% 7.5 mph ESE12.1 kmh ESE 13.0 mph20.9 kmh 29.72 in1006.4 mb 0.01 in0.3 mm 0.00 in0.0 mm 0.16 in4.1 mm
11:13 AM 57.6°F14.2°C 55.9°F13.3°C 94% 9.7 mph ESE15.6 kmh ESE 13.0 mph20.9 kmh 29.72 in1006.4 mb 0.01 in0.3 mm 0.00 in0.0 mm 0.16 in4.1 mm
11:14 AM 57.5°F14.2°C 55.8°F13.2°C 94% 7.6 mph ESE12.2 kmh ESE 13.0 mph20.9 kmh 29.72 in1006.4 mb 0.01 in0.3 mm 0.00 in0.0 mm 0.16 in4.1 mm
11:15 AM 57.6°F14.2°C 55.9°F13.3°C 94% 7.4 mph E11.9 kmh E 12.0 mph19.3 kmh 29.72 in1006.4 mb 0.01 in0.3 mm 0.00 in0.0 mm 0.16 in4.1 mm
11:16 AM 57.6°F14.2°C 55.9°F13.3°C 94% 6.7 mph ESE10.8 kmh ESE 10.0 mph16.1 kmh 29.72 in1006.4 mb 0.01 in0.3 mm 0.00 in0.0 mm 0.16 in4.1 mm
11:17 AM 57.6°F14.2°C 55.9°F13.3°C 94% 7.0 mph ESE11.3 kmh ESE 9.0 mph14.5 kmh 29.72 in1006.4 mb 0.01 in0.3 mm 0.00 in0.0 mm 0.16 in4.1 mm
11:18 AM 57.7°F14.3°C 56.0°F13.3°C 94% 7.3 mph E11.7 kmh E 9.0 mph14.5 kmh 29.72 in1006.4 mb 0.01 in0.3 mm 0.00 in0.0 mm 0.16 in4.1 mm
11:19 AM 57.7°F14.3°C 56.3°F13.5°C 95% 7.4 mph E11.9 kmh E 9.0 mph14.5 kmh 29.72 in1006.4 mb 0.01 in0.3 mm 0.00 in0.0 mm 0.16 in4.1 mm
11:20 AM 57.8°F14.3°C 56.4°F13.6°C 95% 6.8 mph ESE10.9 kmh ESE 9.0 mph14.5 kmh 29.72 in1006.4 mb 0.01 in0.3 mm 0.00 in0.0 mm 0.16 in4.1 mm
11:21 AM 57.8°F14.3°C 56.4°F13.6°C 95% 6.5 mph ESE10.5 kmh ESE 9.0 mph14.5 kmh 29.72 in1006.4 mb 0.01 in0.3 mm 0.00 in0.0 mm 0.16 in4.1 mm
11:22 AM 57.8°F14.3°C 56.4°F13.6°C 95% 7.0 mph E11.3 kmh E 9.0 mph14.5 kmh 29.72 in1006.4 mb 0.01 in0.3 mm 0.00 in0.0 mm 0.16 in4.1 mm
11:23 AM 57.8°F14.3°C 56.4°F13.6°C 95% 6.6 mph E10.6 kmh E 9.0 mph14.5 kmh 29.72 in1006.4 mb 0.01 in0.3 mm 0.00 in0.0 mm 0.16 in4.1 mm
11:24 AM 57.8°F14.3°C 56.1°F13.4°C 94% 9.3 mph ESE15.0 kmh ESE 13.0 mph20.9 kmh 29.72 in1006.4 mb 0.01 in0.3 mm 0.00 in0.0 mm 0.16 in4.1 mm
11:25 AM 57.8°F14.3°C 56.1°F13.4°C 94% 8.6 mph ESE13.8 kmh ESE 13.0 mph20.9 kmh 29.72 in1006.4 mb 0.01 in0.3 mm 0.00 in0.0 mm 0.16 in4.1 mm
11:26 AM 57.7°F14.3°C 56.0°F13.3°C 94% 7.0 mph ESE11.3 kmh ESE 12.0 mph19.3 kmh 29.72 in1006.4 mb 0.01 in0.3 mm 0.00 in0.0 mm 0.16 in4.1 mm
11:27 AM 57.8°F14.3°C 56.1°F13.4°C 94% 4.8 mph E7.7 kmh E 10.0 mph16.1 kmh 29.72 in1006.4 mb 0.01 in0.3 mm 0.00 in0.0 mm 0.16 in4.1 mm
11:28 AM 57.8°F14.3°C 56.1°F13.4°C 94% 5.0 mph E8.0 kmh E 8.0 mph12.9 kmh 29.72 in1006.4 mb 0.01 in0.3 mm 0.00 in0.0 mm 0.16 in4.1 mm
11:29 AM 57.8°F14.3°C 56.4°F13.6°C 95% 10.5 mph ESE16.9 kmh ESE 13.0 mph20.9 kmh 29.72 in1006.4 mb 0.01 in0.3 mm 0.00 in0.0 mm 0.16 in4.1 mm
11:30 AM 57.7°F14.3°C 56.0°F13.3°C 94% 10.0 mph E16.1 kmh E 14.0 mph22.5 kmh 29.72 in1006.4 mb 0.01 in0.3 mm 0.00 in0.0 mm 0.16 in4.1 mm
11:31 AM 57.7°F14.3°C 56.0°F13.3°C 94% 8.1 mph ESE13.0 kmh ESE 14.0 mph22.5 kmh 29.72 in1006.4 mb 0.01 in0.3 mm 0.00 in0.0 mm 0.16 in4.1 mm
11:32 AM 57.7°F14.3°C 56.0°F13.3°C 94% 9.3 mph E15.0 kmh E 12.0 mph19.3 kmh 29.72 in1006.4 mb 0.01 in0.3 mm 0.00 in0.0 mm 0.16 in4.1 mm
11:33 AM 57.7°F14.3°C 56.0°F13.3°C 94% 8.8 mph E14.2 kmh E 12.0 mph19.3 kmh 29.72 in1006.4 mb 0.01 in0.3 mm 0.00 in0.0 mm 0.16 in4.1 mm
11:34 AM 57.7°F14.3°C 56.0°F13.3°C 94% 8.5 mph E13.7 kmh E 12.0 mph19.3 kmh 29.72 in1006.4 mb 0.01 in0.3 mm 0.00 in0.0 mm 0.16 in4.1 mm
11:35 AM 57.7°F14.3°C 56.0°F13.3°C 94% 7.4 mph E11.9 kmh E 12.0 mph19.3 kmh 29.72 in1006.4 mb 0.01 in0.3 mm 0.00 in0.0 mm 0.16 in4.1 mm
11:36 AM 57.7°F14.3°C 56.0°F13.3°C 94% 5.6 mph ESE9.0 kmh ESE 10.0 mph16.1 kmh 29.72 in1006.4 mb 0.01 in0.3 mm 0.00 in0.0 mm 0.16 in4.1 mm
11:37 AM 57.6°F14.2°C 55.9°F13.3°C 94% 7.0 mph ESE11.3 kmh ESE 8.0 mph12.9 kmh 29.72 in1006.4 mb 0.01 in0.3 mm 0.00 in0.0 mm 0.16 in4.1 mm
11:38 AM 57.7°F14.3°C 56.0°F13.3°C 94% 4.8 mph ESE7.7 kmh ESE 8.0 mph12.9 kmh 29.72 in1006.4 mb 0.01 in0.3 mm 0.00 in0.0 mm 0.16 in4.1 mm
11:39 AM 57.8°F14.3°C 56.4°F13.6°C 95% 6.1 mph ESE9.8 kmh ESE 11.0 mph17.7 kmh 29.72 in1006.4 mb 0.01 in0.3 mm 0.00 in0.0 mm 0.16 in4.1 mm
11:40 AM 57.8°F14.3°C 56.4°F13.6°C 95% 9.8 mph ESE15.8 kmh ESE 12.0 mph19.3 kmh 29.72 in1006.4 mb 0.01 in0.3 mm 0.00 in0.0 mm 0.16 in4.1 mm
11:41 AM 57.8°F14.3°C 56.1°F13.4°C 94% 7.8 mph ESE12.6 kmh ESE 12.0 mph19.3 kmh 29.72 in1006.4 mb 0.01 in0.3 mm 0.00 in0.0 mm 0.16 in4.1 mm
11:42 AM 57.7°F14.3°C 56.0°F13.3°C 94% 8.4 mph ESE13.5 kmh ESE 11.0 mph17.7 kmh 29.72 in1006.4 mb 0.01 in0.3 mm 0.00 in0.0 mm 0.16 in4.1 mm
11:43 AM 57.8°F14.3°C 56.1°F13.4°C 94% 8.3 mph ESE13.4 kmh ESE 11.0 mph17.7 kmh 29.72 in1006.4 mb 0.01 in0.3 mm 0.00 in0.0 mm 0.16 in4.1 mm
11:44 AM 57.8°F14.3°C 56.1°F13.4°C 94% 6.8 mph ESE10.9 kmh ESE 10.0 mph16.1 kmh 29.72 in1006.4 mb 0.01 in0.3 mm 0.00 in0.0 mm 0.16 in4.1 mm
11:45 AM 57.9°F14.4°C 56.2°F13.4°C 94% 6.3 mph ESE10.1 kmh ESE 9.0 mph14.5 kmh 29.72 in1006.4 mb 0.01 in0.3 mm 0.00 in0.0 mm 0.16 in4.1 mm
11:46 AM 57.8°F14.3°C 56.1°F13.4°C 94% 9.3 mph ESE15.0 kmh ESE 11.0 mph17.7 kmh 29.71 in1006.1 mb 0.01 in0.3 mm 0.00 in0.0 mm 0.16 in4.1 mm
11:47 AM 57.9°F14.4°C 56.2°F13.4°C 94% 9.4 mph ESE15.1 kmh ESE 12.0 mph19.3 kmh 29.72 in1006.4 mb 0.01 in0.3 mm 0.00 in0.0 mm 0.16 in4.1 mm
11:48 AM 57.8°F14.3°C 56.1°F13.4°C 94% 9.2 mph ESE14.8 kmh ESE 12.0 mph19.3 kmh 29.72 in1006.4 mb 0.01 in0.3 mm 0.00 in0.0 mm 0.16 in4.1 mm
11:49 AM 57.8°F14.3°C 56.1°F13.4°C 94% 10.1 mph ESE16.3 kmh ESE 12.0 mph19.3 kmh 29.72 in1006.4 mb 0.01 in0.3 mm 0.00 in0.0 mm 0.16 in4.1 mm
11:50 AM 57.8°F14.3°C 55.8°F13.2°C 93% 9.6 mph ESE15.4 kmh ESE 12.0 mph19.3 kmh 29.72 in1006.4 mb 0.01 in0.3 mm 0.00 in0.0 mm 0.16 in4.1 mm
11:51 AM 57.8°F14.3°C 56.1°F13.4°C 94% 8.8 mph ESE14.2 kmh ESE 12.0 mph19.3 kmh 29.72 in1006.4 mb 0.01 in0.3 mm 0.00 in0.0 mm 0.16 in4.1 mm
11:52 AM 57.8°F14.3°C 56.1°F13.4°C 94% 6.6 mph ESE10.6 kmh ESE 11.0 mph17.7 kmh 29.72 in1006.4 mb 0.01 in0.3 mm 0.00 in0.0 mm 0.16 in4.1 mm
11:53 AM 57.8°F14.3°C 56.1°F13.4°C 94% 7.3 mph ESE11.7 kmh ESE 9.0 mph14.5 kmh 29.72 in1006.4 mb 0.01 in0.3 mm 0.00 in0.0 mm 0.16 in4.1 mm
11:54 AM 57.9°F14.4°C 56.2°F13.4°C 94% 7.1 mph ESE11.4 kmh ESE 9.0 mph14.5 kmh 29.72 in1006.4 mb 0.01 in0.3 mm 0.00 in0.0 mm 0.16 in4.1 mm
11:55 AM 57.9°F14.4°C 56.2°F13.4°C 94% 5.5 mph ESE8.9 kmh ESE 9.0 mph14.5 kmh 29.72 in1006.4 mb 0.01 in0.3 mm 0.00 in0.0 mm 0.16 in4.1 mm
11:56 AM 57.9°F14.4°C 56.5°F13.6°C 95% 7.1 mph E11.4 kmh E 10.0 mph16.1 kmh 29.72 in1006.4 mb 0.01 in0.3 mm 0.00 in0.0 mm 0.16 in4.1 mm
11:57 AM 57.9°F14.4°C 56.2°F13.4°C 94% 7.9 mph ESE12.7 kmh ESE 11.0 mph17.7 kmh 29.72 in1006.4 mb 0.01 in0.3 mm 0.00 in0.0 mm 0.16 in4.1 mm
11:58 AM 57.9°F14.4°C 56.2°F13.4°C 94% 9.5 mph SE15.3 kmh SE 12.0 mph19.3 kmh 29.72 in1006.4 mb 0.01 in0.3 mm 0.00 in0.0 mm 0.16 in4.1 mm
11:59 AM 57.8°F14.3°C 56.1°F13.4°C 94% 7.4 mph ESE11.9 kmh ESE 12.0 mph19.3 kmh 29.72 in1006.4 mb 0.01 in0.3 mm 0.00 in0.0 mm 0.16 in4.1 mm
12:00 PM 57.8°F14.3°C 56.1°F13.4°C 94% 9.2 mph SE14.8 kmh SE 12.0 mph19.3 kmh 29.72 in1006.4 mb 0.01 in0.3 mm 0.00 in0.0 mm 0.16 in4.1 mm
12:01 PM 57.8°F14.3°C 56.1°F13.4°C 94% 9.6 mph ESE15.4 kmh ESE 12.0 mph19.3 kmh 29.72 in1006.4 mb 0.01 in0.3 mm 0.00 in0.0 mm 0.16 in4.1 mm
12:02 PM 57.8°F14.3°C 56.1°F13.4°C 94% 9.0 mph ESE14.5 kmh ESE 14.0 mph22.5 kmh 29.72 in1006.4 mb 0.01 in0.3 mm 0.00 in0.0 mm 0.16 in4.1 mm
12:03 PM 57.8°F14.3°C 56.1°F13.4°C 94% 8.3 mph ESE13.4 kmh ESE 14.0 mph22.5 kmh 29.72 in1006.4 mb 0.01 in0.3 mm 0.00 in0.0 mm 0.16 in4.1 mm
12:04 PM 57.7°F14.3°C 56.0°F13.3°C 94% 8.6 mph ESE13.8 kmh ESE 12.0 mph19.3 kmh 29.72 in1006.4 mb 0.01 in0.3 mm 0.00 in0.0 mm 0.16 in4.1 mm
12:05 PM 57.7°F14.3°C 55.7°F13.2°C 93% 10.4 mph E16.7 kmh E 14.0 mph22.5 kmh 29.72 in1006.4 mb 0.01 in0.3 mm 0.00 in0.0 mm 0.16 in4.1 mm
12:06 PM 57.6°F14.2°C 55.6°F13.1°C 93% 9.8 mph ESE15.8 kmh ESE 14.0 mph22.5 kmh 29.72 in1006.4 mb 0.01 in0.3 mm 0.00 in0.0 mm 0.16 in4.1 mm
12:07 PM 57.6°F14.2°C 55.9°F13.3°C 94% 8.1 mph ESE13.0 kmh ESE 12.0 mph19.3 kmh 29.72 in1006.4 mb 0.01 in0.3 mm 0.00 in0.0 mm 0.16 in4.1 mm
12:08 PM 57.6°F14.2°C 55.9°F13.3°C 94% 9.6 mph ESE15.4 kmh ESE 11.0 mph17.7 kmh 29.72 in1006.4 mb 0.00 in0.0 mm 0.00 in0.0 mm 0.16 in4.1 mm
12:09 PM 57.6°F14.2°C 55.9°F13.3°C 94% 7.4 mph ESE11.9 kmh ESE 11.0 mph17.7 kmh 29.72 in1006.4 mb 0.00 in0.0 mm 0.00 in0.0 mm 0.16 in4.1 mm
12:10 PM 57.6°F14.2°C 55.9°F13.3°C 94% 5.1 mph ESE8.2 kmh ESE 8.0 mph12.9 kmh 29.72 in1006.4 mb 0.00 in0.0 mm 0.00 in0.0 mm 0.16 in4.1 mm
12:11 PM 57.6°F14.2°C 55.9°F13.3°C 94% 5.6 mph ESE9.0 kmh ESE 10.0 mph16.1 kmh 29.72 in1006.4 mb 0.00 in0.0 mm 0.00 in0.0 mm 0.16 in4.1 mm
12:12 PM 57.6°F14.2°C 55.9°F13.3°C 94% 8.9 mph ESE14.3 kmh ESE 11.0 mph17.7 kmh 29.72 in1006.4 mb 0.00 in0.0 mm 0.00 in0.0 mm 0.16 in4.1 mm
12:13 PM 57.5°F14.2°C 55.8°F13.2°C 94% 6.8 mph SE10.9 kmh SE 11.0 mph17.7 kmh 29.72 in1006.4 mb 0.00 in0.0 mm 0.00 in0.0 mm 0.16 in4.1 mm
12:14 PM 57.5°F14.2°C 55.8°F13.2°C 94% 9.2 mph ESE14.8 kmh ESE 13.0 mph20.9 kmh 29.72 in1006.4 mb 0.00 in0.0 mm 0.00 in0.0 mm 0.16 in4.1 mm
12:15 PM 57.5°F14.2°C 55.8°F13.2°C 94% 8.9 mph ESE14.3 kmh ESE 13.0 mph20.9 kmh 29.72 in1006.4 mb 0.00 in0.0 mm 0.00 in0.0 mm 0.16 in4.1 mm
12:16 PM 57.6°F14.2°C 55.9°F13.3°C 94% 9.1 mph SE14.6 kmh SE 11.0 mph17.7 kmh 29.72 in1006.4 mb 0.00 in0.0 mm 0.00 in0.0 mm 0.16 in4.1 mm
12:17 PM 57.5°F14.2°C 55.8°F13.2°C 94% 8.7 mph ESE14.0 kmh ESE 12.0 mph19.3 kmh 29.72 in1006.4 mb 0.00 in0.0 mm 0.00 in0.0 mm 0.16 in4.1 mm
12:18 PM 57.5°F14.2°C 55.8°F13.2°C 94% 9.8 mph ESE15.8 kmh ESE 12.0 mph19.3 kmh 29.72 in1006.4 mb 0.00 in0.0 mm 0.00 in0.0 mm 0.16 in4.1 mm
12:19 PM 57.5°F14.2°C 55.8°F13.2°C 94% 8.0 mph ESE12.9 kmh ESE 12.0 mph19.3 kmh 29.72 in1006.4 mb 0.00 in0.0 mm 0.00 in0.0 mm 0.16 in4.1 mm
12:20 PM 57.5°F14.2°C 55.8°F13.2°C 94% 8.1 mph ESE13.0 kmh ESE 10.0 mph16.1 kmh 29.72 in1006.4 mb 0.00 in0.0 mm 0.00 in0.0 mm 0.16 in4.1 mm
12:21 PM 57.5°F14.2°C 55.8°F13.2°C 94% 9.2 mph SE14.8 kmh SE 12.0 mph19.3 kmh 29.72 in1006.4 mb 0.00 in0.0 mm 0.00 in0.0 mm 0.16 in4.1 mm
12:22 PM 57.5°F14.2°C 55.8°F13.2°C 94% 7.6 mph ESE12.2 kmh ESE 12.0 mph19.3 kmh 29.72 in1006.4 mb 0.00 in0.0 mm 0.00 in0.0 mm 0.16 in4.1 mm
12:23 PM 57.5°F14.2°C 55.8°F13.2°C 94% 9.4 mph ESE15.1 kmh ESE 12.0 mph19.3 kmh 29.72 in1006.4 mb 0.00 in0.0 mm 0.00 in0.0 mm 0.16 in4.1 mm
12:24 PM 57.5°F14.2°C 55.8°F13.2°C 94% 6.4 mph SE10.3 kmh SE 12.0 mph19.3 kmh 29.72 in1006.4 mb 0.00 in0.0 mm 0.00 in0.0 mm 0.16 in4.1 mm
12:25 PM 57.6°F14.2°C 55.9°F13.3°C 94% 6.0 mph SE9.7 kmh SE 11.0 mph17.7 kmh 29.72 in1006.4 mb 0.00 in0.0 mm 0.00 in0.0 mm 0.16 in4.1 mm
12:26 PM 57.6°F14.2°C 55.9°F13.3°C 94% 8.3 mph SE13.4 kmh SE 11.0 mph17.7 kmh 29.72 in1006.4 mb 0.00 in0.0 mm 0.00 in0.0 mm 0.16 in4.1 mm
12:27 PM 57.6°F14.2°C 55.9°F13.3°C 94% 7.9 mph ESE12.7 kmh ESE 11.0 mph17.7 kmh 29.72 in1006.4 mb 0.00 in0.0 mm 0.00 in0.0 mm 0.16 in4.1 mm
12:28 PM 57.6°F14.2°C 55.9°F13.3°C 94% 8.9 mph SE14.3 kmh SE 11.0 mph17.7 kmh 29.72 in1006.4 mb 0.00 in0.0 mm 0.00 in0.0 mm 0.16 in4.1 mm
12:29 PM 57.5°F14.2°C 55.8°F13.2°C 94% 5.5 mph SE8.9 kmh SE 10.0 mph16.1 kmh 29.72 in1006.4 mb 0.00 in0.0 mm 0.00 in0.0 mm 0.16 in4.1 mm
12:30 PM 57.5°F14.2°C 55.8°F13.2°C 94% 6.9 mph SE11.1 kmh SE 10.0 mph16.1 kmh 29.72 in1006.4 mb 0.00 in0.0 mm 0.00 in0.0 mm 0.16 in4.1 mm
12:31 PM 57.6°F14.2°C 55.9°F13.3°C 94% 6.3 mph SE10.1 kmh SE 13.0 mph20.9 kmh 29.72 in1006.4 mb 0.00 in0.0 mm 0.00 in0.0 mm 0.16 in4.1 mm
12:32 PM 57.5°F14.2°C 55.8°F13.2°C 94% 8.4 mph SE13.5 kmh SE 13.0 mph20.9 kmh 29.72 in1006.4 mb 0.00 in0.0 mm 0.00 in0.0 mm 0.16 in4.1 mm
12:33 PM 57.6°F14.2°C 55.9°F13.3°C 94% 8.8 mph SE14.2 kmh SE 12.0 mph19.3 kmh 29.72 in1006.4 mb 0.00 in0.0 mm 0.00 in0.0 mm 0.16 in4.1 mm
12:34 PM 57.5°F14.2°C 55.8°F13.2°C 94% 8.8 mph SE14.2 kmh SE 11.0 mph17.7 kmh 29.72 in1006.4 mb 0.00 in0.0 mm 0.00 in0.0 mm 0.16 in4.1 mm
12:35 PM 57.5°F14.2°C 55.8°F13.2°C 94% 7.3 mph SE11.7 kmh SE 10.0 mph16.1 kmh 29.72 in1006.4 mb 0.00 in0.0 mm 0.00 in0.0 mm 0.16 in4.1 mm
12:36 PM 57.5°F14.2°C 55.8°F13.2°C 94% 8.3 mph SE13.4 kmh SE 10.0 mph16.1 kmh 29.72 in1006.4 mb 0.00 in0.0 mm 0.00 in0.0 mm 0.16 in4.1 mm
12:37 PM 57.5°F14.2°C 55.8°F13.2°C 94% 6.1 mph ESE9.8 kmh ESE 10.0 mph16.1 kmh 29.72 in1006.4 mb 0.00 in0.0 mm 0.00 in0.0 mm 0.16 in4.1 mm
12:38 PM 57.6°F14.2°C 55.9°F13.3°C 94% 6.0 mph SE9.7 kmh SE 9.0 mph14.5 kmh 29.72 in1006.4 mb 0.00 in0.0 mm 0.00 in0.0 mm 0.16 in4.1 mm
12:39 PM 57.5°F14.2°C 55.8°F13.2°C 94% 8.6 mph SE13.8 kmh SE 12.0 mph19.3 kmh 29.72 in1006.4 mb 0.00 in0.0 mm 0.00 in0.0 mm 0.16 in4.1 mm
12:40 PM 57.4°F14.1°C 55.7°F13.2°C 94% 9.0 mph SE14.5 kmh SE 12.0 mph19.3 kmh 29.72 in1006.4 mb 0.00 in0.0 mm 0.00 in0.0 mm 0.16 in4.1 mm
12:41 PM 57.4°F14.1°C 55.7°F13.2°C 94% 8.4 mph SE13.5 kmh SE 12.0 mph19.3 kmh 29.72 in1006.4 mb 0.01 in0.3 mm 0.60 in15.2 mm 0.17 in4.3 mm
12:42 PM 57.4°F14.1°C 55.7°F13.2°C 94% 8.1 mph SE13.0 kmh SE 12.0 mph19.3 kmh 29.72 in1006.4 mb 0.01 in0.3 mm 0.00 in0.0 mm 0.17 in4.3 mm
12:43 PM 57.4°F14.1°C 55.7°F13.2°C 94% 5.0 mph SE8.0 kmh SE 11.0 mph17.7 kmh 29.72 in1006.4 mb 0.01 in0.3 mm 0.00 in0.0 mm 0.17 in4.3 mm
12:44 PM 57.3°F14.1°C 55.6°F13.1°C 94% 8.9 mph ESE14.3 kmh ESE 11.0 mph17.7 kmh 29.72 in1006.4 mb 0.01 in0.3 mm 0.00 in0.0 mm 0.17 in4.3 mm
12:45 PM 57.3°F14.1°C 55.6°F13.1°C 94% 7.8 mph SE12.6 kmh SE 11.0 mph17.7 kmh 29.72 in1006.4 mb 0.01 in0.3 mm 0.00 in0.0 mm 0.17 in4.3 mm
12:46 PM 57.3°F14.1°C 55.9°F13.3°C 95% 5.2 mph SE8.4 kmh SE 10.0 mph16.1 kmh 29.72 in1006.4 mb 0.01 in0.3 mm 0.00 in0.0 mm 0.17 in4.3 mm
12:47 PM 57.3°F14.1°C 55.9°F13.3°C 95% 5.5 mph ESE8.9 kmh ESE 9.0 mph14.5 kmh 29.72 in1006.4 mb 0.01 in0.3 mm 0.00 in0.0 mm 0.17 in4.3 mm
12:48 PM 57.3°F14.1°C 55.6°F13.1°C 94% 5.0 mph ESE8.0 kmh ESE 9.0 mph14.5 kmh 29.72 in1006.4 mb 0.01 in0.3 mm 0.00 in0.0 mm 0.17 in4.3 mm
12:49 PM 57.4°F14.1°C 56.0°F13.3°C 95% 5.6 mph SE9.0 kmh SE 8.0 mph12.9 kmh 29.72 in1006.4 mb 0.01 in0.3 mm 0.00 in0.0 mm 0.17 in4.3 mm
12:50 PM 57.4°F14.1°C 56.0°F13.3°C 95% 4.9 mph SE7.9 kmh SE 8.0 mph12.9 kmh 29.72 in1006.4 mb 0.01 in0.3 mm 0.00 in0.0 mm 0.17 in4.3 mm
12:51 PM 57.4°F14.1°C 56.0°F13.3°C 95% 6.6 mph SE10.6 kmh SE 10.0 mph16.1 kmh 29.72 in1006.4 mb 0.01 in0.3 mm 0.00 in0.0 mm 0.17 in4.3 mm
12:52 PM 57.4°F14.1°C 56.0°F13.3°C 95% 6.0 mph SE9.7 kmh SE 10.0 mph16.1 kmh 29.72 in1006.4 mb 0.01 in0.3 mm 0.00 in0.0 mm 0.17 in4.3 mm
12:53 PM 57.5°F14.2°C 56.1°F13.4°C 95% 6.3 mph ESE10.1 kmh ESE 9.0 mph14.5 kmh 29.72 in1006.4 mb 0.01 in0.3 mm 0.00 in0.0 mm 0.17 in4.3 mm
12:54 PM 57.5°F14.2°C 56.1°F13.4°C 95% 3.8 mph SE6.1 kmh SE 8.0 mph12.9 kmh 29.72 in1006.4 mb 0.01 in0.3 mm 0.00 in0.0 mm 0.17 in4.3 mm
12:55 PM 57.6°F14.2°C 56.2°F13.4°C 95% 3.7 mph SE6.0 kmh SE 6.0 mph9.7 kmh 29.72 in1006.4 mb 0.01 in0.3 mm 0.00 in0.0 mm 0.17 in4.3 mm
12:56 PM 57.6°F14.2°C 56.2°F13.4°C 95% 8.7 mph ESE14.0 kmh ESE 12.0 mph19.3 kmh 29.72 in1006.4 mb 0.01 in0.3 mm 0.00 in0.0 mm 0.17 in4.3 mm
12:57 PM 57.6°F14.2°C 56.2°F13.4°C 95% 8.6 mph SE13.8 kmh SE 12.0 mph19.3 kmh 29.72 in1006.4 mb 0.02 in0.5 mm 0.60 in15.2 mm 0.17 in4.3 mm
12:58 PM 57.5°F14.2°C 55.8°F13.2°C 94% 10.1 mph ESE16.3 kmh ESE 12.0 mph19.3 kmh 29.72 in1006.4 mb 0.02 in0.5 mm 0.00 in0.0 mm 0.17 in4.3 mm
12:59 PM 57.5°F14.2°C 55.8°F13.2°C 94% 6.8 mph ESE10.9 kmh ESE 12.0 mph19.3 kmh 29.72 in1006.4 mb 0.02 in0.5 mm 0.00 in0.0 mm 0.17 in4.3 mm
01:00 PM 57.4°F14.1°C 55.7°F13.2°C 94% 7.3 mph ESE11.7 kmh ESE 9.0 mph14.5 kmh 29.72 in1006.4 mb 0.02 in0.5 mm 0.00 in0.0 mm 0.17 in4.3 mm
01:01 PM 57.4°F14.1°C 55.7°F13.2°C 94% 5.4 mph SE8.7 kmh SE 9.0 mph14.5 kmh 29.72 in1006.4 mb 0.02 in0.5 mm 0.00 in0.0 mm 0.17 in4.3 mm
01:02 PM 57.5°F14.2°C 55.8°F13.2°C 94% 5.2 mph SE8.4 kmh SE 8.0 mph12.9 kmh 29.72 in1006.4 mb 0.02 in0.5 mm 0.00 in0.0 mm 0.17 in4.3 mm
01:03 PM 57.5°F14.2°C 55.8°F13.2°C 94% 4.4 mph SE7.1 kmh SE 8.0 mph12.9 kmh 29.72 in1006.4 mb 0.02 in0.5 mm 0.00 in0.0 mm 0.17 in4.3 mm
01:04 PM 57.5°F14.2°C 56.1°F13.4°C 95% 6.5 mph SE10.5 kmh SE 9.0 mph14.5 kmh 29.72 in1006.4 mb 0.02 in0.5 mm 0.00 in0.0 mm 0.17 in4.3 mm
01:05 PM 57.5°F14.2°C 55.8°F13.2°C 94% 7.1 mph SE11.4 kmh SE 9.0 mph14.5 kmh 29.72 in1006.4 mb 0.02 in0.5 mm 0.00 in0.0 mm 0.17 in4.3 mm
01:06 PM 57.5°F14.2°C 55.8°F13.2°C 94% 4.6 mph ESE7.4 kmh ESE 8.0 mph12.9 kmh 29.72 in1006.4 mb 0.02 in0.5 mm 0.00 in0.0 mm 0.17 in4.3 mm
01:07 PM 57.5°F14.2°C 55.8°F13.2°C 94% 5.0 mph SE8.0 kmh SE 7.0 mph11.3 kmh 29.72 in1006.4 mb 0.02 in0.5 mm 0.00 in0.0 mm 0.17 in4.3 mm
01:08 PM 57.5°F14.2°C 55.8°F13.2°C 94% 5.0 mph ESE8.0 kmh ESE 7.0 mph11.3 kmh 29.72 in1006.4 mb 0.02 in0.5 mm 0.00 in0.0 mm 0.18 in4.6 mm
01:09 PM 57.4°F14.1°C 55.7°F13.2°C 94% 4.8 mph ESE7.7 kmh ESE 7.0 mph11.3 kmh 29.72 in1006.4 mb 0.02 in0.5 mm 0.00 in0.0 mm 0.18 in4.6 mm
01:10 PM 57.5°F14.2°C 56.1°F13.4°C 95% 3.6 mph SE5.8 kmh SE 7.0 mph11.3 kmh 29.72 in1006.4 mb 0.02 in0.5 mm 0.00 in0.0 mm 0.18 in4.6 mm
01:11 PM 57.4°F14.1°C 55.7°F13.2°C 94% 2.9 mph SE4.7 kmh SE 5.0 mph8.0 kmh 29.72 in1006.4 mb 0.02 in0.5 mm 0.00 in0.0 mm 0.18 in4.6 mm
01:12 PM 57.4°F14.1°C 56.0°F13.3°C 95% 3.0 mph SE4.8 kmh SE 5.0 mph8.0 kmh 29.72 in1006.4 mb 0.02 in0.5 mm 0.00 in0.0 mm 0.18 in4.6 mm
01:13 PM 57.4°F14.1°C 56.0°F13.3°C 95% 3.9 mph SE6.3 kmh SE 5.0 mph8.0 kmh 29.72 in1006.4 mb 0.03 in0.8 mm 0.60 in15.2 mm 0.19 in4.8 mm
01:14 PM 57.4°F14.1°C 56.0°F13.3°C 95% 5.3 mph SE8.5 kmh SE 9.0 mph14.5 kmh 29.72 in1006.4 mb 0.03 in0.8 mm 0.00 in0.0 mm 0.19 in4.8 mm
01:15 PM 57.4°F14.1°C 56.0°F13.3°C 95% 5.2 mph SE8.4 kmh SE 9.0 mph14.5 kmh 29.72 in1006.4 mb 0.03 in0.8 mm 0.00 in0.0 mm 0.19 in4.8 mm
01:16 PM 57.4°F14.1°C 56.0°F13.3°C 95% 4.4 mph ESE7.1 kmh ESE 7.0 mph11.3 kmh 29.72 in1006.4 mb 0.03 in0.8 mm 0.00 in0.0 mm 0.19 in4.8 mm
01:17 PM 57.3°F14.1°C 55.6°F13.1°C 94% 6.5 mph SE10.5 kmh SE 9.0 mph14.5 kmh 29.72 in1006.4 mb 0.03 in0.8 mm 0.00 in0.0 mm 0.19 in4.8 mm
01:18 PM 57.3°F14.1°C 55.6°F13.1°C 94% 4.2 mph SE6.8 kmh SE 9.0 mph14.5 kmh 29.72 in1006.4 mb 0.03 in0.8 mm 0.00 in0.0 mm 0.19 in4.8 mm
01:19 PM 57.3°F14.1°C 55.9°F13.3°C 95% 4.0 mph SE6.4 kmh SE 7.0 mph11.3 kmh 29.72 in1006.4 mb 0.04 in1.0 mm 0.60 in15.2 mm 0.20 in5.1 mm
01:20 PM 57.4°F14.1°C 55.7°F13.2°C 94% 2.9 mph SE4.7 kmh SE 6.0 mph9.7 kmh 29.72 in1006.4 mb 0.04 in1.0 mm 0.00 in0.0 mm 0.20 in5.1 mm
01:21 PM 57.3°F14.1°C 55.9°F13.3°C 95% 4.5 mph SSE7.2 kmh SSE 6.0 mph9.7 kmh 29.72 in1006.4 mb 0.04 in1.0 mm 0.00 in0.0 mm 0.20 in5.1 mm
01:22 PM 57.3°F14.1°C 55.9°F13.3°C 95% 3.9 mph SE6.3 kmh SE 6.0 mph9.7 kmh 29.72 in1006.4 mb 0.04 in1.0 mm 0.00 in0.0 mm 0.20 in5.1 mm
01:23 PM 57.3°F14.1°C 55.9°F13.3°C 95% 3.7 mph S6.0 kmh S 6.0 mph9.7 kmh 29.72 in1006.4 mb 0.04 in1.0 mm 0.00 in0.0 mm 0.20 in5.1 mm
01:24 PM 57.3°F14.1°C 55.9°F13.3°C 95% 3.7 mph SSE6.0 kmh SSE 6.0 mph9.7 kmh 29.72 in1006.4 mb 0.05 in1.3 mm 0.60 in15.2 mm 0.20 in5.1 mm
01:25 PM 57.3°F14.1°C 55.9°F13.3°C 95% 4.4 mph S7.1 kmh S 7.0 mph11.3 kmh 29.72 in1006.4 mb 0.05 in1.3 mm 0.00 in0.0 mm 0.20 in5.1 mm
01:26 PM 57.3°F14.1°C 55.9°F13.3°C 95% 3.4 mph SSE5.5 kmh SSE 7.0 mph11.3 kmh 29.72 in1006.4 mb 0.06 in1.5 mm 0.60 in15.2 mm 0.21 in5.3 mm
01:27 PM 57.3°F14.1°C 55.9°F13.3°C 95% 5.8 mph S9.3 kmh S 9.0 mph14.5 kmh 29.72 in1006.4 mb 0.06 in1.5 mm 0.00 in0.0 mm 0.22 in5.6 mm
01:28 PM 57.2°F14.0°C 55.8°F13.2°C 95% 5.6 mph S9.0 kmh S 9.0 mph14.5 kmh 29.72 in1006.4 mb 0.06 in1.5 mm 0.00 in0.0 mm 0.22 in5.6 mm
01:29 PM 57.2°F14.0°C 55.5°F13.1°C 94% 5.3 mph S8.5 kmh S 7.0 mph11.3 kmh 29.72 in1006.4 mb 0.08 in2.0 mm 1.20 in30.5 mm 0.24 in6.1 mm
01:30 PM 57.1°F13.9°C 55.4°F13.0°C 94% 5.5 mph S8.9 kmh S 7.0 mph11.3 kmh 29.72 in1006.4 mb 0.09 in2.3 mm 0.60 in15.2 mm 0.24 in6.1 mm
01:31 PM 57.0°F13.9°C 55.3°F12.9°C 94% 6.0 mph S9.7 kmh S 8.0 mph12.9 kmh 29.72 in1006.4 mb 0.09 in2.3 mm 0.00 in0.0 mm 0.25 in6.4 mm
01:32 PM 56.9°F13.8°C 55.2°F12.9°C 94% 5.2 mph SSE8.4 kmh SSE 8.0 mph12.9 kmh 29.72 in1006.4 mb 0.11 in2.8 mm 1.20 in30.5 mm 0.27 in6.9 mm
01:33 PM 56.9°F13.8°C 55.2°F12.9°C 94% 3.4 mph S5.5 kmh S 7.0 mph11.3 kmh 29.73 in1006.8 mb 0.13 in3.3 mm 1.20 in30.5 mm 0.28 in7.1 mm
01:34 PM 56.9°F13.8°C 55.2°F12.9°C 94% 2.3 mph S3.7 kmh S 4.0 mph6.4 kmh 29.73 in1006.8 mb 0.13 in3.3 mm 0.00 in0.0 mm 0.29 in7.4 mm
01:35 PM 56.9°F13.8°C 55.2°F12.9°C 94% 1.4 mph S2.3 kmh S 3.0 mph4.8 kmh 29.72 in1006.4 mb 0.15 in3.8 mm 1.20 in30.5 mm 0.31 in7.9 mm
01:36 PM 56.9°F13.8°C 55.5°F13.1°C 95% 1.5 mph S2.4 kmh S 2.0 mph3.2 kmh 29.73 in1006.8 mb 0.17 in4.3 mm 1.20 in30.5 mm 0.32 in8.1 mm
01:37 PM 56.9°F13.8°C 55.5°F13.1°C 95% 1.6 mph SE2.6 kmh SE 2.0 mph3.2 kmh 29.73 in1006.8 mb 0.17 in4.3 mm 0.00 in0.0 mm 0.33 in8.4 mm
01:38 PM 56.8°F13.8°C 55.4°F13.0°C 95% 1.6 mph SE2.6 kmh SE 3.0 mph4.8 kmh 29.73 in1006.8 mb 0.19 in4.8 mm 1.20 in30.5 mm 0.35 in8.9 mm
01:39 PM 56.8°F13.8°C 55.4°F13.0°C 95% 2.8 mph ESE4.5 kmh ESE 4.0 mph6.4 kmh 29.73 in1006.8 mb 0.19 in4.8 mm 0.00 in0.0 mm 0.35 in8.9 mm
01:40 PM 56.9°F13.8°C 55.2°F12.9°C 94% 3.1 mph SE5.0 kmh SE 4.0 mph6.4 kmh 29.72 in1006.4 mb 0.20 in5.1 mm 0.60 in15.2 mm 0.35 in8.9 mm
01:41 PM 56.9°F13.8°C 55.5°F13.1°C 95% 3.1 mph ESE5.0 kmh ESE 4.0 mph6.4 kmh 29.72 in1006.4 mb 0.20 in5.1 mm 0.00 in0.0 mm 0.36 in9.1 mm
01:42 PM 56.9°F13.8°C 55.5°F13.1°C 95% 3.5 mph SE5.6 kmh SE 4.0 mph6.4 kmh 29.72 in1006.4 mb 0.20 in5.1 mm 0.00 in0.0 mm 0.37 in9.4 mm
01:43 PM 56.9°F13.8°C 55.5°F13.1°C 95% 7.1 mph ESE11.4 kmh ESE 8.0 mph12.9 kmh 29.72 in1006.4 mb 0.21 in5.3 mm 0.60 in15.2 mm 0.38 in9.7 mm
01:44 PM 56.9°F13.8°C 55.5°F13.1°C 95% 7.1 mph ESE11.4 kmh ESE 8.0 mph12.9 kmh 29.73 in1006.8 mb 0.21 in5.3 mm 0.00 in0.0 mm 0.38 in9.7 mm
01:45 PM 56.9°F13.8°C 55.5°F13.1°C 95% 7.6 mph ESE12.2 kmh ESE 9.0 mph14.5 kmh 29.72 in1006.4 mb 0.21 in5.3 mm 0.00 in0.0 mm 0.38 in9.7 mm
01:46 PM 56.9°F13.8°C 55.5°F13.1°C 95% 7.9 mph ESE12.7 kmh ESE 9.0 mph14.5 kmh 29.72 in1006.4 mb 0.21 in5.3 mm 0.00 in0.0 mm 0.38 in9.7 mm
01:47 PM 56.9°F13.8°C 55.5°F13.1°C 95% 7.6 mph ESE12.2 kmh ESE 9.0 mph14.5 kmh 29.72 in1006.4 mb 0.21 in5.3 mm 0.00 in0.0 mm 0.38 in9.7 mm
01:48 PM 56.9°F13.8°C 55.5°F13.1°C 95% 6.7 mph ESE10.8 kmh ESE 9.0 mph14.5 kmh 29.72 in1006.4 mb 0.21 in5.3 mm 0.00 in0.0 mm 0.38 in9.7 mm
01:49 PM 56.9°F13.8°C 55.5°F13.1°C 95% 6.7 mph ESE10.8 kmh ESE 8.0 mph12.9 kmh 29.72 in1006.4 mb 0.21 in5.3 mm 0.00 in0.0 mm 0.38 in9.7 mm
01:50 PM 56.9°F13.8°C 55.5°F13.1°C 95% 6.8 mph ESE10.9 kmh ESE 8.0 mph12.9 kmh 29.72 in1006.4 mb 0.21 in5.3 mm 0.00 in0.0 mm 0.38 in9.7 mm
01:51 PM 57.0°F13.9°C 55.6°F13.1°C 95% 7.4 mph ESE11.9 kmh ESE 9.0 mph14.5 kmh 29.72 in1006.4 mb 0.21 in5.3 mm 0.00 in0.0 mm 0.38 in9.7 mm
01:52 PM 57.0°F13.9°C 55.6°F13.1°C 95% 7.3 mph ESE11.7 kmh ESE 9.0 mph14.5 kmh 29.72 in1006.4 mb 0.22 in5.6 mm 0.60 in15.2 mm 0.39 in9.9 mm
01:53 PM 57.0°F13.9°C 55.6°F13.1°C 95% 7.4 mph E11.9 kmh E 10.0 mph16.1 kmh 29.72 in1006.4 mb 0.22 in5.6 mm 0.00 in0.0 mm 0.39 in9.9 mm
01:54 PM 56.9°F13.8°C 55.2°F12.9°C 94% 8.9 mph E14.3 kmh E 11.0 mph17.7 kmh 29.72 in1006.4 mb 0.22 in5.6 mm 0.00 in0.0 mm 0.39 in9.9 mm
01:55 PM 56.8°F13.8°C 55.1°F12.8°C 94% 7.6 mph ESE12.2 kmh ESE 11.0 mph17.7 kmh 29.72 in1006.4 mb 0.22 in5.6 mm 0.00 in0.0 mm 0.39 in9.9 mm
01:56 PM 56.9°F13.8°C 55.2°F12.9°C 94% 8.1 mph E13.0 kmh E 10.0 mph16.1 kmh 29.72 in1006.4 mb 0.22 in5.6 mm 0.00 in0.0 mm 0.39 in9.9 mm
01:57 PM 56.8°F13.8°C 55.1°F12.8°C 94% 7.5 mph E12.1 kmh E 10.0 mph16.1 kmh 29.72 in1006.4 mb 0.21 in5.3 mm 0.00 in0.0 mm 0.39 in9.9 mm
01:58 PM 56.9°F13.8°C 55.2°F12.9°C 94% 6.5 mph E10.5 kmh E 10.0 mph16.1 kmh 29.72 in1006.4 mb 0.21 in5.3 mm 0.00 in0.0 mm 0.39 in9.9 mm
01:59 PM 56.8°F13.8°C 55.1°F12.8°C 94% 7.5 mph E12.1 kmh E 9.0 mph14.5 kmh 29.72 in1006.4 mb 0.21 in5.3 mm 0.00 in0.0 mm 0.39 in9.9 mm
02:00 PM 56.9°F13.8°C 55.2°F12.9°C 94% 6.0 mph E9.7 kmh E 9.0 mph14.5 kmh 29.72 in1006.4 mb 0.21 in5.3 mm 0.00 in0.0 mm 0.39 in9.9 mm
02:01 PM 56.9°F13.8°C 55.2°F12.9°C 94% 6.1 mph E9.8 kmh E 8.0 mph12.9 kmh 29.72 in1006.4 mb 0.22 in5.6 mm 0.60 in15.2 mm 0.39 in9.9 mm
02:02 PM 56.9°F13.8°C 55.2°F12.9°C 94% 5.8 mph E9.3 kmh E 8.0 mph12.9 kmh 29.72 in1006.4 mb 0.22 in5.6 mm 0.00 in0.0 mm 0.39 in9.9 mm
02:03 PM 56.9°F13.8°C 55.2°F12.9°C 94% 7.0 mph E11.3 kmh E 9.0 mph14.5 kmh 29.72 in1006.4 mb 0.22 in5.6 mm 0.00 in0.0 mm 0.39 in9.9 mm
02:04 PM 56.9°F13.8°C 55.2°F12.9°C 94% 6.3 mph E10.1 kmh E 9.0 mph14.5 kmh 29.72 in1006.4 mb 0.22 in5.6 mm 0.00 in0.0 mm 0.39 in9.9 mm
02:05 PM 56.9°F13.8°C 55.2°F12.9°C 94% 7.8 mph E12.6 kmh E 10.0 mph16.1 kmh 29.72 in1006.4 mb 0.22 in5.6 mm 0.00 in0.0 mm 0.39 in9.9 mm
02:06 PM 56.9°F13.8°C 55.2°F12.9°C 94% 6.3 mph E10.1 kmh E 10.0 mph16.1 kmh 29.72 in1006.4 mb 0.23 in5.8 mm 0.60 in15.2 mm 0.40 in10.2 mm
02:07 PM 56.8°F13.8°C 55.1°F12.8°C 94% 4.3 mph ESE6.9 kmh ESE 9.0 mph14.5 kmh 29.72 in1006.4 mb 0.23 in5.8 mm 0.00 in0.0 mm 0.40 in10.2 mm
02:08 PM 56.9°F13.8°C 55.2°F12.9°C 94% 4.3 mph ESE6.9 kmh ESE 6.0 mph9.7 kmh 29.72 in1006.4 mb 0.22 in5.6 mm 0.00 in0.0 mm 0.40 in10.2 mm
02:09 PM 56.9°F13.8°C 55.5°F13.1°C 95% 4.1 mph E6.6 kmh E 6.0 mph9.7 kmh 29.72 in1006.4 mb 0.22 in5.6 mm 0.00 in0.0 mm 0.40 in10.2 mm
02:10 PM 57.0°F13.9°C 55.6°F13.1°C 95% 4.6 mph E7.4 kmh E 6.0 mph9.7 kmh 29.72 in1006.4 mb 0.22 in5.6 mm 0.00 in0.0 mm 0.40 in10.2 mm
02:11 PM 57.0°F13.9°C 55.6°F13.1°C 95% 5.0 mph E8.0 kmh E 7.0 mph11.3 kmh 29.72 in1006.4 mb 0.22 in5.6 mm 0.00 in0.0 mm 0.40 in10.2 mm
02:12 PM 57.0°F13.9°C 55.6°F13.1°C 95% 4.7 mph ESE7.6 kmh ESE 7.0 mph11.3 kmh 29.72 in1006.4 mb 0.22 in5.6 mm 0.00 in0.0 mm 0.40 in10.2 mm
02:13 PM 57.0°F13.9°C 55.3°F12.9°C 94% 6.5 mph ESE10.5 kmh ESE 7.0 mph11.3 kmh 29.72 in1006.4 mb 0.22 in5.6 mm 0.00 in0.0 mm 0.41 in10.4 mm
02:14 PM 56.9°F13.8°C 55.5°F13.1°C 95% 6.6 mph E10.6 kmh E 9.0 mph14.5 kmh 29.72 in1006.4 mb 0.22 in5.6 mm 0.00 in0.0 mm 0.41 in10.4 mm
02:15 PM 56.9°F13.8°C 55.2°F12.9°C 94% 7.4 mph E11.9 kmh E 9.0 mph14.5 kmh 29.72 in1006.4 mb 0.22 in5.6 mm 0.00 in0.0 mm 0.41 in10.4 mm
02:16 PM 56.9°F13.8°C 55.2°F12.9°C 94% 7.0 mph E11.3 kmh E 9.0 mph14.5 kmh 29.72 in1006.4 mb 0.22 in5.6 mm 0.00 in0.0 mm 0.41 in10.4 mm
02:17 PM 56.8°F13.8°C 55.1°F12.8°C 94% 6.2 mph E10.0 kmh E 9.0 mph14.5 kmh 29.72 in1006.4 mb 0.22 in5.6 mm 0.00 in0.0 mm 0.41 in10.4 mm
02:18 PM 56.7°F13.7°C 55.0°F12.8°C 94% 5.8 mph E9.3 kmh E 8.0 mph12.9 kmh 29.72 in1006.4 mb 0.22 in5.6 mm 0.00 in0.0 mm 0.41 in10.4 mm
02:19 PM 56.8°F13.8°C 55.1°F12.8°C 94% 4.0 mph E6.4 kmh E 8.0 mph12.9 kmh 29.72 in1006.4 mb 0.21 in5.3 mm 0.00 in0.0 mm 0.41 in10.4 mm
02:20 PM 56.8°F13.8°C 55.1°F12.8°C 94% 4.0 mph E6.4 kmh E 7.0 mph11.3 kmh 29.72 in1006.4 mb 0.21 in5.3 mm 0.00 in0.0 mm 0.41 in10.4 mm
02:21 PM 56.8°F13.8°C 55.1°F12.8°C 94% 3.7 mph E6.0 kmh E 7.0 mph11.3 kmh 29.72 in1006.4 mb 0.21 in5.3 mm 0.00 in0.0 mm 0.41 in10.4 mm
02:22 PM 56.8°F13.8°C 55.1°F12.8°C 94% 3.7 mph E6.0 kmh E 6.0 mph9.7 kmh 29.72 in1006.4 mb 0.22 in5.6 mm 0.60 in15.2 mm 0.42 in10.7 mm
02:23 PM 56.8°F13.8°C 55.1°F12.8°C 94% 6.5 mph E10.5 kmh E 9.0 mph14.5 kmh 29.72 in1006.4 mb 0.22 in5.6 mm 0.00 in0.0 mm 0.42 in10.7 mm
02:24 PM 56.8°F13.8°C 55.1°F12.8°C 94% 6.0 mph E9.7 kmh E 9.0 mph14.5 kmh 29.72 in1006.4 mb 0.21 in5.3 mm 0.00 in0.0 mm 0.42 in10.7 mm
02:25 PM 56.8°F13.8°C 55.1°F12.8°C 94% 5.7 mph ENE9.2 kmh ENE 8.0 mph12.9 kmh 29.72 in1006.4 mb 0.21 in5.3 mm 0.00 in0.0 mm 0.42 in10.7 mm
02:26 PM 56.9°F13.8°C 55.5°F13.1°C 95% 7.9 mph ENE12.7 kmh ENE 10.0 mph16.1 kmh 29.72 in1006.4 mb 0.20 in5.1 mm 0.00 in0.0 mm 0.42 in10.7 mm
02:27 PM 56.9°F13.8°C 55.2°F12.9°C 94% 7.8 mph ENE12.6 kmh ENE 10.0 mph16.1 kmh 29.72 in1006.4 mb 0.20 in5.1 mm 0.00 in0.0 mm 0.42 in10.7 mm
02:28 PM 56.9°F13.8°C 55.2°F12.9°C 94% 7.7 mph E12.4 kmh E 9.0 mph14.5 kmh 29.72 in1006.4 mb 0.20 in5.1 mm 0.00 in0.0 mm 0.42 in10.7 mm
02:29 PM 56.9°F13.8°C 55.2°F12.9°C 94% 6.5 mph ENE10.5 kmh ENE 9.0 mph14.5 kmh 29.71 in1006.1 mb 0.18 in4.6 mm 0.00 in0.0 mm 0.42 in10.7 mm
02:30 PM 56.9°F13.8°C 55.2°F12.9°C 94% 5.6 mph ENE9.0 kmh ENE 9.0 mph14.5 kmh 29.72 in1006.4 mb 0.17 in4.3 mm 0.00 in0.0 mm 0.42 in10.7 mm
02:31 PM 56.9°F13.8°C 55.2°F12.9°C 94% 4.0 mph NE6.4 kmh NE 6.0 mph9.7 kmh 29.72 in1006.4 mb 0.17 in4.3 mm 0.00 in0.0 mm 0.42 in10.7 mm
02:32 PM 56.9°F13.8°C 55.5°F13.1°C 95% 2.9 mph NE4.7 kmh NE 5.0 mph8.0 kmh 29.72 in1006.4 mb 0.15 in3.8 mm 0.00 in0.0 mm 0.42 in10.7 mm
02:33 PM 57.0°F13.9°C 55.6°F13.1°C 95% 2.9 mph NE4.7 kmh NE 4.0 mph6.4 kmh 29.72 in1006.4 mb 0.13 in3.3 mm 0.00 in0.0 mm 0.42 in10.7 mm
02:34 PM 57.0°F13.9°C 55.6°F13.1°C 95% 1.1 mph NNE1.8 kmh NNE 4.0 mph6.4 kmh 29.72 in1006.4 mb 0.13 in3.3 mm 0.00 in0.0 mm 0.42 in10.7 mm
02:35 PM 57.0°F13.9°C 55.6°F13.1°C 95% 1.1 mph NNE1.8 kmh NNE 3.0 mph4.8 kmh 29.72 in1006.4 mb 0.11 in2.8 mm 0.00 in0.0 mm 0.42 in10.7 mm
02:36 PM 57.0°F13.9°C 55.6°F13.1°C 95% 1.2 mph NNE1.9 kmh NNE 2.0 mph3.2 kmh 29.72 in1006.4 mb 0.09 in2.3 mm 0.00 in0.0 mm 0.42 in10.7 mm
02:37 PM 57.0°F13.9°C 55.6°F13.1°C 95% 1.9 mph NNE3.1 kmh NNE 2.0 mph3.2 kmh 29.72 in1006.4 mb 0.09 in2.3 mm 0.00 in0.0 mm 0.42 in10.7 mm
02:38 PM 57.1°F13.9°C 55.7°F13.2°C 95% 2.3 mph NNE3.7 kmh NNE 3.0 mph4.8 kmh 29.72 in1006.4 mb 0.08 in2.0 mm 0.00 in0.0 mm 0.43 in10.9 mm
02:39 PM 57.0°F13.9°C 55.6°F13.1°C 95% 1.4 mph NNE2.3 kmh NNE 3.0 mph4.8 kmh 29.72 in1006.4 mb 0.08 in2.0 mm 0.00 in0.0 mm 0.43 in10.9 mm
02:40 PM 57.1°F13.9°C 55.7°F13.2°C 95% 2.0 mph NNE3.2 kmh NNE 3.0 mph4.8 kmh 29.72 in1006.4 mb 0.07 in1.8 mm 0.00 in0.0 mm 0.43 in10.9 mm
02:41 PM 57.1°F13.9°C 55.7°F13.2°C 95% 1.7 mph NNE2.7 kmh NNE 3.0 mph4.8 kmh 29.72 in1006.4 mb 0.06 in1.5 mm 0.00 in0.0 mm 0.43 in10.9 mm
02:42 PM 57.1°F13.9°C 55.7°F13.2°C 95% 1.8 mph NNE2.9 kmh NNE 3.0 mph4.8 kmh 29.72 in1006.4 mb 0.06 in1.5 mm 0.00 in0.0 mm 0.43 in10.9 mm
02:43 PM 57.1°F13.9°C 55.7°F13.2°C 95% 2.3 mph NNW3.7 kmh NNW 3.0 mph4.8 kmh 29.72 in1006.4 mb 0.05 in1.3 mm 0.00 in0.0 mm 0.43 in10.9 mm
02:44 PM 57.1°F13.9°C 55.7°F13.2°C 95% 4.1 mph NNE6.6 kmh NNE 6.0 mph9.7 kmh 29.72 in1006.4 mb 0.05 in1.3 mm 0.00 in0.0 mm 0.43 in10.9 mm
02:45 PM 57.2°F14.0°C 55.8°F13.2°C 95% 4.8 mph NE7.7 kmh NE 6.0 mph9.7 kmh 29.72 in1006.4 mb 0.05 in1.3 mm 0.00 in0.0 mm 0.43 in10.9 mm
02:46 PM 57.2°F14.0°C 55.8°F13.2°C 95% 3.7 mph NNE6.0 kmh NNE 6.0 mph9.7 kmh 29.72 in1006.4 mb 0.05 in1.3 mm 0.00 in0.0 mm 0.43 in10.9 mm
02:47 PM 57.2°F14.0°C 55.8°F13.2°C 95% 4.7 mph N7.6 kmh N 6.0 mph9.7 kmh 29.72 in1006.4 mb 0.05 in1.3 mm 0.00 in0.0 mm 0.43 in10.9 mm
02:48 PM 57.1°F13.9°C 55.7°F13.2°C 95% 2.4 mph N3.9 kmh N 6.0 mph9.7 kmh 29.72 in1006.4 mb 0.05 in1.3 mm 0.00 in0.0 mm 0.43 in10.9 mm
02:49 PM 57.2°F14.0°C 55.5°F13.1°C 94% 4.1 mph NW6.6 kmh NW 8.0 mph12.9 kmh 29.72 in1006.4 mb 0.05 in1.3 mm 0.00 in0.0 mm 0.43 in10.9 mm
02:50 PM 57.2°F14.0°C 55.5°F13.1°C 94% 2.7 mph NW4.3 kmh NW 8.0 mph12.9 kmh 29.72 in1006.4 mb 0.05 in1.3 mm 0.00 in0.0 mm 0.43 in10.9 mm
02:51 PM 57.2°F14.0°C 55.5°F13.1°C 94% 3.7 mph NNW6.0 kmh NNW 4.0 mph6.4 kmh 29.72 in1006.4 mb 0.05 in1.3 mm 0.00 in0.0 mm 0.43 in10.9 mm
02:52 PM 57.2°F14.0°C 55.5°F13.1°C 94% 2.2 mph NW3.5 kmh NW 4.0 mph6.4 kmh 29.72 in1006.4 mb 0.04 in1.0 mm 0.00 in0.0 mm 0.43 in10.9 mm
02:53 PM 57.3°F14.1°C 55.6°F13.1°C 94% 5.4 mph N8.7 kmh N 8.0 mph12.9 kmh 29.72 in1006.4 mb 0.04 in1.0 mm 0.00 in0.0 mm 0.43 in10.9 mm
02:54 PM 57.4°F14.1°C 55.7°F13.2°C 94% 6.1 mph NNE9.8 kmh NNE 8.0 mph12.9 kmh 29.72 in1006.4 mb 0.04 in1.0 mm 0.00 in0.0 mm 0.43 in10.9 mm
02:55 PM 57.4°F14.1°C 55.7°F13.2°C 94% 7.3 mph N11.7 kmh N 9.0 mph14.5 kmh 29.72 in1006.4 mb 0.04 in1.0 mm 0.00 in0.0 mm 0.43 in10.9 mm
02:56 PM 57.4°F14.1°C 55.7°F13.2°C 94% 7.9 mph NNW12.7 kmh NNW 10.0 mph16.1 kmh 29.72 in1006.4 mb 0.04 in1.0 mm 0.00 in0.0 mm 0.43 in10.9 mm
02:57 PM 57.5°F14.2°C 55.8°F13.2°C 94% 3.6 mph N5.8 kmh N 9.0 mph14.5 kmh 29.72 in1006.4 mb 0.04 in1.0 mm 0.00 in0.0 mm 0.43 in10.9 mm
02:58 PM 57.5°F14.2°C 55.8°F13.2°C 94% 5.3 mph NNE8.5 kmh NNE 9.0 mph14.5 kmh 29.72 in1006.4 mb 0.04 in1.0 mm 0.00 in0.0 mm 0.43 in10.9 mm
02:59 PM 57.5°F14.2°C 55.8°F13.2°C 94% 5.5 mph NNE8.9 kmh NNE 9.0 mph14.5 kmh 29.72 in1006.4 mb 0.04 in1.0 mm 0.00 in0.0 mm 0.43 in10.9 mm
03:00 PM 57.5°F14.2°C 55.8°F13.2°C 94% 5.3 mph NNE8.5 kmh NNE 7.0 mph11.3 kmh 29.72 in1006.4 mb 0.04 in1.0 mm 0.00 in0.0 mm 0.43 in10.9 mm
03:01 PM 57.6°F14.2°C 55.9°F13.3°C 94% 4.2 mph NNE6.8 kmh NNE 7.0 mph11.3 kmh 29.72 in1006.4 mb 0.03 in0.8 mm 0.00 in0.0 mm 0.43 in10.9 mm
03:02 PM 57.6°F14.2°C 55.9°F13.3°C 94% 3.4 mph NNE5.5 kmh NNE 5.0 mph8.0 kmh 29.72 in1006.4 mb 0.03 in0.8 mm 0.00 in0.0 mm 0.43 in10.9 mm
03:03 PM 57.6°F14.2°C 55.9°F13.3°C 94% 2.7 mph N4.3 kmh N 5.0 mph8.0 kmh 29.72 in1006.4 mb 0.03 in0.8 mm 0.00 in0.0 mm 0.43 in10.9 mm
03:04 PM 57.6°F14.2°C 55.9°F13.3°C 94% 4.8 mph N7.7 kmh N 8.0 mph12.9 kmh 29.71 in1006.1 mb 0.03 in0.8 mm 0.00 in0.0 mm 0.43 in10.9 mm
03:05 PM 57.6°F14.2°C 55.9°F13.3°C 94% 3.8 mph N6.1 kmh N 8.0 mph12.9 kmh 29.71 in1006.1 mb 0.03 in0.8 mm 0.00 in0.0 mm 0.43 in10.9 mm
03:06 PM 57.6°F14.2°C 55.9°F13.3°C 94% 3.4 mph NE5.5 kmh NE 6.0 mph9.7 kmh 29.72 in1006.4 mb 0.02 in0.5 mm 0.00 in0.0 mm 0.43 in10.9 mm
03:07 PM 57.7°F14.3°C 56.0°F13.3°C 94% 2.8 mph NE4.5 kmh NE 5.0 mph8.0 kmh 29.71 in1006.1 mb 0.02 in0.5 mm 0.00 in0.0 mm 0.43 in10.9 mm
03:08 PM 57.6°F14.2°C 55.9°F13.3°C 94% 3.5 mph N5.6 kmh N 6.0 mph9.7 kmh 29.71 in1006.1 mb 0.02 in0.5 mm 0.00 in0.0 mm 0.43 in10.9 mm
03:09 PM 57.6°F14.2°C 55.6°F13.1°C 93% 4.3 mph NNW6.9 kmh NNW 6.0 mph9.7 kmh 29.71 in1006.1 mb 0.02 in0.5 mm 0.00 in0.0 mm 0.43 in10.9 mm
03:10 PM 57.7°F14.3°C 56.0°F13.3°C 94% 3.3 mph NNW5.3 kmh NNW 6.0 mph9.7 kmh 29.71 in1006.1 mb 0.02 in0.5 mm 0.00 in0.0 mm 0.43 in10.9 mm
03:11 PM 57.7°F14.3°C 56.0°F13.3°C 94% 2.8 mph NW4.5 kmh NW 4.0 mph6.4 kmh 29.71 in1006.1 mb 0.02 in0.5 mm 0.00 in0.0 mm 0.43 in10.9 mm
03:12 PM 57.8°F14.3°C 55.8°F13.2°C 93% 1.5 mph NW2.4 kmh NW 4.0 mph6.4 kmh 29.71 in1006.1 mb 0.02 in0.5 mm 0.00 in0.0 mm 0.43 in10.9 mm
03:13 PM 57.8°F14.3°C 55.8°F13.2°C 93% 1.5 mph WNW2.4 kmh WNW 3.0 mph4.8 kmh 29.71 in1006.1 mb 0.02 in0.5 mm 0.00 in0.0 mm 0.43 in10.9 mm
03:14 PM 57.8°F14.3°C 55.8°F13.2°C 93% 2.6 mph WSW4.2 kmh WSW 3.0 mph4.8 kmh 29.71 in1006.1 mb 0.02 in0.5 mm 0.00 in0.0 mm 0.43 in10.9 mm
03:15 PM 57.8°F14.3°C 55.8°F13.2°C 93% 1.7 mph WSW2.7 kmh WSW 3.0 mph4.8 kmh 29.71 in1006.1 mb 0.02 in0.5 mm 0.00 in0.0 mm 0.43 in10.9 mm
03:16 PM 57.8°F14.3°C 55.8°F13.2°C 93% 3.5 mph WNW5.6 kmh WNW 4.0 mph6.4 kmh 29.71 in1006.1 mb 0.02 in0.5 mm 0.00 in0.0 mm 0.43 in10.9 mm
03:17 PM 57.9°F14.4°C 55.9°F13.3°C 93% 3.2 mph WNW5.1 kmh WNW 4.0 mph6.4 kmh 29.72 in1006.4 mb 0.02 in0.5 mm 0.00 in0.0 mm 0.43 in10.9 mm
03:18 PM 57.9°F14.4°C 55.9°F13.3°C 93% 3.8 mph WNW6.1 kmh WNW 5.0 mph8.0 kmh 29.71 in1006.1 mb 0.02 in0.5 mm 0.00 in0.0 mm 0.43 in10.9 mm
03:19 PM 57.9°F14.4°C 55.9°F13.3°C 93% 3.7 mph W6.0 kmh W 6.0 mph9.7 kmh 29.71 in1006.1 mb 0.02 in0.5 mm 0.00 in0.0 mm 0.43 in10.9 mm
03:20 PM 57.9°F14.4°C 55.9°F13.3°C 93% 3.4 mph W5.5 kmh W 6.0 mph9.7 kmh 29.71 in1006.1 mb 0.02 in0.5 mm 0.00 in0.0 mm 0.43 in10.9 mm
03:21 PM 58.0°F14.4°C 56.0°F13.3°C 93% 3.9 mph W6.3 kmh W 6.0 mph9.7 kmh 29.72 in1006.4 mb 0.02 in0.5 mm 0.00 in0.0 mm 0.43 in10.9 mm
03:22 PM 57.9°F14.4°C 55.9°F13.3°C 93% 5.7 mph W9.2 kmh W 10.0 mph16.1 kmh 29.72 in1006.4 mb 0.01 in0.3 mm 0.00 in0.0 mm 0.43 in10.9 mm
03:23 PM 57.9°F14.4°C 55.9°F13.3°C 93% 9.0 mph W14.5 kmh W 13.0 mph20.9 kmh 29.71 in1006.1 mb 0.01 in0.3 mm 0.00 in0.0 mm 0.43 in10.9 mm
03:24 PM 58.0°F14.4°C 55.7°F13.2°C 92% 12.3 mph WNW19.8 kmh WNW 16.0 mph25.7 kmh 29.71 in1006.1 mb 0.01 in0.3 mm 0.00 in0.0 mm 0.43 in10.9 mm
03:25 PM 58.0°F14.4°C 56.0°F13.3°C 93% 10.8 mph NW17.4 kmh NW 16.0 mph25.7 kmh 29.72 in1006.4 mb 0.02 in0.5 mm 0.60 in15.2 mm 0.43 in10.9 mm
03:26 PM 58.0°F14.4°C 56.0°F13.3°C 93% 10.1 mph WNW16.3 kmh WNW 12.0 mph19.3 kmh 29.71 in1006.1 mb 0.02 in0.5 mm 0.00 in0.0 mm 0.43 in10.9 mm
03:27 PM 58.0°F14.4°C 55.7°F13.2°C 92% 10.4 mph WNW16.7 kmh WNW 13.0 mph20.9 kmh 29.72 in1006.4 mb 0.02 in0.5 mm 0.00 in0.0 mm 0.43 in10.9 mm
03:28 PM 58.0°F14.4°C 55.7°F13.2°C 92% 10.3 mph W16.6 kmh W 13.0 mph20.9 kmh 29.71 in1006.1 mb 0.02 in0.5 mm 0.00 in0.0 mm 0.43 in10.9 mm
03:29 PM 58.1°F14.5°C 55.8°F13.2°C 92% 10.9 mph W17.5 kmh W 13.0 mph20.9 kmh 29.71 in1006.1 mb 0.02 in0.5 mm 0.00 in0.0 mm 0.43 in10.9 mm
03:30 PM 58.1°F14.5°C 55.8°F13.2°C 92% 10.1 mph W16.3 kmh W 13.0 mph20.9 kmh 29.71 in1006.1 mb 0.02 in0.5 mm 0.00 in0.0 mm 0.43 in10.9 mm
03:31 PM 58.2°F14.6°C 55.9°F13.3°C 92% 10.5 mph W16.9 kmh W 12.0 mph19.3 kmh 29.71 in1006.1 mb 0.02 in0.5 mm 0.00 in0.0 mm 0.43 in10.9 mm
03:32 PM 58.1°F14.5°C 55.5°F13.1°C 91% 11.0 mph W17.7 kmh W 14.0 mph22.5 kmh 29.71 in1006.1 mb 0.02 in0.5 mm 0.00 in0.0 mm 0.43 in10.9 mm
03:33 PM 58.2°F14.6°C 55.6°F13.1°C 91% 10.1 mph WSW16.3 kmh WSW 14.0 mph22.5 kmh 29.71 in1006.1 mb 0.02 in0.5 mm 0.00 in0.0 mm 0.43 in10.9 mm
03:34 PM 58.2°F14.6°C 55.6°F13.1°C 91% 10.5 mph W16.9 kmh W 12.0 mph19.3 kmh 29.71 in1006.1 mb 0.02 in0.5 mm 0.00 in0.0 mm 0.43 in10.9 mm
03:35 PM 58.2°F14.6°C 55.3°F12.9°C 90% 10.4 mph WSW16.7 kmh WSW 13.0 mph20.9 kmh 29.71 in1006.1 mb 0.02 in0.5 mm 0.00 in0.0 mm 0.43 in10.9 mm
03:36 PM 58.3°F14.6°C 55.4°F13.0°C 90% 10.4 mph WSW16.7 kmh WSW 13.0 mph20.9 kmh 29.71 in1006.1 mb 0.02 in0.5 mm 0.00 in0.0 mm 0.43 in10.9 mm
03:37 PM 58.4°F14.7°C 55.5°F13.1°C 90% 9.7 mph WSW15.6 kmh WSW 12.0 mph19.3 kmh 29.71 in1006.1 mb 0.02 in0.5 mm 0.00 in0.0 mm 0.43 in10.9 mm
03:38 PM 58.3°F14.6°C 55.4°F13.0°C 90% 8.8 mph W14.2 kmh W 11.0 mph17.7 kmh 29.71 in1006.1 mb 0.01 in0.3 mm 0.00 in0.0 mm 0.43 in10.9 mm
03:39 PM 58.4°F14.7°C 55.5°F13.1°C 90% 8.9 mph W14.3 kmh W 11.0 mph17.7 kmh 29.71 in1006.1 mb 0.01 in0.3 mm 0.00 in0.0 mm 0.43 in10.9 mm
03:40 PM 58.4°F14.7°C 55.8°F13.2°C 91% 9.0 mph WSW14.5 kmh WSW 11.0 mph17.7 kmh 29.71 in1006.1 mb 0.01 in0.3 mm 0.00 in0.0 mm 0.43 in10.9 mm
03:41 PM 58.4°F14.7°C 55.5°F13.1°C 90% 8.1 mph W13.0 kmh W 11.0 mph17.7 kmh 29.71 in1006.1 mb 0.01 in0.3 mm 0.00 in0.0 mm 0.43 in10.9 mm
03:42 PM 58.4°F14.7°C 55.5°F13.1°C 90% 8.4 mph W13.5 kmh W 11.0 mph17.7 kmh 29.71 in1006.1 mb 0.01 in0.3 mm 0.00 in0.0 mm 0.43 in10.9 mm
03:43 PM 58.4°F14.7°C 55.5°F13.1°C 90% 11.0 mph W17.7 kmh W 13.0 mph20.9 kmh 29.71 in1006.1 mb 0.01 in0.3 mm 0.00 in0.0 mm 0.43 in10.9 mm
03:44 PM 58.5°F14.7°C 55.6°F13.1°C 90% 10.5 mph W16.9 kmh W 13.0 mph20.9 kmh 29.71 in1006.1 mb 0.01 in0.3 mm 0.00 in0.0 mm 0.43 in10.9 mm
03:45 PM 58.5°F14.7°C 55.6°F13.1°C 90% 9.3 mph W15.0 kmh W 12.0 mph19.3 kmh 29.71 in1006.1 mb 0.01 in0.3 mm 0.00 in0.0 mm 0.43 in10.9 mm
03:46 PM 58.6°F14.8°C 55.7°F13.2°C 90% 7.8 mph W12.6 kmh W 11.0 mph17.7 kmh 29.71 in1006.1 mb 0.01 in0.3 mm 0.00 in0.0 mm 0.43 in10.9 mm
03:47 PM 58.6°F14.8°C 56.0°F13.3°C 91% 8.8 mph W14.2 kmh W 11.0 mph17.7 kmh 29.71 in1006.1 mb 0.01 in0.3 mm 0.00 in0.0 mm 0.43 in10.9 mm
03:48 PM 58.5°F14.7°C 55.6°F13.1°C 90% 8.2 mph W13.2 kmh W 11.0 mph17.7 kmh 29.71 in1006.1 mb 0.01 in0.3 mm 0.00 in0.0 mm 0.43 in10.9 mm
03:49 PM 58.6°F14.8°C 55.7°F13.2°C 90% 7.2 mph W11.6 kmh W 9.0 mph14.5 kmh 29.72 in1006.4 mb 0.01 in0.3 mm 0.00 in0.0 mm 0.43 in10.9 mm
03:50 PM 58.6°F14.8°C 56.0°F13.3°C 91% 6.8 mph W10.9 kmh W 9.0 mph14.5 kmh 29.71 in1006.1 mb 0.01 in0.3 mm 0.00 in0.0 mm 0.43 in10.9 mm
03:51 PM 58.5°F14.7°C 55.9°F13.3°C 91% 7.0 mph W11.3 kmh W 9.0 mph14.5 kmh 29.71 in1006.1 mb 0.01 in0.3 mm 0.00 in0.0 mm 0.43 in10.9 mm
03:52 PM 58.5°F14.7°C 55.6°F13.1°C 90% 8.1 mph W13.0 kmh W 9.0 mph14.5 kmh 29.71 in1006.1 mb 0.01 in0.3 mm 0.00 in0.0 mm 0.43 in10.9 mm
03:53 PM 58.5°F14.7°C 55.6°F13.1°C 90% 5.8 mph W9.3 kmh W 9.0 mph14.5 kmh 29.71 in1006.1 mb 0.01 in0.3 mm 0.00 in0.0 mm 0.43 in10.9 mm
03:54 PM 58.5°F14.7°C 55.6°F13.1°C 90% 3.8 mph W6.1 kmh W 7.0 mph11.3 kmh 29.71 in1006.1 mb 0.01 in0.3 mm 0.00 in0.0 mm 0.43 in10.9 mm
03:55 PM 58.5°F14.7°C 55.6°F13.1°C 90% 5.6 mph W9.0 kmh W 7.0 mph11.3 kmh 29.71 in1006.1 mb 0.01 in0.3 mm 0.00 in0.0 mm 0.43 in10.9 mm
03:56 PM 58.5°F14.7°C 55.9°F13.3°C 91% 4.3 mph W6.9 kmh W 7.0 mph11.3 kmh 29.71 in1006.1 mb 0.01 in0.3 mm 0.00 in0.0 mm 0.43 in10.9 mm
03:57 PM 58.5°F14.7°C 55.9°F13.3°C 91% 6.4 mph WSW10.3 kmh WSW 8.0 mph12.9 kmh 29.71 in1006.1 mb 0.01 in0.3 mm 0.00 in0.0 mm 0.43 in10.9 mm
03:58 PM 58.5°F14.7°C 55.6°F13.1°C 90% 5.8 mph W9.3 kmh W 8.0 mph12.9 kmh 29.71 in1006.1 mb 0.01 in0.3 mm 0.00 in0.0 mm 0.43 in10.9 mm
03:59 PM 58.5°F14.7°C 55.6°F13.1°C 90% 4.7 mph W7.6 kmh W 7.0 mph11.3 kmh 29.71 in1006.1 mb 0.01 in0.3 mm 0.00 in0.0 mm 0.43 in10.9 mm
04:00 PM 58.5°F14.7°C 55.6°F13.1°C 90% 4.6 mph WSW7.4 kmh WSW 7.0 mph11.3 kmh 29.71 in1006.1 mb 0.01 in0.3 mm 0.00 in0.0 mm 0.43 in10.9 mm
04:01 PM 58.5°F14.7°C 55.6°F13.1°C 90% 5.4 mph WSW8.7 kmh WSW 7.0 mph11.3 kmh 29.71 in1006.1 mb 0.01 in0.3 mm 0.00 in0.0 mm 0.43 in10.9 mm
04:02 PM 58.6°F14.8°C 56.0°F13.3°C 91% 5.2 mph W8.4 kmh W 7.0 mph11.3 kmh 29.71 in1006.1 mb 0.01 in0.3 mm 0.00 in0.0 mm 0.43 in10.9 mm
04:03 PM 58.6°F14.8°C 56.0°F13.3°C 91% 4.6 mph W7.4 kmh W 7.0 mph11.3 kmh 29.71 in1006.1 mb 0.01 in0.3 mm 0.00 in0.0 mm 0.43 in10.9 mm
04:04 PM 58.6°F14.8°C 56.0°F13.3°C 91% 5.0 mph WSW8.0 kmh WSW 8.0 mph12.9 kmh 29.71 in1006.1 mb 0.01 in0.3 mm 0.00 in0.0 mm 0.43 in10.9 mm
04:05 PM 58.6°F14.8°C 55.7°F13.2°C 90% 6.7 mph WSW10.8 kmh WSW 8.0 mph12.9 kmh 29.71 in1006.1 mb 0.01 in0.3 mm 0.00 in0.0 mm 0.43 in10.9 mm
04:06 PM 58.6°F14.8°C 55.7°F13.2°C 90% 8.0 mph WSW12.9 kmh WSW 9.0 mph14.5 kmh 29.71 in1006.1 mb 0.01 in0.3 mm 0.00 in0.0 mm 0.43 in10.9 mm
04:07 PM 58.6°F14.8°C 55.7°F13.2°C 90% 6.6 mph WSW10.6 kmh WSW 9.0 mph14.5 kmh 29.71 in1006.1 mb 0.01 in0.3 mm 0.00 in0.0 mm 0.43 in10.9 mm
04:08 PM 58.7°F14.8°C 55.5°F13.1°C 89% 7.3 mph W11.7 kmh W 9.0 mph14.5 kmh 29.71 in1006.1 mb 0.01 in0.3 mm 0.00 in0.0 mm 0.43 in10.9 mm
04:09 PM 58.7°F14.8°C 55.5°F13.1°C 89% 6.5 mph WSW10.5 kmh WSW 9.0 mph14.5 kmh 29.71 in1006.1 mb 0.01 in0.3 mm 0.00 in0.0 mm 0.43 in10.9 mm
04:10 PM 58.7°F14.8°C 55.5°F13.1°C 89% 9.9 mph WSW15.9 kmh WSW 11.0 mph17.7 kmh 29.71 in1006.1 mb 0.01 in0.3 mm 0.00 in0.0 mm 0.43 in10.9 mm
04:11 PM 58.8°F14.9°C 55.6°F13.1°C 89% 7.5 mph W12.1 kmh W 11.0 mph17.7 kmh 29.71 in1006.1 mb 0.01 in0.3 mm 0.00 in0.0 mm 0.43 in10.9 mm
04:12 PM 58.9°F14.9°C 55.7°F13.2°C 89% 8.5 mph WSW13.7 kmh WSW 10.0 mph16.1 kmh 29.71 in1006.1 mb 0.01 in0.3 mm 0.00 in0.0 mm 0.43 in10.9 mm
04:13 PM 58.9°F14.9°C 55.4°F13.0°C 88% 8.8 mph W14.2 kmh W 10.0 mph16.1 kmh 29.71 in1006.1 mb 0.01 in0.3 mm 0.00 in0.0 mm 0.43 in10.9 mm
04:14 PM 58.9°F14.9°C 55.4°F13.0°C 88% 8.0 mph W12.9 kmh W 10.0 mph16.1 kmh 29.71 in1006.1 mb 0.01 in0.3 mm 0.00 in0.0 mm 0.43 in10.9 mm
04:15 PM 58.9°F14.9°C 55.4°F13.0°C 88% 6.9 mph WSW11.1 kmh WSW 9.0 mph14.5 kmh 29.71 in1006.1 mb 0.01 in0.3 mm 0.00 in0.0 mm 0.43 in10.9 mm
04:16 PM 58.9°F14.9°C 55.7°F13.2°C 89% 6.9 mph W11.1 kmh W 9.0 mph14.5 kmh 29.71 in1006.1 mb 0.01 in0.3 mm 0.00 in0.0 mm 0.43 in10.9 mm
04:17 PM 58.9°F14.9°C 55.4°F13.0°C 88% 6.6 mph W10.6 kmh W 9.0 mph14.5 kmh 29.71 in1006.1 mb 0.01 in0.3 mm 0.00 in0.0 mm 0.43 in10.9 mm
04:18 PM 58.9°F14.9°C 55.4°F13.0°C 88% 8.2 mph WSW13.2 kmh WSW 10.0 mph16.1 kmh 29.71 in1006.1 mb 0.01 in0.3 mm 0.00 in0.0 mm 0.43 in10.9 mm
04:19 PM 58.9°F14.9°C 55.0°F12.8°C 87% 8.2 mph WNW13.2 kmh WNW 12.0 mph19.3 kmh 29.71 in1006.1 mb 0.01 in0.3 mm 0.00 in0.0 mm 0.43 in10.9 mm
04:20 PM 58.9°F14.9°C 55.0°F12.8°C 87% 8.4 mph W13.5 kmh W 12.0 mph19.3 kmh 29.71 in1006.1 mb 0.01 in0.3 mm 0.00 in0.0 mm 0.43 in10.9 mm
04:21 PM 58.9°F14.9°C 55.0°F12.8°C 87% 8.4 mph WSW13.5 kmh WSW 11.0 mph17.7 kmh 29.71 in1006.1 mb 0.01 in0.3 mm 0.00 in0.0 mm 0.43 in10.9 mm
04:22 PM 58.9°F14.9°C 55.0°F12.8°C 87% 7.5 mph W12.1 kmh W 11.0 mph17.7 kmh 29.71 in1006.1 mb 0.01 in0.3 mm 0.00 in0.0 mm 0.43 in10.9 mm
04:23 PM 58.9°F14.9°C 55.0°F12.8°C 87% 9.7 mph W15.6 kmh W 12.0 mph19.3 kmh 29.71 in1006.1 mb 0.01 in0.3 mm 0.00 in0.0 mm 0.43 in10.9 mm
04:24 PM 58.8°F14.9°C 54.9°F12.7°C 87% 8.7 mph W14.0 kmh W 12.0 mph19.3 kmh 29.71 in1006.1 mb 0.01 in0.3 mm 0.00 in0.0 mm 0.43 in10.9 mm
04:25 PM 58.8°F14.9°C 54.9°F12.7°C 87% 8.7 mph W14.0 kmh W 11.0 mph17.7 kmh 29.71 in1006.1 mb 0.00 in0.0 mm 0.00 in0.0 mm 0.43 in10.9 mm
04:26 PM 58.8°F14.9°C 54.9°F12.7°C 87% 8.3 mph W13.4 kmh W 11.0 mph17.7 kmh 29.71 in1006.1 mb 0.00 in0.0 mm 0.00 in0.0 mm 0.43 in10.9 mm
04:27 PM 58.8°F14.9°C 54.9°F12.7°C 87% 7.7 mph W12.4 kmh W 10.0 mph16.1 kmh 29.71 in1006.1 mb 0.00 in0.0 mm 0.00 in0.0 mm 0.43 in10.9 mm
04:28 PM 58.7°F14.8°C 55.2°F12.9°C 88% 7.0 mph W11.3 kmh W 10.0 mph16.1 kmh 29.71 in1006.1 mb 0.00 in0.0 mm 0.00 in0.0 mm 0.43 in10.9 mm
04:29 PM 58.7°F14.8°C 54.8°F12.7°C 87% 7.0 mph W11.3 kmh W 8.0 mph12.9 kmh 29.71 in1006.1 mb 0.00 in0.0 mm 0.00 in0.0 mm 0.43 in10.9 mm
04:30 PM 58.7°F14.8°C 55.2°F12.9°C 88% 4.8 mph WSW7.7 kmh WSW 8.0 mph12.9 kmh 29.71 in1006.1 mb 0.00 in0.0 mm 0.00 in0.0 mm 0.43 in10.9 mm
04:31 PM 58.7°F14.8°C 54.8°F12.7°C 87% 7.6 mph W12.2 kmh W 9.0 mph14.5 kmh 29.71 in1006.1 mb 0.00 in0.0 mm 0.00 in0.0 mm 0.43 in10.9 mm
04:32 PM 58.7°F14.8°C 55.2°F12.9°C 88% 6.4 mph WSW10.3 kmh WSW 10.0 mph16.1 kmh 29.71 in1006.1 mb 0.00 in0.0 mm 0.00 in0.0 mm 0.43 in10.9 mm
04:33 PM 58.7°F14.8°C 54.8°F12.7°C 87% 7.0 mph W11.3 kmh W 8.0 mph12.9 kmh 29.71 in1006.1 mb 0.00 in0.0 mm 0.00 in0.0 mm 0.43 in10.9 mm
04:34 PM 58.7°F14.8°C 54.8°F12.7°C 87% 6.0 mph W9.7 kmh W 7.0 mph11.3 kmh 29.71 in1006.1 mb 0.00 in0.0 mm 0.00 in0.0 mm 0.43 in10.9 mm
04:35 PM 58.6°F14.8°C 54.7°F12.6°C 87% 5.6 mph WSW9.0 kmh WSW 6.0 mph9.7 kmh 29.71 in1006.1 mb 0.00 in0.0 mm 0.00 in0.0 mm 0.43 in10.9 mm
04:36 PM 58.6°F14.8°C 54.7°F12.6°C 87% 6.1 mph WSW9.8 kmh WSW 7.0 mph11.3 kmh 29.71 in1006.1 mb 0.00 in0.0 mm 0.00 in0.0 mm 0.43 in10.9 mm
04:37 PM 58.6°F14.8°C 54.7°F12.6°C 87% 5.6 mph WSW9.0 kmh WSW 8.0 mph12.9 kmh 29.71 in1006.1 mb 0.00 in0.0 mm 0.00 in0.0 mm 0.43 in10.9 mm
04:38 PM 58.6°F14.8°C 54.7°F12.6°C 87% 6.0 mph WSW9.7 kmh WSW 8.0 mph12.9 kmh 29.71 in1006.1 mb 0.00 in0.0 mm 0.00 in0.0 mm 0.43 in10.9 mm
04:39 PM 58.7°F14.8°C 55.2°F12.9°C 88% 6.1 mph WSW9.8 kmh WSW 8.0 mph12.9 kmh 29.71 in1006.1 mb 0.00 in0.0 mm 0.00 in0.0 mm 0.43 in10.9 mm
04:40 PM 58.6°F14.8°C 54.7°F12.6°C 87% 5.5 mph WSW8.9 kmh WSW 8.0 mph12.9 kmh 29.71 in1006.1 mb 0.00 in0.0 mm 0.00 in0.0 mm 0.43 in10.9 mm
04:41 PM 58.6°F14.8°C 55.1°F12.8°C 88% 3.7 mph WSW6.0 kmh WSW 7.0 mph11.3 kmh 29.71 in1006.1 mb 0.00 in0.0 mm 0.00 in0.0 mm 0.43 in10.9 mm
04:42 PM 58.6°F14.8°C 54.7°F12.6°C 87% 3.8 mph WSW6.1 kmh WSW 7.0 mph11.3 kmh 29.71 in1006.1 mb 0.00 in0.0 mm 0.00 in0.0 mm 0.43 in10.9 mm
04:43 PM 58.6°F14.8°C 54.7°F12.6°C 87% 5.5 mph WSW8.9 kmh WSW 7.0 mph11.3 kmh 29.71 in1006.1 mb 0.00 in0.0 mm 0.00 in0.0 mm 0.43 in10.9 mm
04:44 PM 58.6°F14.8°C 54.7°F12.6°C 87% 5.4 mph WSW8.7 kmh WSW 7.0 mph11.3 kmh 29.71 in1006.1 mb 0.00 in0.0 mm 0.00 in0.0 mm 0.43 in10.9 mm
04:45 PM 58.6°F14.8°C 54.7°F12.6°C 87% 6.0 mph WSW9.7 kmh WSW 7.0 mph11.3 kmh 29.71 in1006.1 mb 0.00 in0.0 mm 0.00 in0.0 mm 0.43 in10.9 mm
04:46 PM 58.6°F14.8°C 54.7°F12.6°C 87% 5.2 mph WSW8.4 kmh WSW 7.0 mph11.3 kmh 29.71 in1006.1 mb 0.00 in0.0 mm 0.00 in0.0 mm 0.43 in10.9 mm
04:47 PM 58.7°F14.8°C 55.2°F12.9°C 88% 4.0 mph WSW6.4 kmh WSW 7.0 mph11.3 kmh 29.71 in1006.1 mb 0.00 in0.0 mm 0.00 in0.0 mm 0.43 in10.9 mm
04:48 PM 58.7°F14.8°C 55.2°F12.9°C 88% 3.5 mph W5.6 kmh W 6.0 mph9.7 kmh 29.71 in1006.1 mb 0.00 in0.0 mm 0.00 in0.0 mm 0.43 in10.9 mm
04:49 PM 58.7°F14.8°C 55.2°F12.9°C 88% 3.0 mph WSW4.8 kmh WSW 4.0 mph6.4 kmh 29.71 in1006.1 mb 0.00 in0.0 mm 0.00 in0.0 mm 0.43 in10.9 mm
04:50 PM 58.7°F14.8°C 55.2°F12.9°C 88% 3.5 mph WSW5.6 kmh WSW 4.0 mph6.4 kmh 29.71 in1006.1 mb 0.00 in0.0 mm 0.00 in0.0 mm 0.43 in10.9 mm
04:51 PM 58.8°F14.9°C 54.9°F12.7°C 87% 5.1 mph WSW8.2 kmh WSW 7.0 mph11.3 kmh 29.71 in1006.1 mb 0.00 in0.0 mm 0.00 in0.0 mm 0.43 in10.9 mm
04:52 PM 58.7°F14.8°C 54.8°F12.7°C 87% 4.5 mph WSW7.2 kmh WSW 7.0 mph11.3 kmh 29.71 in1006.1 mb 0.00 in0.0 mm 0.00 in0.0 mm 0.43 in10.9 mm
04:53 PM 58.8°F14.9°C 54.9°F12.7°C 87% 4.1 mph WSW6.6 kmh WSW 6.0 mph9.7 kmh 29.71 in1006.1 mb 0.00 in0.0 mm 0.00 in0.0 mm 0.43 in10.9 mm
04:54 PM 58.7°F14.8°C 54.8°F12.7°C 87% 3.7 mph WSW6.0 kmh WSW 5.0 mph8.0 kmh 29.70 in1005.8 mb 0.00 in0.0 mm 0.00 in0.0 mm 0.43 in10.9 mm
04:55 PM 58.9°F14.9°C 55.0°F12.8°C 87% 4.1 mph WSW6.6 kmh WSW 7.0 mph11.3 kmh 29.71 in1006.1 mb 0.00 in0.0 mm 0.00 in0.0 mm 0.43 in10.9 mm
04:56 PM 58.9°F14.9°C 55.0°F12.8°C 87% 3.4 mph WSW5.5 kmh WSW 7.0 mph11.3 kmh 29.70 in1005.8 mb 0.00 in0.0 mm 0.00 in0.0 mm 0.43 in10.9 mm
04:57 PM 58.9°F14.9°C 55.0°F12.8°C 87% 3.6 mph WSW5.8 kmh WSW 5.0 mph8.0 kmh 29.70 in1005.8 mb 0.00 in0.0 mm 0.00 in0.0 mm 0.43 in10.9 mm
04:58 PM 58.9°F14.9°C 55.0°F12.8°C 87% 4.2 mph WSW6.8 kmh WSW 5.0 mph8.0 kmh 29.70 in1005.8 mb 0.00 in0.0 mm 0.00 in0.0 mm 0.43 in10.9 mm
04:59 PM 58.9°F14.9°C 55.0°F12.8°C 87% 3.5 mph WSW5.6 kmh WSW 5.0 mph8.0 kmh 29.70 in1005.8 mb 0.00 in0.0 mm 0.00 in0.0 mm 0.43 in10.9 mm
05:00 PM 58.9°F14.9°C 55.0°F12.8°C 87% 3.6 mph WSW5.8 kmh WSW 5.0 mph8.0 kmh 29.70 in1005.8 mb 0.00 in0.0 mm 0.00 in0.0 mm 0.43 in10.9 mm
05:01 PM 59.0°F15.0°C 55.4°F13.0°C 88% 3.4 mph WSW5.5 kmh WSW 4.0 mph6.4 kmh 29.70 in1005.8 mb 0.00 in0.0 mm 0.00 in0.0 mm 0.43 in10.9 mm
05:02 PM 59.0°F15.0°C 55.1°F12.8°C 87% 3.6 mph WSW5.8 kmh WSW 5.0 mph8.0 kmh 29.70 in1005.8 mb 0.00 in0.0 mm 0.00 in0.0 mm 0.43 in10.9 mm
05:03 PM 59.1°F15.1°C 55.2°F12.9°C 87% 4.3 mph WSW6.9 kmh WSW 7.0 mph11.3 kmh 29.70 in1005.8 mb 0.00 in0.0 mm 0.00 in0.0 mm 0.43 in10.9 mm
05:04 PM 59.2°F15.1°C 55.3°F12.9°C 87% 4.9 mph WSW7.9 kmh WSW 7.0 mph11.3 kmh 29.70 in1005.8 mb 0.00 in0.0 mm 0.00 in0.0 mm 0.43 in10.9 mm
05:05 PM 59.1°F15.1°C 55.2°F12.9°C 87% 6.3 mph WSW10.1 kmh WSW 8.0 mph12.9 kmh 29.70 in1005.8 mb 0.00 in0.0 mm 0.00 in0.0 mm 0.43 in10.9 mm
05:06 PM 59.2°F15.1°C 55.0°F12.8°C 86% 8.2 mph WSW13.2 kmh WSW 9.0 mph14.5 kmh 29.70 in1005.8 mb 0.00 in0.0 mm 0.00 in0.0 mm 0.43 in10.9 mm
05:07 PM 59.3°F15.2°C 54.8°F12.7°C 85% 8.6 mph WSW13.8 kmh WSW 10.0 mph16.1 kmh 29.70 in1005.8 mb 0.00 in0.0 mm 0.00 in0.0 mm 0.43 in10.9 mm
05:08 PM 59.3°F15.2°C 55.1°F12.8°C 86% 9.2 mph WSW14.8 kmh WSW 10.0 mph16.1 kmh 29.70 in1005.8 mb 0.00 in0.0 mm 0.00 in0.0 mm 0.43 in10.9 mm
05:09 PM 59.4°F15.2°C 54.6°F12.6°C 84% 6.2 mph WSW10.0 kmh WSW 10.0 mph16.1 kmh 29.70 in1005.8 mb 0.00 in0.0 mm 0.00 in0.0 mm 0.43 in10.9 mm
05:10 PM 59.4°F15.2°C 55.2°F12.9°C 86% 6.1 mph WSW9.8 kmh WSW 9.0 mph14.5 kmh 29.70 in1005.8 mb 0.00 in0.0 mm 0.00 in0.0 mm 0.43 in10.9 mm
05:11 PM 59.5°F15.3°C 55.3°F12.9°C 86% 6.2 mph WSW10.0 kmh WSW 8.0 mph12.9 kmh 29.70 in1005.8 mb 0.00 in0.0 mm 0.00 in0.0 mm 0.43 in10.9 mm
05:12 PM 59.5°F15.3°C 55.3°F12.9°C 86% 6.4 mph WSW10.3 kmh WSW 8.0 mph12.9 kmh 29.70 in1005.8 mb 0.00 in0.0 mm 0.00 in0.0 mm 0.43 in10.9 mm
05:13 PM 59.6°F15.3°C 55.4°F13.0°C 86% 6.3 mph WSW10.1 kmh WSW 8.0 mph12.9 kmh 29.70 in1005.8 mb 0.00 in0.0 mm 0.00 in0.0 mm 0.43 in10.9 mm
05:14 PM 59.6°F15.3°C 55.4°F13.0°C 86% 6.4 mph WSW10.3 kmh WSW 8.0 mph12.9 kmh 29.70 in1005.8 mb 0.00 in0.0 mm 0.00 in0.0 mm 0.43 in10.9 mm
05:15 PM 59.6°F15.3°C 55.1°F12.8°C 85% 7.7 mph WSW12.4 kmh WSW 9.0 mph14.5 kmh 29.70 in1005.8 mb 0.00 in0.0 mm 0.00 in0.0 mm 0.43 in10.9 mm
05:16 PM 59.6°F15.3°C 55.1°F12.8°C 85% 7.5 mph WSW12.1 kmh WSW 10.0 mph16.1 kmh 29.70 in1005.8 mb 0.00 in0.0 mm 0.00 in0.0 mm 0.43 in10.9 mm
05:17 PM 59.7°F15.4°C 54.9°F12.7°C 84% 7.3 mph WSW11.7 kmh WSW 10.0 mph16.1 kmh 29.70 in1005.8 mb 0.00 in0.0 mm 0.00 in0.0 mm 0.43 in10.9 mm
05:18 PM 59.6°F15.3°C 55.1°F12.8°C 85% 5.4 mph WSW8.7 kmh WSW 9.0 mph14.5 kmh 29.70 in1005.8 mb 0.00 in0.0 mm 0.00 in0.0 mm 0.43 in10.9 mm
05:19 PM 59.7°F15.4°C 55.2°F12.9°C 85% 5.4 mph WSW8.7 kmh WSW 8.0 mph12.9 kmh 29.70 in1005.8 mb 0.00 in0.0 mm 0.00 in0.0 mm 0.43 in10.9 mm
05:20 PM 59.7°F15.4°C 55.2°F12.9°C 85% 7.8 mph WSW12.6 kmh WSW 9.0 mph14.5 kmh 29.70 in1005.8 mb 0.00 in0.0 mm 0.00 in0.0 mm 0.43 in10.9 mm
05:21 PM 59.7°F15.4°C 54.9°F12.7°C 84% 7.6 mph WSW12.2 kmh WSW 9.0 mph14.5 kmh 29.70 in1005.8 mb 0.00 in0.0 mm 0.00 in0.0 mm 0.43 in10.9 mm
05:22 PM 59.7°F15.4°C 55.2°F12.9°C 85% 6.9 mph WSW11.1 kmh WSW 9.0 mph14.5 kmh 29.70 in1005.8 mb 0.00 in0.0 mm 0.00 in0.0 mm 0.43 in10.9 mm
05:23 PM 59.7°F15.4°C 55.2°F12.9°C 85% 6.9 mph WSW11.1 kmh WSW 8.0 mph12.9 kmh 29.70 in1005.8 mb 0.00 in0.0 mm 0.00 in0.0 mm 0.43 in10.9 mm
05:24 PM 59.7°F15.4°C 54.9°F12.7°C 84% 6.7 mph WSW10.8 kmh WSW 9.0 mph14.5 kmh 29.70 in1005.8 mb 0.00 in0.0 mm 0.00 in0.0 mm 0.43 in10.9 mm
05:25 PM 59.7°F15.4°C 55.2°F12.9°C 85% 7.5 mph WSW12.1 kmh WSW 9.0 mph14.5 kmh 29.70 in1005.8 mb 0.00 in0.0 mm 0.00 in0.0 mm 0.43 in10.9 mm
05:26 PM 59.7°F15.4°C 54.9°F12.7°C 84% 4.6 mph WSW7.4 kmh WSW 9.0 mph14.5 kmh 29.70 in1005.8 mb 0.00 in0.0 mm 0.00 in0.0 mm 0.43 in10.9 mm
05:27 PM 59.8°F15.4°C 55.3°F12.9°C 85% 7.8 mph WSW12.6 kmh WSW 9.0 mph14.5 kmh 29.70 in1005.8 mb 0.00 in0.0 mm 0.00 in0.0 mm 0.43 in10.9 mm
05:28 PM 59.8°F15.4°C 55.0°F12.8°C 84% 6.7 mph WSW10.8 kmh WSW 9.0 mph14.5 kmh 29.70 in1005.8 mb 0.00 in0.0 mm 0.00 in0.0 mm 0.43 in10.9 mm
05:29 PM 59.8°F15.4°C 55.3°F12.9°C 85% 7.6 mph WSW12.2 kmh WSW 9.0 mph14.5 kmh 29.70 in1005.8 mb 0.00 in0.0 mm 0.00 in0.0 mm 0.43 in10.9 mm
05:30 PM 59.8°F15.4°C 55.0°F12.8°C 84% 9.5 mph WSW15.3 kmh WSW 11.0 mph17.7 kmh 29.70 in1005.8 mb 0.00 in0.0 mm 0.00 in0.0 mm 0.43 in10.9 mm
05:31 PM 59.9°F15.5°C 55.1°F12.8°C 84% 9.0 mph WSW14.5 kmh WSW 11.0 mph17.7 kmh 29.70 in1005.8 mb 0.00 in0.0 mm 0.00 in0.0 mm 0.43 in10.9 mm
05:32 PM 59.9°F15.5°C 55.1°F12.8°C 84% 8.0 mph WSW12.9 kmh WSW 12.0 mph19.3 kmh 29.70 in1005.8 mb 0.00 in0.0 mm 0.00 in0.0 mm 0.43 in10.9 mm
05:33 PM 59.9°F15.5°C 54.7°F12.6°C 83% 10.6 mph WSW17.1 kmh WSW 13.0 mph20.9 kmh 29.70 in1005.8 mb 0.00 in0.0 mm 0.00 in0.0 mm 0.43 in10.9 mm
05:34 PM 59.9°F15.5°C 55.1°F12.8°C 84% 10.2 mph WSW16.4 kmh WSW 13.0 mph20.9 kmh 29.70 in1005.8 mb 0.00 in0.0 mm 0.00 in0.0 mm 0.43 in10.9 mm
05:35 PM 60.0°F15.6°C 55.1°F12.8°C 84% 9.7 mph WSW15.6 kmh WSW 13.0 mph20.9 kmh 29.70 in1005.8 mb 0.00 in0.0 mm 0.00 in0.0 mm 0.43 in10.9 mm
05:36 PM 60.0°F15.6°C 54.8°F12.7°C 83% 10.4 mph WSW16.7 kmh WSW 12.0 mph19.3 kmh 29.70 in1005.8 mb 0.00 in0.0 mm 0.00 in0.0 mm 0.43 in10.9 mm
05:37 PM 60.1°F15.6°C 54.9°F12.7°C 83% 10.4 mph WSW16.7 kmh WSW 12.0 mph19.3 kmh 29.70 in1005.8 mb 0.00 in0.0 mm 0.00 in0.0 mm 0.43 in10.9 mm
05:38 PM 60.2°F15.7°C 54.7°F12.6°C 82% 8.5 mph WSW13.7 kmh WSW 12.0 mph19.3 kmh 29.70 in1005.8 mb 0.00 in0.0 mm 0.00 in0.0 mm 0.43 in10.9 mm
05:39 PM 60.2°F15.7°C 55.0°F12.8°C 83% 9.0 mph WSW14.5 kmh WSW 12.0 mph19.3 kmh 29.70 in1005.8 mb 0.00 in0.0 mm 0.00 in0.0 mm 0.43 in10.9 mm
05:40 PM 60.3°F15.7°C 54.8°F12.7°C 82% 11.0 mph WSW17.7 kmh WSW 13.0 mph20.9 kmh 29.70 in1005.8 mb 0.00 in0.0 mm 0.00 in0.0 mm 0.43 in10.9 mm
05:41 PM 60.4°F15.8°C 54.9°F12.7°C 82% 10.8 mph WSW17.4 kmh WSW 12.0 mph19.3 kmh 29.70 in1005.8 mb 0.00 in0.0 mm 0.00 in0.0 mm 0.43 in10.9 mm
05:42 PM 60.4°F15.8°C 54.9°F12.7°C 82% 9.5 mph WSW15.3 kmh WSW 12.0 mph19.3 kmh 29.70 in1005.8 mb 0.00 in0.0 mm 0.00 in0.0 mm 0.43 in10.9 mm
05:43 PM 60.5°F15.8°C 55.3°F12.9°C 83% 9.8 mph WSW15.8 kmh WSW 13.0 mph20.9 kmh 29.70 in1005.8 mb 0.00 in0.0 mm 0.00 in0.0 mm 0.43 in10.9 mm
05:44 PM 60.6°F15.9°C 55.1°F12.8°C 82% 10.8 mph WSW17.4 kmh WSW 13.0 mph20.9 kmh 29.70 in1005.8 mb 0.00 in0.0 mm 0.00 in0.0 mm 0.43 in10.9 mm
05:45 PM 60.6°F15.9°C 55.1°F12.8°C 82% 9.1 mph WSW14.6 kmh WSW 12.0 mph19.3 kmh 29.70 in1005.8 mb 0.00 in0.0 mm 0.00 in0.0 mm 0.43 in10.9 mm
05:46 PM 60.7°F15.9°C 54.8°F12.7°C 81% 10.9 mph WSW17.5 kmh WSW 12.0 mph19.3 kmh 29.70 in1005.8 mb 0.00 in0.0 mm 0.00 in0.0 mm 0.43 in10.9 mm
05:47 PM 60.7°F15.9°C 54.8°F12.7°C 81% 10.2 mph WSW16.4 kmh WSW 13.0 mph20.9 kmh 29.70 in1005.8 mb 0.00 in0.0 mm 0.00 in0.0 mm 0.43 in10.9 mm
05:48 PM 60.7°F15.9°C 54.8°F12.7°C 81% 11.3 mph WSW18.2 kmh WSW 13.0 mph20.9 kmh 29.70 in1005.8 mb 0.00 in0.0 mm 0.00 in0.0 mm 0.43 in10.9 mm
05:49 PM 60.6°F15.9°C 54.7°F12.6°C 81% 8.2 mph WSW13.2 kmh WSW 13.0 mph20.9 kmh 29.70 in1005.8 mb 0.00 in0.0 mm 0.00 in0.0 mm 0.43 in10.9 mm
05:50 PM 60.6°F15.9°C 55.1°F12.8°C 82% 10.9 mph WSW17.5 kmh WSW 12.0 mph19.3 kmh 29.70 in1005.8 mb 0.00 in0.0 mm 0.00 in0.0 mm 0.43 in10.9 mm
05:51 PM 60.5°F15.8°C 54.6°F12.6°C 81% 10.9 mph WSW17.5 kmh WSW 13.0 mph20.9 kmh 29.70 in1005.8 mb 0.00 in0.0 mm 0.00 in0.0 mm 0.43 in10.9 mm
05:52 PM 60.5°F15.8°C 54.6°F12.6°C 81% 8.0 mph WSW12.9 kmh WSW 13.0 mph20.9 kmh 29.70 in1005.8 mb 0.00 in0.0 mm 0.00 in0.0 mm 0.43 in10.9 mm
05:53 PM 60.4°F15.8°C 54.5°F12.5°C 81% 10.9 mph WSW17.5 kmh WSW 13.0 mph20.9 kmh 29.70 in1005.8 mb 0.00 in0.0 mm 0.00 in0.0 mm 0.43 in10.9 mm
05:54 PM 60.4°F15.8°C 54.5°F12.5°C 81% 9.1 mph WSW14.6 kmh WSW 13.0 mph20.9 kmh 29.70 in1005.8 mb 0.00 in0.0 mm 0.00 in0.0 mm 0.43 in10.9 mm
05:55 PM 60.4°F15.8°C 54.9°F12.7°C 82% 10.7 mph WSW17.2 kmh WSW 14.0 mph22.5 kmh 29.70 in1005.8 mb 0.00 in0.0 mm 0.00 in0.0 mm 0.43 in10.9 mm
05:56 PM 60.4°F15.8°C 54.9°F12.7°C 82% 10.5 mph WSW16.9 kmh WSW 14.0 mph22.5 kmh 29.70 in1005.8 mb 0.00 in0.0 mm 0.00 in0.0 mm 0.43 in10.9 mm
05:57 PM 60.3°F15.7°C 54.8°F12.7°C 82% 9.5 mph WSW15.3 kmh WSW 12.0 mph19.3 kmh 29.70 in1005.8 mb 0.00 in0.0 mm 0.00 in0.0 mm 0.43 in10.9 mm
05:58 PM 60.3°F15.7°C 54.8°F12.7°C 82% 11.6 mph WSW18.7 kmh WSW 14.0 mph22.5 kmh 29.70 in1005.8 mb 0.00 in0.0 mm 0.00 in0.0 mm 0.43 in10.9 mm
05:59 PM 60.3°F15.7°C 54.8°F12.7°C 82% 10.0 mph WSW16.1 kmh WSW 14.0 mph22.5 kmh 29.70 in1005.8 mb 0.00 in0.0 mm 0.00 in0.0 mm 0.43 in10.9 mm
06:00 PM 60.2°F15.7°C 54.7°F12.6°C 82% 10.6 mph WSW17.1 kmh WSW 13.0 mph20.9 kmh 29.70 in1005.8 mb 0.00 in0.0 mm 0.00 in0.0 mm 0.43 in10.9 mm
06:01 PM 60.2°F15.7°C 54.7°F12.6°C 82% 10.6 mph WSW17.1 kmh WSW 13.0 mph20.9 kmh 29.70 in1005.8 mb 0.00 in0.0 mm 0.00 in0.0 mm 0.43 in10.9 mm
06:02 PM 60.2°F15.7°C 55.0°F12.8°C 83% 11.0 mph WSW17.7 kmh WSW 12.0 mph19.3 kmh 29.70 in1005.8 mb 0.00 in0.0 mm 0.00 in0.0 mm 0.43 in10.9 mm
06:03 PM 60.2°F15.7°C 54.7°F12.6°C 82% 10.7 mph WSW17.2 kmh WSW 14.0 mph22.5 kmh 29.70 in1005.8 mb 0.00 in0.0 mm 0.00 in0.0 mm 0.43 in10.9 mm
06:04 PM 60.1°F15.6°C 54.6°F12.6°C 82% 12.9 mph WSW20.8 kmh WSW 16.0 mph25.7 kmh 29.70 in1005.8 mb 0.00 in0.0 mm 0.00 in0.0 mm 0.43 in10.9 mm
06:05 PM 60.1°F15.6°C 54.6°F12.6°C 82% 10.9 mph WSW17.5 kmh WSW 16.0 mph25.7 kmh 29.70 in1005.8 mb 0.00 in0.0 mm 0.00 in0.0 mm 0.43 in10.9 mm
06:06 PM 60.1°F15.6°C 54.6°F12.6°C 82% 11.3 mph WSW18.2 kmh WSW 14.0 mph22.5 kmh 29.70 in1005.8 mb 0.00 in0.0 mm 0.00 in0.0 mm 0.43 in10.9 mm
06:07 PM 60.0°F15.6°C 54.5°F12.5°C 82% 10.3 mph WSW16.6 kmh WSW 14.0 mph22.5 kmh 29.70 in1005.8 mb 0.00 in0.0 mm 0.00 in0.0 mm 0.43 in10.9 mm
06:08 PM 60.0°F15.6°C 54.5°F12.5°C 82% 10.9 mph WSW17.5 kmh WSW 13.0 mph20.9 kmh 29.70 in1005.8 mb 0.00 in0.0 mm 0.00 in0.0 mm 0.43 in10.9 mm
06:09 PM 60.0°F15.6°C 54.5°F12.5°C 82% 13.2 mph WSW21.2 kmh WSW 15.0 mph24.1 kmh 29.70 in1005.8 mb 0.00 in0.0 mm 0.00 in0.0 mm 0.43 in10.9 mm
06:10 PM 60.0°F15.6°C 54.5°F12.5°C 82% 10.5 mph WSW16.9 kmh WSW 15.0 mph24.1 kmh 29.70 in1005.8 mb 0.00 in0.0 mm 0.00 in0.0 mm 0.43 in10.9 mm
06:11 PM 60.0°F15.6°C 54.8°F12.7°C 83% 10.6 mph WSW17.1 kmh WSW 14.0 mph22.5 kmh 29.70 in1005.8 mb 0.00 in0.0 mm 0.00 in0.0 mm 0.43 in10.9 mm
06:12 PM 59.9°F15.5°C 54.7°F12.6°C 83% 12.2 mph WSW19.6 kmh WSW 16.0 mph25.7 kmh 29.70 in1005.8 mb 0.00 in0.0 mm 0.00 in0.0 mm 0.43 in10.9 mm
06:13 PM 59.9°F15.5°C 54.4°F12.4°C 82% 13.5 mph WSW21.7 kmh WSW 16.0 mph25.7 kmh 29.70 in1005.8 mb 0.00 in0.0 mm 0.00 in0.0 mm 0.43 in10.9 mm
06:14 PM 59.9°F15.5°C 54.4°F12.4°C 82% 12.4 mph WSW20.0 kmh WSW 15.0 mph24.1 kmh 29.70 in1005.8 mb 0.00 in0.0 mm 0.00 in0.0 mm 0.43 in10.9 mm
06:15 PM 59.9°F15.5°C 54.4°F12.4°C 82% 11.9 mph WSW19.2 kmh WSW 15.0 mph24.1 kmh 29.70 in1005.8 mb 0.00 in0.0 mm 0.00 in0.0 mm 0.43 in10.9 mm
06:16 PM 59.9°F15.5°C 54.7°F12.6°C 83% 11.1 mph WSW17.9 kmh WSW 14.0 mph22.5 kmh 29.70 in1005.8 mb 0.00 in0.0 mm 0.00 in0.0 mm 0.43 in10.9 mm
06:17 PM 59.9°F15.5°C 54.7°F12.6°C 83% 10.7 mph WSW17.2 kmh WSW 13.0 mph20.9 kmh 29.70 in1005.8 mb 0.00 in0.0 mm 0.00 in0.0 mm 0.43 in10.9 mm
06:18 PM 59.8°F15.4°C 54.3°F12.4°C 82% 12.3 mph WSW19.8 kmh WSW 14.0 mph22.5 kmh 29.70 in1005.8 mb 0.00 in0.0 mm 0.00 in0.0 mm 0.43 in10.9 mm
06:19 PM 59.8°F15.4°C 54.3°F12.4°C 82% 11.8 mph WSW19.0 kmh WSW 14.0 mph22.5 kmh 29.70 in1005.8 mb 0.00 in0.0 mm 0.00 in0.0 mm 0.43 in10.9 mm
06:20 PM 59.8°F15.4°C 54.3°F12.4°C 82% 11.7 mph WSW18.8 kmh WSW 14.0 mph22.5 kmh 29.70 in1005.8 mb 0.00 in0.0 mm 0.00 in0.0 mm 0.43 in10.9 mm
06:21 PM 59.8°F15.4°C 54.6°F12.6°C 83% 9.4 mph WSW15.1 kmh WSW 13.0 mph20.9 kmh 29.70 in1005.8 mb 0.00 in0.0 mm 0.00 in0.0 mm 0.43 in10.9 mm
06:22 PM 59.8°F15.4°C 55.0°F12.8°C 84% 8.3 mph WSW13.4 kmh WSW 12.0 mph19.3 kmh 29.70 in1005.8 mb 0.00 in0.0 mm 0.00 in0.0 mm 0.43 in10.9 mm
06:23 PM 59.7°F15.4°C 54.2°F12.3°C 82% 10.6 mph WSW17.1 kmh WSW 12.0 mph19.3 kmh 29.70 in1005.8 mb 0.00 in0.0 mm 0.00 in0.0 mm 0.43 in10.9 mm
06:24 PM 59.7°F15.4°C 54.5°F12.5°C 83% 9.5 mph WSW15.3 kmh WSW 12.0 mph19.3 kmh 29.70 in1005.8 mb 0.00 in0.0 mm 0.00 in0.0 mm 0.43 in10.9 mm
06:25 PM 59.7°F15.4°C 54.5°F12.5°C 83% 9.2 mph WSW14.8 kmh WSW 11.0 mph17.7 kmh 29.70 in1005.8 mb 0.00 in0.0 mm 0.00 in0.0 mm 0.43 in10.9 mm
06:26 PM 59.7°F15.4°C 54.5°F12.5°C 83% 8.5 mph WSW13.7 kmh WSW 11.0 mph17.7 kmh 29.70 in1005.8 mb 0.00 in0.0 mm 0.00 in0.0 mm 0.43 in10.9 mm
06:27 PM 59.7°F15.4°C 54.5°F12.5°C 83% 8.6 mph WSW13.8 kmh WSW 10.0 mph16.1 kmh 29.70 in1005.8 mb 0.00 in0.0 mm 0.00 in0.0 mm 0.43 in10.9 mm
06:28 PM 59.7°F15.4°C 54.5°F12.5°C 83% 9.1 mph WSW14.6 kmh WSW 12.0 mph19.3 kmh 29.70 in1005.8 mb 0.00 in0.0 mm 0.00 in0.0 mm 0.43 in10.9 mm
06:29 PM 59.7°F15.4°C 54.5°F12.5°C 83% 10.0 mph WSW16.1 kmh WSW 12.0 mph19.3 kmh 29.70 in1005.8 mb 0.00 in0.0 mm 0.00 in0.0 mm 0.43 in10.9 mm
06:30 PM 59.7°F15.4°C 54.5°F12.5°C 83% 8.7 mph WSW14.0 kmh WSW 11.0 mph17.7 kmh 29.70 in1005.8 mb 0.00 in0.0 mm 0.00 in0.0 mm 0.43 in10.9 mm
06:31 PM 59.6°F15.3°C 54.4°F12.4°C 83% 9.4 mph WSW15.1 kmh WSW 11.0 mph17.7 kmh 29.70 in1005.8 mb 0.00 in0.0 mm 0.00 in0.0 mm 0.43 in10.9 mm
06:32 PM 59.6°F15.3°C 54.4°F12.4°C 83% 9.5 mph WSW15.3 kmh WSW 11.0 mph17.7 kmh 29.70 in1005.8 mb 0.00 in0.0 mm 0.00 in0.0 mm 0.43 in10.9 mm
06:33 PM 59.6°F15.3°C 54.4°F12.4°C 83% 9.0 mph WSW14.5 kmh WSW 11.0 mph17.7 kmh 29.70 in1005.8 mb 0.00 in0.0 mm 0.00 in0.0 mm 0.43 in10.9 mm
06:34 PM 59.6°F15.3°C 54.4°F12.4°C 83% 9.0 mph WSW14.5 kmh WSW 10.0 mph16.1 kmh 29.70 in1005.8 mb 0.00 in0.0 mm 0.00 in0.0 mm 0.43 in10.9 mm
06:35 PM 59.6°F15.3°C 54.1°F12.3°C 82% 8.2 mph WSW13.2 kmh WSW 10.0 mph16.1 kmh 29.70 in1005.8 mb 0.00 in0.0 mm 0.00 in0.0 mm 0.43 in10.9 mm
06:36 PM 59.6°F15.3°C 54.4°F12.4°C 83% 7.0 mph WSW11.3 kmh WSW 10.0 mph16.1 kmh 29.70 in1005.8 mb 0.00 in0.0 mm 0.00 in0.0 mm 0.43 in10.9 mm
06:37 PM 59.5°F15.3°C 54.7°F12.6°C 84% 7.2 mph WSW11.6 kmh WSW 9.0 mph14.5 kmh 29.70 in1005.8 mb 0.00 in0.0 mm 0.00 in0.0 mm 0.43 in10.9 mm
06:38 PM 59.5°F15.3°C 54.3°F12.4°C 83% 7.4 mph WSW11.9 kmh WSW 9.0 mph14.5 kmh 29.70 in1005.8 mb 0.00 in0.0 mm 0.00 in0.0 mm 0.43 in10.9 mm
06:39 PM 59.5°F15.3°C 54.3°F12.4°C 83% 8.0 mph WSW12.9 kmh WSW 10.0 mph16.1 kmh 29.70 in1005.8 mb 0.00 in0.0 mm 0.00 in0.0 mm 0.43 in10.9 mm
06:40 PM 59.5°F15.3°C 54.3°F12.4°C 83% 8.2 mph WSW13.2 kmh WSW 10.0 mph16.1 kmh 29.70 in1005.8 mb 0.00 in0.0 mm 0.00 in0.0 mm 0.43 in10.9 mm
06:41 PM 59.4°F15.2°C 54.2°F12.3°C 83% 9.1 mph WSW14.6 kmh WSW 11.0 mph17.7 kmh 29.70 in1005.8 mb 0.00 in0.0 mm 0.00 in0.0 mm 0.43 in10.9 mm
06:42 PM 59.5°F15.3°C 54.3°F12.4°C 83% 7.9 mph WSW12.7 kmh WSW 11.0 mph17.7 kmh 29.70 in1005.8 mb 0.00 in0.0 mm 0.00 in0.0 mm 0.43 in10.9 mm
06:43 PM 59.4°F15.2°C 54.6°F12.6°C 84% 6.5 mph WSW10.5 kmh WSW 10.0 mph16.1 kmh 29.70 in1005.8 mb 0.00 in0.0 mm 0.00 in0.0 mm 0.43 in10.9 mm
06:44 PM 59.4°F15.2°C 54.6°F12.6°C 84% 6.6 mph WSW10.6 kmh WSW 9.0 mph14.5 kmh 29.70 in1005.8 mb 0.00 in0.0 mm 0.00 in0.0 mm 0.43 in10.9 mm
06:45 PM 59.4°F15.2°C 54.6°F12.6°C 84% 7.4 mph WSW11.9 kmh WSW 10.0 mph16.1 kmh 29.70 in1005.8 mb 0.00 in0.0 mm 0.00 in0.0 mm 0.43 in10.9 mm
06:46 PM 59.4°F15.2°C 54.2°F12.3°C 83% 6.3 mph WSW10.1 kmh WSW 10.0 mph16.1 kmh 29.69 in1005.4 mb 0.00 in0.0 mm 0.00 in0.0 mm 0.43 in10.9 mm
06:47 PM 59.4°F15.2°C 54.6°F12.6°C 84% 6.8 mph WSW10.9 kmh WSW 10.0 mph16.1 kmh 29.69 in1005.4 mb 0.00 in0.0 mm 0.00 in0.0 mm 0.43 in10.9 mm
06:48 PM 59.4°F15.2°C 54.9°F12.7°C 85% 8.1 mph WSW13.0 kmh WSW 10.0 mph16.1 kmh 29.69 in1005.4 mb 0.00 in0.0 mm 0.00 in0.0 mm 0.43 in10.9 mm
06:49 PM 59.4°F15.2°C 54.2°F12.3°C 83% 9.0 mph WSW14.5 kmh WSW 11.0 mph17.7 kmh 29.69 in1005.4 mb 0.00 in0.0 mm 0.00 in0.0 mm 0.43 in10.9 mm
06:50 PM 59.4°F15.2°C 54.2°F12.3°C 83% 9.0 mph WSW14.5 kmh WSW 11.0 mph17.7 kmh 29.69 in1005.4 mb 0.00 in0.0 mm 0.00 in0.0 mm 0.43 in10.9 mm
06:51 PM 59.3°F15.2°C 54.1°F12.3°C 83% 9.7 mph WSW15.6 kmh WSW 12.0 mph19.3 kmh 29.69 in1005.4 mb 0.00 in0.0 mm 0.00 in0.0 mm 0.43 in10.9 mm
06:52 PM 59.3°F15.2°C 54.5°F12.5°C 84% 9.1 mph WSW14.6 kmh WSW 12.0 mph19.3 kmh 29.69 in1005.4 mb 0.00 in0.0 mm 0.00 in0.0 mm 0.43 in10.9 mm
06:53 PM 59.4°F15.2°C 54.6°F12.6°C 84% 9.6 mph WSW15.4 kmh WSW 11.0 mph17.7 kmh 29.69 in1005.4 mb 0.00 in0.0 mm 0.00 in0.0 mm 0.43 in10.9 mm
06:54 PM 59.3°F15.2°C 54.5°F12.5°C 84% 8.5 mph WSW13.7 kmh WSW 11.0 mph17.7 kmh 29.69 in1005.4 mb 0.00 in0.0 mm 0.00 in0.0 mm 0.43 in10.9 mm
06:55 PM 59.3°F15.2°C 54.5°F12.5°C 84% 9.2 mph WSW14.8 kmh WSW 11.0 mph17.7 kmh 29.69 in1005.4 mb 0.00 in0.0 mm 0.00 in0.0 mm 0.43 in10.9 mm
06:56 PM 59.3°F15.2°C 54.5°F12.5°C 84% 10.3 mph WSW16.6 kmh WSW 12.0 mph19.3 kmh 29.69 in1005.4 mb 0.00 in0.0 mm 0.00 in0.0 mm 0.43 in10.9 mm
06:57 PM 59.3°F15.2°C 54.5°F12.5°C 84% 9.5 mph WSW15.3 kmh WSW 12.0 mph19.3 kmh 29.69 in1005.4 mb 0.00 in0.0 mm 0.00 in0.0 mm 0.43 in10.9 mm
06:58 PM 59.3°F15.2°C 54.5°F12.5°C 84% 8.8 mph WSW14.2 kmh WSW 11.0 mph17.7 kmh 29.69 in1005.4 mb 0.00 in0.0 mm 0.00 in0.0 mm 0.43 in10.9 mm
06:59 PM 59.3°F15.2°C 54.5°F12.5°C 84% 9.9 mph WSW15.9 kmh WSW 11.0 mph17.7 kmh 29.69 in1005.4 mb 0.00 in0.0 mm 0.00 in0.0 mm 0.43 in10.9 mm
07:00 PM 59.3°F15.2°C 54.5°F12.5°C 84% 7.5 mph SW12.1 kmh SW 11.0 mph17.7 kmh 29.69 in1005.4 mb 0.00 in0.0 mm 0.00 in0.0 mm 0.43 in10.9 mm
07:01 PM 59.3°F15.2°C 54.8°F12.7°C 85% 7.9 mph WSW12.7 kmh WSW 10.0 mph16.1 kmh 29.69 in1005.4 mb 0.00 in0.0 mm 0.00 in0.0 mm 0.43 in10.9 mm
07:02 PM 59.3°F15.2°C 54.8°F12.7°C 85% 7.9 mph WSW12.7 kmh WSW 10.0 mph16.1 kmh 29.69 in1005.4 mb 0.00 in0.0 mm 0.00 in0.0 mm 0.43 in10.9 mm
07:03 PM 59.3°F15.2°C 54.8°F12.7°C 85% 9.4 mph WSW15.1 kmh WSW 10.0 mph16.1 kmh 29.69 in1005.4 mb 0.00 in0.0 mm 0.00 in0.0 mm 0.43 in10.9 mm
07:04 PM 59.3°F15.2°C 54.8°F12.7°C 85% 8.7 mph WSW14.0 kmh WSW 10.0 mph16.1 kmh 29.69 in1005.4 mb 0.00 in0.0 mm 0.00 in0.0 mm 0.43 in10.9 mm
07:05 PM 59.2°F15.1°C 54.7°F12.6°C 85% 8.7 mph WSW14.0 kmh WSW 11.0 mph17.7 kmh 29.69 in1005.4 mb 0.00 in0.0 mm 0.00 in0.0 mm 0.43 in10.9 mm
07:06 PM 59.3°F15.2°C 54.8°F12.7°C 85% 6.8 mph SW10.9 kmh SW 11.0 mph17.7 kmh 29.69 in1005.4 mb 0.00 in0.0 mm 0.00 in0.0 mm 0.43 in10.9 mm
07:07 PM 59.3°F15.2°C 55.1°F12.8°C 86% 7.4 mph SW11.9 kmh SW 9.0 mph14.5 kmh 29.69 in1005.4 mb 0.00 in0.0 mm 0.00 in0.0 mm 0.43 in10.9 mm
07:08 PM 59.3°F15.2°C 54.8°F12.7°C 85% 7.5 mph WSW12.1 kmh WSW 10.0 mph16.1 kmh 29.69 in1005.4 mb 0.00 in0.0 mm 0.00 in0.0 mm 0.43 in10.9 mm
07:09 PM 59.2°F15.1°C 55.0°F12.8°C 86% 8.2 mph WSW13.2 kmh WSW 11.0 mph17.7 kmh 29.69 in1005.4 mb 0.00 in0.0 mm 0.00 in0.0 mm 0.43 in10.9 mm
07:10 PM 59.2°F15.1°C 55.0°F12.8°C 86% 7.8 mph SW12.6 kmh SW 11.0 mph17.7 kmh 29.69 in1005.4 mb 0.00 in0.0 mm 0.00 in0.0 mm 0.43 in10.9 mm
07:11 PM 59.2°F15.1°C 54.7°F12.6°C 85% 8.0 mph SW12.9 kmh SW 11.0 mph17.7 kmh 29.69 in1005.4 mb 0.00 in0.0 mm 0.00 in0.0 mm 0.43 in10.9 mm
07:12 PM 59.2°F15.1°C 55.0°F12.8°C 86% 5.9 mph SW9.5 kmh SW 10.0 mph16.1 kmh 29.69 in1005.4 mb 0.00 in0.0 mm 0.00 in0.0 mm 0.43 in10.9 mm
07:13 PM 59.1°F15.1°C 54.6°F12.6°C 85% 6.0 mph SW9.7 kmh SW 9.0 mph14.5 kmh 29.69 in1005.4 mb 0.00 in0.0 mm 0.00 in0.0 mm 0.43 in10.9 mm
07:14 PM 59.1°F15.1°C 54.6°F12.6°C 85% 8.0 mph WSW12.9 kmh WSW 10.0 mph16.1 kmh 29.69 in1005.4 mb 0.00 in0.0 mm 0.00 in0.0 mm 0.43 in10.9 mm
07:15 PM 59.0°F15.0°C 54.8°F12.7°C 86% 8.2 mph SW13.2 kmh SW 10.0 mph16.1 kmh 29.69 in1005.4 mb 0.00 in0.0 mm 0.00 in0.0 mm 0.43 in10.9 mm
07:16 PM 58.9°F14.9°C 54.7°F12.6°C 86% 9.0 mph SW14.5 kmh SW 11.0 mph17.7 kmh 29.69 in1005.4 mb 0.00 in0.0 mm 0.00 in0.0 mm 0.43 in10.9 mm
07:17 PM 58.9°F14.9°C 54.7°F12.6°C 86% 7.5 mph SW12.1 kmh SW 11.0 mph17.7 kmh 29.69 in1005.4 mb 0.00 in0.0 mm 0.00 in0.0 mm 0.43 in10.9 mm
07:18 PM 58.9°F14.9°C 54.7°F12.6°C 86% 4.0 mph SW6.4 kmh SW 9.0 mph14.5 kmh 29.69 in1005.4 mb 0.00 in0.0 mm 0.00 in0.0 mm 0.43 in10.9 mm
07:19 PM 58.8°F14.9°C 54.3°F12.4°C 85% 6.4 mph SW10.3 kmh SW 8.0 mph12.9 kmh 29.69 in1005.4 mb 0.00 in0.0 mm 0.00 in0.0 mm 0.43 in10.9 mm
07:20 PM 58.8°F14.9°C 54.3°F12.4°C 85% 7.4 mph SW11.9 kmh SW 9.0 mph14.5 kmh 29.69 in1005.4 mb 0.00 in0.0 mm 0.00 in0.0 mm 0.43 in10.9 mm
07:21 PM 58.7°F14.8°C 54.2°F12.3°C 85% 6.2 mph SW10.0 kmh SW 9.0 mph14.5 kmh 29.69 in1005.4 mb 0.00 in0.0 mm 0.00 in0.0 mm 0.43 in10.9 mm
07:22 PM 58.7°F14.8°C 54.2°F12.3°C 85% 7.1 mph SW11.4 kmh SW 10.0 mph16.1 kmh 29.69 in1005.4 mb 0.00 in0.0 mm 0.00 in0.0 mm 0.43 in10.9 mm
07:23 PM 58.6°F14.8°C 54.1°F12.3°C 85% 7.9 mph SW12.7 kmh SW 11.0 mph17.7 kmh 29.69 in1005.4 mb 0.00 in0.0 mm 0.00 in0.0 mm 0.43 in10.9 mm
07:24 PM 58.7°F14.8°C 54.2°F12.3°C 85% 6.9 mph SW11.1 kmh SW 11.0 mph17.7 kmh 29.69 in1005.4 mb 0.00 in0.0 mm 0.00 in0.0 mm 0.43 in10.9 mm
07:25 PM 58.6°F14.8°C 54.1°F12.3°C 85% 6.2 mph SW10.0 kmh SW 8.0 mph12.9 kmh 29.69 in1005.4 mb 0.00 in0.0 mm 0.00 in0.0 mm 0.43 in10.9 mm
07:26 PM 58.6°F14.8°C 54.1°F12.3°C 85% 6.5 mph SW10.5 kmh SW 8.0 mph12.9 kmh 29.69 in1005.4 mb 0.00 in0.0 mm 0.00 in0.0 mm 0.43 in10.9 mm
07:27 PM 58.6°F14.8°C 54.1°F12.3°C 85% 7.0 mph SW11.3 kmh SW 9.0 mph14.5 kmh 29.69 in1005.4 mb 0.00 in0.0 mm 0.00 in0.0 mm 0.43 in10.9 mm
07:28 PM 58.6°F14.8°C 54.1°F12.3°C 85% 7.0 mph SW11.3 kmh SW 10.0 mph16.1 kmh 29.69 in1005.4 mb 0.00 in0.0 mm 0.00 in0.0 mm 0.43 in10.9 mm
07:29 PM 58.6°F14.8°C 54.1°F12.3°C 85% 8.3 mph SW13.4 kmh SW 11.0 mph17.7 kmh 29.69 in1005.4 mb 0.00 in0.0 mm 0.00 in0.0 mm 0.43 in10.9 mm
07:30 PM 58.6°F14.8°C 54.1°F12.3°C 85% 6.9 mph SW11.1 kmh SW 11.0 mph17.7 kmh 29.69 in1005.4 mb 0.00 in0.0 mm 0.00 in0.0 mm 0.43 in10.9 mm
07:31 PM